Darstellungsparameter: Aktuell verwendete Einstellungen:
Skalierung der Graphiken ... ?
xyx+y,   Skalierungsfaktor:      Skalierung: Modus: x, Faktor: 1
Darstellungszeitraum ... ?
Vom - - bis: - -   Zeitraum: 20.02.2018 - 19.05.2018
Min/Max/Avg-Anzeige ... ?
Zeige MMA aktuell
Zeige MMA Monat
Zeige MMA alles
Zeige --A aktuell
Zeige --A Monat
Zeige --A alles
Keine MMA-Anzeige
MMA:
Average (ber die Originaldaten)
MMA-Basis: 17.04.2019 - 19.05.2019
Quicknavigation für Darstellung... ?
Tage:      1T, 2T, 3T, 5T -1T -2T -3T -5T +1T +2T +3T +5T
Wochen: 1W, 2W, 3W -1W -2W -3W +1W +2W +3W
Monate: 1M, 3M, 6M -1M -3M -6M +1M +3M +6M
Jahre:    1J, 3J, 5J, 10J -1J -3J -5J -10J +1J +3J +5J +10J
Nutze für die Darstellung ... ?
Originaldaten oder Mittelwerte auf ...
Stundenbasis Tagesbasis Wochenbasis
Monatsbasis Jahresbasis      Datenbasis: Original-Daten
Darstellen als:
Statistik (Auto) Statistik J:M      Darstellung:
Zur Graphik,    zurück zur Übersicht aller Sensoren.
 
Tabellarische Datenbersicht: ?
 
Sensor: Nr:Datum:Temp:Abs-Feuchte:Windchill:Wind:
Aussen-T/F 1 20-02-2018 00:00:00 -0.4 C 4.29 g/m*3 -0.4 C 0 km/h
2 20-02-2018 00:05:00 -0.4 C 4.29 g/m*3 -0.4 C 0 km/h
3 20-02-2018 00:10:00 -0.5 C 4.26 g/m*3 -0.5 C 0 km/h
4 20-02-2018 00:15:00 -0.5 C 4.26 g/m*3 -0.5 C 0 km/h
5 20-02-2018 00:20:00 -0.6 C 4.28 g/m*3 -0.6 C 0 km/h
6 20-02-2018 00:25:00 -0.5 C 4.31 g/m*3 -0.5 C 0 km/h
7 20-02-2018 00:30:00 -0.5 C 4.31 g/m*3 -0.5 C 0 km/h
8 20-02-2018 00:35:00 -0.5 C 4.31 g/m*3 -0.5 C 0 km/h
9 20-02-2018 00:40:00 -0.5 C 4.31 g/m*3 -0.5 C 0 km/h
10 20-02-2018 00:45:00 -0.5 C 4.31 g/m*3 -0.5 C 0 km/h
11 20-02-2018 00:50:00 -0.6 C 4.28 g/m*3 -0.6 C 0 km/h
12 20-02-2018 00:55:00 -0.6 C 4.23 g/m*3 -0.6 C 0 km/h
13 20-02-2018 01:00:00 -0.7 C 4.25 g/m*3 -0.7 C 0 km/h
14 20-02-2018 01:05:00 -0.7 C 4.2 g/m*3 -0.7 C 0 km/h
15 20-02-2018 01:10:00 -0.8 C 4.22 g/m*3 -0.8 C 0 km/h
16 20-02-2018 01:15:00 -0.8 C 4.22 g/m*3 -0.8 C 0 km/h
17 20-02-2018 01:20:00 -0.8 C 4.22 g/m*3 -0.8 C 0 km/h
18 20-02-2018 01:25:00 -0.8 C 4.22 g/m*3 -0.8 C 0 km/h
19 20-02-2018 01:30:00 -0.8 C 4.22 g/m*3 -0.8 C 0 km/h
20 20-02-2018 01:35:00 -0.7 C 4.25 g/m*3 -0.7 C 0 km/h
21 20-02-2018 01:40:00 -0.7 C 4.29 g/m*3 -0.7 C 0 km/h
22 20-02-2018 01:45:00 -0.7 C 4.29 g/m*3 -0.7 C 0 km/h
23 20-02-2018 01:50:00 -0.7 C 4.29 g/m*3 -0.7 C 0 km/h
24 20-02-2018 01:55:00 -0.7 C 4.29 g/m*3 -0.7 C 0 km/h
25 20-02-2018 02:00:00 -0.7 C 4.29 g/m*3 -0.7 C 0 km/h
Sensor: Nr:Datum:Temp:Abs-Feuchte:Windchill:Wind:
Aussen-T/F 26 20-02-2018 02:05:00 -0.7 C 4.29 g/m*3 -0.7 C 0 km/h
27 20-02-2018 02:10:00 -0.7 C 4.29 g/m*3 -0.7 C 0 km/h
28 20-02-2018 02:15:00 -0.6 C 4.32 g/m*3 -0.6 C 0 km/h
29 20-02-2018 02:20:00 -0.6 C 4.32 g/m*3 -0.6 C 0 km/h
30 20-02-2018 02:25:00 -0.7 C 4.29 g/m*3 -0.7 C 0 km/h
31 20-02-2018 02:30:00 -0.7 C 4.25 g/m*3 -0.7 C 0 km/h
32 20-02-2018 02:35:00 -0.8 C 4.22 g/m*3 -0.8 C 0 km/h
33 20-02-2018 02:40:00 -0.8 C 4.26 g/m*3 -0.8 C 0 km/h
34 20-02-2018 02:45:00 -0.8 C 4.26 g/m*3 -0.8 C 0 km/h
35 20-02-2018 02:50:00 -0.9 C 4.23 g/m*3 -0.9 C 0 km/h
36 20-02-2018 02:55:00 -0.9 C 4.23 g/m*3 -0.9 C 0 km/h
37 20-02-2018 03:00:00 -1 C 4.2 g/m*3 -1 C 0 km/h
38 20-02-2018 03:05:00 -1.1 C 4.13 g/m*3 -1.1 C 0 km/h
39 20-02-2018 03:10:00 -1.2 C 4.1 g/m*3 -1.2 C 0 km/h
40 20-02-2018 03:15:00 -1.3 C 4.12 g/m*3 -1.3 C 0 km/h
41 20-02-2018 03:20:00 -1.3 C 4.12 g/m*3 -1.3 C 0 km/h
42 20-02-2018 03:25:00 -1.4 C 4.09 g/m*3 -1.4 C 0 km/h
43 20-02-2018 03:30:00 -1.4 C 4.09 g/m*3 -1.4 C 0 km/h
44 20-02-2018 03:35:00 -1.5 C 4.06 g/m*3 -1.5 C 0 km/h
45 20-02-2018 03:40:00 -1.6 C 4.03 g/m*3 -1.6 C 0 km/h
46 20-02-2018 03:45:00 -1.6 C 4.03 g/m*3 -1.6 C 0 km/h
47 20-02-2018 03:50:00 -1.6 C 4.03 g/m*3 -1.6 C 0 km/h
48 20-02-2018 03:55:00 -1.6 C 4.03 g/m*3 -1.6 C 0 km/h
49 20-02-2018 04:00:00 -1.7 C 4 g/m*3 -1.7 C 0 km/h
50 20-02-2018 04:05:00 -1.7 C 4 g/m*3 -1.7 C 0 km/h
Sensor: Nr:Datum:Temp:Abs-Feuchte:Windchill:Wind:
Aussen-T/F 51 20-02-2018 04:10:00 -1.7 C 4 g/m*3 -1.7 C 0 km/h
52 20-02-2018 04:15:00 -1.7 C 4 g/m*3 -1.7 C 0 km/h
53 20-02-2018 04:20:00 -1.7 C 4 g/m*3 -1.7 C 0 km/h
54 20-02-2018 04:25:00 -1.8 C 3.98 g/m*3 -1.8 C 0 km/h
55 20-02-2018 04:30:00 -1.8 C 3.98 g/m*3 -1.8 C 0 km/h
56 20-02-2018 04:35:00 -1.9 C 3.95 g/m*3 -1.9 C 0 km/h
57 20-02-2018 04:40:00 -1.9 C 3.99 g/m*3 -1.9 C 0 km/h
58 20-02-2018 04:45:00 -1.9 C 3.99 g/m*3 -1.9 C 0 km/h
59 20-02-2018 04:50:00 -2 C 3.96 g/m*3 -2 C 0 km/h
60 20-02-2018 04:55:00 -2.1 C 3.89 g/m*3 -2.1 C 0 km/h
61 20-02-2018 05:00:00 -2.1 C 3.93 g/m*3 -2.1 C 0 km/h
62 20-02-2018 05:05:00 -2.2 C 3.91 g/m*3 -2.2 C 0 km/h
63 20-02-2018 05:10:00 -2.2 C 3.91 g/m*3 -2.2 C 0 km/h
64 20-02-2018 05:15:00 -2.2 C 3.91 g/m*3 -2.2 C 0 km/h
65 20-02-2018 05:20:00 -2.3 C 3.88 g/m*3 -2.3 C 0 km/h
66 20-02-2018 05:25:00 -2.3 C 3.88 g/m*3 -2.3 C 0 km/h
67 20-02-2018 05:30:00 -2.3 C 3.88 g/m*3 -2.3 C 0 km/h
68 20-02-2018 05:35:00 -2.3 C 3.88 g/m*3 -2.3 C 0 km/h
69 20-02-2018 05:40:00 -2.3 C 3.88 g/m*3 -2.3 C 0 km/h
70 20-02-2018 05:45:00 -2.3 C 3.88 g/m*3 -2.3 C 0 km/h
71 20-02-2018 05:50:00 -2.2 C 3.91 g/m*3 -2.2 C 0 km/h
72 20-02-2018 05:55:00 -2.2 C 3.91 g/m*3 -2.2 C 0 km/h
73 20-02-2018 06:00:00 -2.2 C 3.91 g/m*3 -2.2 C 0 km/h
74 20-02-2018 06:05:00 -2.2 C 3.91 g/m*3 -2.2 C 0 km/h
75 20-02-2018 06:10:00 -2.2 C 3.91 g/m*3 -2.2 C 0 km/h
Sensor: Nr:Datum:Temp:Abs-Feuchte:Windchill:Wind:
Aussen-T/F 76 20-02-2018 06:15:00 -2.2 C 3.91 g/m*3 -2.2 C 0 km/h
77 20-02-2018 06:20:00 -2.2 C 3.91 g/m*3 -2.2 C 0 km/h
78 20-02-2018 06:25:00 -2.2 C 3.95 g/m*3 -2.2 C 0 km/h
79 20-02-2018 06:30:00 -2.2 C 3.95 g/m*3 -2.2 C 0 km/h
80 20-02-2018 06:35:00 -2.2 C 3.95 g/m*3 -2.2 C 0 km/h
81 20-02-2018 06:40:00 -2.2 C 3.95 g/m*3 -2.2 C 0 km/h
82 20-02-2018 06:45:00 -2.2 C 3.95 g/m*3 -2.2 C 0 km/h
83 20-02-2018 06:50:00 -2.2 C 3.95 g/m*3 -2.2 C 0 km/h
84 20-02-2018 06:55:00 -2.1 C 3.98 g/m*3 -2.1 C 0 km/h
85 20-02-2018 07:00:00 -2.1 C 3.98 g/m*3 -2.1 C 0 km/h
86 20-02-2018 07:05:00 -2.1 C 3.98 g/m*3 -2.1 C 0 km/h
87 20-02-2018 07:10:00 -2 C 4 g/m*3 -2 C 0 km/h
88 20-02-2018 07:15:00 -1.9 C 4.03 g/m*3 -1.9 C 0 km/h
89 20-02-2018 07:20:00 -1.9 C 4.03 g/m*3 -1.9 C 0 km/h
90 20-02-2018 07:25:00 -1.9 C 4.03 g/m*3 -1.9 C 0 km/h
91 20-02-2018 07:30:00 -1.8 C 4.06 g/m*3 -1.8 C 0 km/h
92 20-02-2018 07:35:00 -1.9 C 4.03 g/m*3 -1.9 C 0 km/h
93 20-02-2018 07:40:00 -1.8 C 4.06 g/m*3 -1.8 C 0 km/h
94 20-02-2018 07:45:00 -1.8 C 4.06 g/m*3 -1.8 C 0 km/h
95 20-02-2018 07:50:00 -1.8 C 4.06 g/m*3 -1.8 C 0 km/h
96 20-02-2018 07:55:00 -1.7 C 4.09 g/m*3 -1.7 C 0 km/h
97 20-02-2018 08:00:00 -1.7 C 4.09 g/m*3 -1.7 C 0 km/h
98 20-02-2018 08:05:00 -1.7 C 4.09 g/m*3 -1.7 C 0 km/h
99 20-02-2018 08:10:00 -1.6 C 4.12 g/m*3 -1.6 C 0 km/h
100 20-02-2018 08:15:00 -1.5 C 4.15 g/m*3 -1.5 C 0 km/h
Sensor: Nr:Datum:Temp:Abs-Feuchte:Windchill:Wind:
Aussen-T/F 101 20-02-2018 08:20:00 -1.4 C 4.18 g/m*3 -1.4 C 0 km/h
102 20-02-2018 08:25:00 -1.4 C 4.18 g/m*3 -1.4 C 0 km/h
103 20-02-2018 08:30:00 -1.4 C 4.18 g/m*3 -1.4 C 0 km/h
104 20-02-2018 08:35:00 -1.3 C 4.21 g/m*3 -1.3 C 0 km/h
105 20-02-2018 08:40:00 -1.3 C 4.21 g/m*3 -1.3 C 0 km/h
106 20-02-2018 08:45:00 -1.3 C 4.21 g/m*3 -1.3 C 0 km/h
107 20-02-2018 08:50:00 -1.3 C 4.21 g/m*3 -1.3 C 4.8 km/h
108 20-02-2018 08:55:00 -1.2 C 4.24 g/m*3 -1.2 C 0 km/h
109 20-02-2018 09:00:00 -1.2 C 4.24 g/m*3 -1.2 C 0 km/h
110 20-02-2018 09:05:00 -1.2 C 4.24 g/m*3 -1.2 C 0 km/h
111 20-02-2018 09:10:00 -1.2 C 4.24 g/m*3 -1.2 C 0 km/h
112 20-02-2018 09:15:00 -1.2 C 4.24 g/m*3 -1.2 C 0 km/h
113 20-02-2018 09:20:00 -1.1 C 4.26 g/m*3 -1.1 C 0 km/h
114 20-02-2018 09:25:00 -1.1 C 4.26 g/m*3 -1.1 C 0 km/h
115 20-02-2018 09:30:00 -1.1 C 4.26 g/m*3 -1.1 C 0 km/h
116 20-02-2018 09:35:00 -1.1 C 4.26 g/m*3 -1.1 C 0 km/h
117 20-02-2018 09:40:00 -1.2 C 4.24 g/m*3 -1.2 C 0 km/h
118 20-02-2018 09:45:00 -1.2 C 4.24 g/m*3 -1.2 C 0 km/h
119 20-02-2018 09:50:00 -1.2 C 4.24 g/m*3 -1.2 C 0 km/h
120 20-02-2018 09:55:00 -1.2 C 4.24 g/m*3 -1.2 C 0 km/h
121 20-02-2018 10:00:00 -1.2 C 4.24 g/m*3 -1.2 C 0 km/h
122 20-02-2018 10:05:00 -1.2 C 4.24 g/m*3 -1.2 C 0 km/h
123 20-02-2018 10:10:00 -1.2 C 4.24 g/m*3 -1.2 C 0 km/h
124 20-02-2018 10:15:00 -1.2 C 4.24 g/m*3 -1.2 C 0 km/h
125 20-02-2018 10:20:00 -1.1 C 4.26 g/m*3 -1.1 C 0 km/h
Sensor: Nr:Datum:Temp:Abs-Feuchte:Windchill:Wind:
Aussen-T/F 126 20-02-2018 10:25:00 -0.9 C 4.32 g/m*3 -0.9 C 0 km/h
127 20-02-2018 10:30:00 -0.8 C 4.35 g/m*3 -0.8 C 0 km/h
128 20-02-2018 10:35:00 -0.7 C 4.43 g/m*3 -0.7 C 0 km/h
129 20-02-2018 10:40:00 -0.6 C 4.46 g/m*3 -0.6 C 0 km/h
130 20-02-2018 10:45:00 -0.4 C 4.48 g/m*3 -0.4 C 0 km/h
131 20-02-2018 10:50:00 -0.3 C 4.51 g/m*3 -0.3 C 0 km/h
132 20-02-2018 10:55:00 -0.2 C 4.54 g/m*3 -0.2 C 0 km/h
133 20-02-2018 11:00:00 -0.2 C 4.54 g/m*3 -0.2 C 0 km/h
134 20-02-2018 11:05:00 0 C 4.6 g/m*3 0 C 0 km/h
135 20-02-2018 11:10:00 0.2 C 4.67 g/m*3 0.2 C 0 km/h
136 20-02-2018 11:15:00 0.3 C 4.7 g/m*3 0.3 C 0 km/h
137 20-02-2018 11:20:00 0.4 C 4.73 g/m*3 0.4 C 0 km/h
138 20-02-2018 11:25:00 0.6 C 4.8 g/m*3 0.6 C 0 km/h
139 20-02-2018 11:30:00 0.7 C 4.78 g/m*3 0.7 C 0 km/h
140 20-02-2018 11:35:00 0.8 C 4.76 g/m*3 0.8 C 0 km/h
141 20-02-2018 11:40:00 1 C 4.88 g/m*3 1 C 0 km/h
142 20-02-2018 11:45:00 1.2 C 4.89 g/m*3 1.2 C 1.6 km/h
143 20-02-2018 11:50:00 1.2 C 4.89 g/m*3 1.2 C 0 km/h
144 20-02-2018 11:55:00 1.3 C 4.93 g/m*3 1.3 C 0 km/h
145 20-02-2018 12:00:00 1.4 C 4.96 g/m*3 1.4 C 0 km/h
146 20-02-2018 12:05:00 1.6 C 5.03 g/m*3 1.6 C 0 km/h
147 20-02-2018 12:10:00 1.7 C 5.01 g/m*3 1.7 C 0 km/h
148 20-02-2018 12:15:00 1.8 C 4.99 g/m*3 1.8 C 0 km/h
149 20-02-2018 12:20:00 2 C 5.06 g/m*3 2 C 0 km/h
150 20-02-2018 12:25:00 2.2 C 5.13 g/m*3 2.2 C 0 km/h
Sensor: Nr:Datum:Temp:Abs-Feuchte:Windchill:Wind:
Aussen-T/F 151 20-02-2018 12:30:00 2.3 C 5.1 g/m*3 2.3 C 0 km/h
152 20-02-2018 12:35:00 2.5 C 5.17 g/m*3 2.5 C 0 km/h
153 20-02-2018 12:40:00 2.7 C 5.24 g/m*3 2.7 C 0 km/h
154 20-02-2018 12:45:00 2.8 C 5.22 g/m*3 2.8 C 1.6 km/h
155 20-02-2018 12:50:00 3 C 5.23 g/m*3 3 C 3.2 km/h
156 20-02-2018 12:55:00 3.1 C 5.27 g/m*3 3.1 C 0 km/h
157 20-02-2018 13:00:00 3.1 C 5.03 g/m*3 3.1 C 0 km/h
158 20-02-2018 13:05:00 3.2 C 5.12 g/m*3 3.2 C 0 km/h
159 20-02-2018 13:10:00 3.3 C 5.16 g/m*3 3.3 C 0 km/h
160 20-02-2018 13:15:00 3.5 C 5.16 g/m*3 3.5 C 3.2 km/h
161 20-02-2018 13:20:00 3.7 C 5.17 g/m*3 3.7 C 0 km/h
162 20-02-2018 13:25:00 4 C 5.21 g/m*3 4 C 1.6 km/h
163 20-02-2018 13:30:00 4.3 C 5.25 g/m*3 4.3 C 0 km/h
164 20-02-2018 13:35:00 4.7 C 5.33 g/m*3 4.7 C 0 km/h
165 20-02-2018 13:40:00 4.8 C 5.16 g/m*3 4.8 C 1.6 km/h
166 20-02-2018 13:45:00 4.9 C 5 g/m*3 4.9 C 3.2 km/h
167 20-02-2018 13:50:00 4.9 C 4.86 g/m*3 4.9 C 4.8 km/h
168 20-02-2018 13:55:00 4.9 C 4.86 g/m*3 3.48 C 6.4 km/h
169 20-02-2018 14:00:00 4.9 C 4.86 g/m*3 4.9 C 1.6 km/h
170 20-02-2018 14:05:00 4.9 C 4.86 g/m*3 4.9 C 0 km/h
171 20-02-2018 14:10:00 4.9 C 4.79 g/m*3 4.9 C 4.8 km/h
172 20-02-2018 14:15:00 4.9 C 4.73 g/m*3 3.48 C 6.4 km/h
173 20-02-2018 14:20:00 4.8 C 4.69 g/m*3 3.36 C 6.4 km/h
174 20-02-2018 14:25:00 4.8 C 4.69 g/m*3 4.8 C 4.8 km/h
175 20-02-2018 14:30:00 4.8 C 4.69 g/m*3 4.8 C 4.8 km/h
Sensor: Nr:Datum:Temp:Abs-Feuchte:Windchill:Wind:
Aussen-T/F 176 20-02-2018 14:35:00 4.8 C 4.63 g/m*3 4.8 C 4.8 km/h
177 20-02-2018 14:40:00 4.8 C 4.69 g/m*3 4.8 C 4.8 km/h
178 20-02-2018 14:45:00 4.8 C 4.63 g/m*3 4.8 C 3.2 km/h
179 20-02-2018 14:50:00 4.9 C 4.73 g/m*3 4.9 C 1.6 km/h
180 20-02-2018 14:55:00 5 C 4.89 g/m*3 5 C 0 km/h
181 20-02-2018 15:00:00 5.1 C 4.72 g/m*3 5.1 C 4.8 km/h
182 20-02-2018 15:05:00 5.2 C 4.75 g/m*3 5.2 C 1.6 km/h
183 20-02-2018 15:10:00 5.2 C 4.68 g/m*3 5.2 C 1.6 km/h
184 20-02-2018 15:15:00 5.3 C 4.85 g/m*3 5.3 C 1.6 km/h
185 20-02-2018 15:20:00 5.3 C 4.71 g/m*3 3.46 C 8.1 km/h
186 20-02-2018 15:25:00 5.3 C 4.92 g/m*3 5.3 C 4.8 km/h
187 20-02-2018 15:30:00 5.3 C 4.78 g/m*3 5.3 C 3.2 km/h
188 20-02-2018 15:35:00 5.4 C 4.88 g/m*3 5.4 C 1.6 km/h
189 20-02-2018 15:40:00 5.4 C 4.81 g/m*3 5.4 C 3.2 km/h
190 20-02-2018 15:45:00 5.6 C 5.02 g/m*3 5.6 C 0 km/h
191 20-02-2018 15:50:00 5.6 C 5.02 g/m*3 5.6 C 3.2 km/h
192 20-02-2018 15:55:00 5.7 C 4.77 g/m*3 4.4 C 6.4 km/h
193 20-02-2018 16:00:00 5.7 C 4.7 g/m*3 4.4 C 6.4 km/h
194 20-02-2018 16:05:00 5.7 C 4.63 g/m*3 5.7 C 4.8 km/h
195 20-02-2018 16:10:00 5.7 C 4.63 g/m*3 3.93 C 8.1 km/h
196 20-02-2018 16:15:00 5.7 C 4.84 g/m*3 5.7 C 0 km/h
197 20-02-2018 16:20:00 5.6 C 4.88 g/m*3 5.6 C 0 km/h
198 20-02-2018 16:25:00 5.6 C 4.88 g/m*3 5.6 C 1.6 km/h
199 20-02-2018 16:30:00 5.4 C 4.88 g/m*3 5.4 C 3.2 km/h
200 20-02-2018 16:35:00 5.1 C 4.92 g/m*3 5.1 C 1.6 km/h
Sensor: Nr:Datum:Temp:Abs-Feuchte:Windchill:Wind:
Aussen-T/F 201 20-02-2018 16:40:00 4.8 C 4.9 g/m*3 4.8 C 3.2 km/h
202 20-02-2018 16:45:00 4.5 C 4.8 g/m*3 4.5 C 3.2 km/h
203 20-02-2018 16:50:00 4.4 C 4.9 g/m*3 4.4 C 0 km/h
204 20-02-2018 16:55:00 4.3 C 4.86 g/m*3 4.3 C 0 km/h
205 20-02-2018 17:00:00 4.2 C 4.9 g/m*3 4.2 C 0 km/h
206 20-02-2018 17:05:00 4.1 C 4.86 g/m*3 4.1 C 3.2 km/h
207 20-02-2018 17:10:00 3.9 C 4.8 g/m*3 3.9 C 1.6 km/h
208 20-02-2018 17:15:00 3.8 C 4.83 g/m*3 3.8 C 3.2 km/h
209 20-02-2018 17:20:00 3.7 C 4.8 g/m*3 3.7 C 3.2 km/h
210 20-02-2018 17:25:00 3.7 C 4.86 g/m*3 3.7 C 4.8 km/h
211 20-02-2018 17:30:00 3.6 C 4.83 g/m*3 3.6 C 4.8 km/h
212 20-02-2018 17:35:00 3.5 C 4.86 g/m*3 3.5 C 4.8 km/h
213 20-02-2018 17:40:00 3.3 C 4.79 g/m*3 3.3 C 4.8 km/h
214 20-02-2018 17:45:00 3.1 C 4.73 g/m*3 3.1 C 4.8 km/h
215 20-02-2018 17:50:00 2.9 C 4.72 g/m*3 1.17 C 6.4 km/h
216 20-02-2018 17:55:00 2.7 C 4.66 g/m*3 2.7 C 4.8 km/h
217 20-02-2018 18:00:00 2.7 C 4.72 g/m*3 2.7 C 4.8 km/h
218 20-02-2018 18:05:00 2.7 C 4.72 g/m*3 2.7 C 4.8 km/h
219 20-02-2018 18:10:00 2.7 C 4.78 g/m*3 2.7 C 3.2 km/h
220 20-02-2018 18:15:00 2.7 C 4.78 g/m*3 2.7 C 3.2 km/h
221 20-02-2018 18:20:00 2.7 C 4.78 g/m*3 2.7 C 0 km/h
222 20-02-2018 18:25:00 2.7 C 4.78 g/m*3 2.7 C 0 km/h
223 20-02-2018 18:30:00 2.7 C 4.78 g/m*3 2.7 C 0 km/h
224 20-02-2018 18:35:00 2.6 C 4.8 g/m*3 2.6 C 0 km/h
225 20-02-2018 18:40:00 2.4 C 4.74 g/m*3 2.4 C 0 km/h
Sensor: Nr:Datum:Temp:Abs-Feuchte:Windchill:Wind:
Aussen-T/F 226 20-02-2018 18:45:00 2.3 C 4.71 g/m*3 2.3 C 4.8 km/h
227 20-02-2018 18:50:00 2.2 C 4.73 g/m*3 2.2 C 3.2 km/h
228 20-02-2018 18:55:00 2.1 C 4.7 g/m*3 2.1 C 0 km/h
229 20-02-2018 19:00:00 1.9 C 4.69 g/m*3 1.9 C 3.2 km/h
230 20-02-2018 19:05:00 1.9 C 4.69 g/m*3 1.9 C 3.2 km/h
231 20-02-2018 19:10:00 1.9 C 4.69 g/m*3 1.9 C 3.2 km/h
232 20-02-2018 19:15:00 2 C 4.72 g/m*3 2 C 3.2 km/h
233 20-02-2018 19:20:00 2.1 C 4.7 g/m*3 2.1 C 1.6 km/h
234 20-02-2018 19:25:00 2.2 C 4.56 g/m*3 2.2 C 0 km/h
235 20-02-2018 19:30:00 2.3 C 4.54 g/m*3 2.3 C 1.6 km/h
236 20-02-2018 19:35:00 2.4 C 4.57 g/m*3 2.4 C 1.6 km/h
237 20-02-2018 19:40:00 2.4 C 4.51 g/m*3 2.4 C 3.2 km/h
238 20-02-2018 19:45:00 2.5 C 4.48 g/m*3 0.17 C 8.1 km/h
239 20-02-2018 19:50:00 2.6 C 4.57 g/m*3 2.6 C 4.8 km/h
240 20-02-2018 19:55:00 2.5 C 4.54 g/m*3 2.5 C 3.2 km/h
241 20-02-2018 20:00:00 2.6 C 4.51 g/m*3 2.6 C 1.6 km/h
242 20-02-2018 20:05:00 2.6 C 4.46 g/m*3 2.6 C 0 km/h
243 20-02-2018 20:10:00 2.6 C 4.57 g/m*3 2.6 C 0 km/h
244 20-02-2018 20:15:00 2.5 C 4.54 g/m*3 2.5 C 0 km/h
245 20-02-2018 20:20:00 2.4 C 4.57 g/m*3 2.4 C 0 km/h
246 20-02-2018 20:25:00 2.3 C 4.65 g/m*3 2.3 C 0 km/h
247 20-02-2018 20:30:00 2.3 C 4.71 g/m*3 2.3 C 0 km/h
248 20-02-2018 20:35:00 2.2 C 4.68 g/m*3 2.2 C 0 km/h
249 20-02-2018 20:40:00 2.1 C 4.64 g/m*3 2.1 C 3.2 km/h
250 20-02-2018 20:45:00 1.8 C 4.55 g/m*3 1.8 C 4.8 km/h
Sensor: Nr:Datum:Temp:Abs-Feuchte:Windchill:Wind:
Aussen-T/F 251 20-02-2018 20:50:00 1.7 C 4.52 g/m*3 1.7 C 3.2 km/h
252 20-02-2018 20:55:00 1.4 C 4.43 g/m*3 1.4 C 3.2 km/h
253 20-02-2018 21:00:00 1.3 C 4.4 g/m*3 1.3 C 4.8 km/h
254 20-02-2018 21:05:00 1.1 C 4.34 g/m*3 1.1 C 4.8 km/h
255 20-02-2018 21:10:00 0.9 C 4.33 g/m*3 0.9 C 4.8 km/h
256 20-02-2018 21:15:00 0.8 C 4.35 g/m*3 -1.26 C 6.4 km/h
257 20-02-2018 21:20:00 0.7 C 4.27 g/m*3 0.7 C 4.8 km/h
258 20-02-2018 21:25:00 0.7 C 4.32 g/m*3 0.7 C 4.8 km/h
259 20-02-2018 21:30:00 0.7 C 4.32 g/m*3 0.7 C 4.8 km/h
260 20-02-2018 21:35:00 0.8 C 4.35 g/m*3 0.8 C 3.2 km/h
261 20-02-2018 21:40:00 0.8 C 4.35 g/m*3 0.8 C 4.8 km/h
262 20-02-2018 21:45:00 0.8 C 4.4 g/m*3 0.8 C 0 km/h
263 20-02-2018 21:50:00 0.7 C 4.37 g/m*3 0.7 C 3.2 km/h
264 20-02-2018 21:55:00 0.6 C 4.29 g/m*3 0.6 C 1.6 km/h
265 20-02-2018 22:00:00 0.4 C 4.23 g/m*3 0.4 C 3.2 km/h
266 20-02-2018 22:05:00 0.3 C 4.2 g/m*3 0.3 C 3.2 km/h
267 20-02-2018 22:10:00 0.2 C 4.18 g/m*3 0.2 C 0 km/h
268 20-02-2018 22:15:00 0.1 C 4.2 g/m*3 0.1 C 0 km/h
269 20-02-2018 22:20:00 -0.1 C 4.14 g/m*3 -0.1 C 0 km/h
270 20-02-2018 22:25:00 -0.1 C 4.14 g/m*3 -0.1 C 1.6 km/h
271 20-02-2018 22:30:00 -0.2 C 4.16 g/m*3 -0.2 C 3.2 km/h
272 20-02-2018 22:35:00 -0.3 C 4.13 g/m*3 -0.3 C 3.2 km/h
273 20-02-2018 22:40:00 -0.4 C 4.1 g/m*3 -0.4 C 0 km/h
274 20-02-2018 22:45:00 -0.6 C 4.04 g/m*3 -0.6 C 0 km/h
275 20-02-2018 22:50:00 -0.6 C 4.09 g/m*3 -0.6 C 0 km/h
Sensor: Nr:Datum:Temp:Abs-Feuchte:Windchill:Wind:
Aussen-T/F 276 20-02-2018 22:55:00 -0.7 C 4.06 g/m*3 -0.7 C 0 km/h
277 20-02-2018 23:00:00 -0.7 C 4.06 g/m*3 -0.7 C 0 km/h
278 20-02-2018 23:05:00 -0.7 C 4.11 g/m*3 -0.7 C 0 km/h
279 20-02-2018 23:10:00 -0.8 C 4.08 g/m*3 -0.8 C 0 km/h
280 20-02-2018 23:15:00 -0.8 C 4.08 g/m*3 -0.8 C 0 km/h
281 20-02-2018 23:20:00 -0.8 C 4.03 g/m*3 -0.8 C 0 km/h
282 20-02-2018 23:25:00 -0.8 C 4.03 g/m*3 -0.8 C 0 km/h
283 20-02-2018 23:30:00 -0.8 C 4.08 g/m*3 -0.8 C 0 km/h
284 20-02-2018 23:35:00 -0.9 C 4.05 g/m*3 -0.9 C 0 km/h
285 20-02-2018 23:40:00 -0.9 C 4.05 g/m*3 -0.9 C 0 km/h
286 20-02-2018 23:45:00 -0.9 C 4.05 g/m*3 -0.9 C 0 km/h
287 20-02-2018 23:50:00 -0.9 C 4.05 g/m*3 -0.9 C 0 km/h
288 20-02-2018 23:55:00 -1.1 C 4 g/m*3 -1.1 C 0 km/h
289 21-02-2018 00:00:00 -1.1 C 4 g/m*3 -1.1 C 0 km/h
290 21-02-2018 00:05:00 -1.1 C 4.04 g/m*3 -1.1 C 0 km/h
291 21-02-2018 00:10:00 -1 C 4.11 g/m*3 -1 C 0 km/h
292 21-02-2018 00:15:00 -0.9 C 4.14 g/m*3 -0.9 C 0 km/h
293 21-02-2018 00:20:00 -0.8 C 4.17 g/m*3 -0.8 C 0 km/h
294 21-02-2018 00:25:00 -0.6 C 4.23 g/m*3 -0.6 C 0 km/h
295 21-02-2018 00:30:00 -0.4 C 4.29 g/m*3 -0.4 C 0 km/h
296 21-02-2018 00:35:00 -0.3 C 4.32 g/m*3 -0.3 C 3.2 km/h
297 21-02-2018 00:40:00 -0.2 C 4.35 g/m*3 -0.2 C 3.2 km/h
298 21-02-2018 00:45:00 0.1 C 4.34 g/m*3 -2.07 C 6.4 km/h
299 21-02-2018 00:50:00 0.2 C 4.27 g/m*3 0.2 C 1.6 km/h
300 21-02-2018 00:55:00 0.4 C 4.23 g/m*3 -1.72 C 6.4 km/h
Sensor: Nr:Datum:Temp:Abs-Feuchte:Windchill:Wind:
Aussen-T/F 301 21-02-2018 01:00:00 0.7 C 4.27 g/m*3 0.7 C 1.6 km/h
302 21-02-2018 01:05:00 0.8 C 4.3 g/m*3 0.8 C 3.2 km/h
303 21-02-2018 01:10:00 0.9 C 4.18 g/m*3 -2.16 C 9.7 km/h
304 21-02-2018 01:15:00 0.9 C 4.18 g/m*3 0.9 C 3.2 km/h
305 21-02-2018 01:20:00 1 C 4.15 g/m*3 1 C 4.8 km/h
306 21-02-2018 01:25:00 1.1 C 4.13 g/m*3 -0.91 C 6.4 km/h
307 21-02-2018 01:30:00 1.1 C 4.18 g/m*3 1.1 C 1.6 km/h
308 21-02-2018 01:35:00 1.1 C 4.13 g/m*3 1.1 C 3.2 km/h
309 21-02-2018 01:40:00 1.1 C 4.18 g/m*3 -2.31 C 11.3 km/h
310 21-02-2018 01:45:00 1.1 C 4.18 g/m*3 -1.92 C 9.7 km/h
311 21-02-2018 01:50:00 1 C 4.15 g/m*3 1 C 1.6 km/h
312 21-02-2018 01:55:00 0.8 C 4.1 g/m*3 0.8 C 0 km/h
313 21-02-2018 02:00:00 0.7 C 4.07 g/m*3 0.7 C 0 km/h
314 21-02-2018 02:05:00 0.4 C 3.98 g/m*3 0.4 C 0 km/h
315 21-02-2018 02:10:00 0.2 C 3.93 g/m*3 0.2 C 1.6 km/h
316 21-02-2018 02:15:00 0.1 C 4 g/m*3 0.1 C 0 km/h
317 21-02-2018 02:20:00 -0.1 C 3.99 g/m*3 -0.1 C 3.2 km/h
318 21-02-2018 02:25:00 -0.2 C 3.97 g/m*3 -0.2 C 1.6 km/h
319 21-02-2018 02:30:00 -0.2 C 3.97 g/m*3 -0.2 C 1.6 km/h
320 21-02-2018 02:35:00 -0.3 C 3.94 g/m*3 -0.3 C 0 km/h
321 21-02-2018 02:40:00 -0.4 C 3.91 g/m*3 -0.4 C 1.6 km/h
322 21-02-2018 02:45:00 -0.5 C 3.88 g/m*3 -0.5 C 3.2 km/h
323 21-02-2018 02:50:00 -0.6 C 3.9 g/m*3 -0.6 C 0 km/h
324 21-02-2018 02:55:00 -0.6 C 3.9 g/m*3 -0.6 C 0 km/h
325 21-02-2018 03:00:00 -0.6 C 3.95 g/m*3 -0.6 C 0 km/h
Sensor: Nr:Datum:Temp:Abs-Feuchte:Windchill:Wind:
Aussen-T/F 326 21-02-2018 03:05:00 -0.6 C 4 g/m*3 -0.6 C 0 km/h
327 21-02-2018 03:10:00 -0.6 C 3.95 g/m*3 -0.6 C 0 km/h
328 21-02-2018 03:15:00 -0.6 C 3.95 g/m*3 -0.6 C 3.2 km/h
329 21-02-2018 03:20:00 -0.6 C 3.95 g/m*3 -0.6 C 0 km/h
330 21-02-2018 03:25:00 -0.7 C 3.92 g/m*3 -0.7 C 0 km/h
331 21-02-2018 03:30:00 -0.7 C 3.97 g/m*3 -0.7 C 0 km/h
332 21-02-2018 03:35:00 -0.7 C 3.97 g/m*3 -0.7 C 0 km/h
333 21-02-2018 03:40:00 -0.6 C 4.04 g/m*3 -0.6 C 0 km/h
334 21-02-2018 03:45:00 -0.5 C 4.07 g/m*3 -0.5 C 0 km/h
335 21-02-2018 03:50:00 -0.4 C 4.1 g/m*3 -0.4 C 0 km/h
336 21-02-2018 03:55:00 -0.3 C 4.08 g/m*3 -0.3 C 0 km/h
337 21-02-2018 04:00:00 -0.3 C 4.08 g/m*3 -0.3 C 0 km/h
338 21-02-2018 04:05:00 -0.3 C 4.03 g/m*3 -0.3 C 0 km/h
339 21-02-2018 04:10:00 -0.3 C 4.03 g/m*3 -0.3 C 0 km/h
340 21-02-2018 04:15:00 -0.3 C 4.03 g/m*3 -0.3 C 0 km/h
341 21-02-2018 04:20:00 -0.4 C 3.96 g/m*3 -0.4 C 0 km/h
342 21-02-2018 04:25:00 -0.5 C 3.93 g/m*3 -0.5 C 4.8 km/h
343 21-02-2018 04:30:00 -0.6 C 3.9 g/m*3 -0.6 C 3.2 km/h
344 21-02-2018 04:35:00 -0.7 C 3.92 g/m*3 -0.7 C 0 km/h
345 21-02-2018 04:40:00 -0.8 C 3.9 g/m*3 -0.8 C 1.6 km/h
346 21-02-2018 04:45:00 -0.9 C 3.87 g/m*3 -0.9 C 0 km/h
347 21-02-2018 04:50:00 -1 C 3.89 g/m*3 -1 C 3.2 km/h
348 21-02-2018 04:55:00 -1.1 C 3.86 g/m*3 -1.1 C 4.8 km/h
349 21-02-2018 05:00:00 -1.2 C 3.83 g/m*3 -1.2 C 0 km/h
350 21-02-2018 05:05:00 -1.2 C 3.83 g/m*3 -1.2 C 3.2 km/h
Sensor: Nr:Datum:Temp:Abs-Feuchte:Windchill:Wind:
Aussen-T/F 351 21-02-2018 05:10:00 -1.3 C 3.85 g/m*3 -1.3 C 0 km/h
352 21-02-2018 05:15:00 -1.3 C 3.85 g/m*3 -1.3 C 1.6 km/h
353 21-02-2018 05:20:00 -1.4 C 3.82 g/m*3 -1.4 C 3.2 km/h
354 21-02-2018 05:25:00 -1.4 C 3.87 g/m*3 -1.4 C 3.2 km/h
355 21-02-2018 05:30:00 -1.4 C 3.87 g/m*3 -1.4 C 3.2 km/h
356 21-02-2018 05:35:00 -1.4 C 3.87 g/m*3 -1.4 C 3.2 km/h
357 21-02-2018 05:40:00 -1.4 C 3.87 g/m*3 -1.4 C 1.6 km/h
358 21-02-2018 05:45:00 -1.5 C 3.84 g/m*3 -1.5 C 0 km/h
359 21-02-2018 05:50:00 -1.6 C 3.81 g/m*3 -1.6 C 0 km/h
360 21-02-2018 05:55:00 -1.6 C 3.81 g/m*3 -1.6 C 0 km/h
361 21-02-2018 06:00:00 -1.6 C 3.81 g/m*3 -1.6 C 0 km/h
362 21-02-2018 06:05:00 -1.7 C 3.83 g/m*3 -1.7 C 0 km/h
363 21-02-2018 06:10:00 -1.7 C 3.83 g/m*3 -1.7 C 0 km/h
364 21-02-2018 06:15:00 -1.7 C 3.83 g/m*3 -1.7 C 0 km/h
365 21-02-2018 06:20:00 -1.7 C 3.83 g/m*3 -1.7 C 0 km/h
366 21-02-2018 06:25:00 -1.7 C 3.83 g/m*3 -1.7 C 0 km/h
367 21-02-2018 06:30:00 -1.8 C 3.8 g/m*3 -1.8 C 3.2 km/h
368 21-02-2018 06:35:00 -1.7 C 3.83 g/m*3 -1.7 C 3.2 km/h
369 21-02-2018 06:40:00 -1.7 C 3.87 g/m*3 -1.7 C 1.6 km/h
370 21-02-2018 06:45:00 -1.7 C 3.87 g/m*3 -1.7 C 0 km/h
371 21-02-2018 06:50:00 -1.7 C 3.87 g/m*3 -1.7 C 0 km/h
372 21-02-2018 06:55:00 -1.7 C 3.87 g/m*3 -1.7 C 0 km/h
373 21-02-2018 07:00:00 -1.7 C 3.87 g/m*3 -1.7 C 0 km/h
374 21-02-2018 07:05:00 -1.6 C 3.9 g/m*3 -1.6 C 0 km/h
375 21-02-2018 07:10:00 -1.6 C 3.9 g/m*3 -1.6 C 0 km/h
Sensor: Nr:Datum:Temp:Abs-Feuchte:Windchill:Wind:
Aussen-T/F 376 21-02-2018 07:15:00 -1.7 C 3.87 g/m*3 -1.7 C 0 km/h
377 21-02-2018 07:20:00 -1.7 C 3.87 g/m*3 -1.7 C 1.6 km/h
378 21-02-2018 07:25:00 -1.7 C 3.87 g/m*3 -1.7 C 0 km/h
379 21-02-2018 07:30:00 -1.7 C 3.87 g/m*3 -1.7 C 0 km/h
380 21-02-2018 07:35:00 -1.7 C 3.87 g/m*3 -1.7 C 0 km/h
381 21-02-2018 07:40:00 -1.7 C 3.87 g/m*3 -1.7 C 1.6 km/h
382 21-02-2018 07:45:00 -1.7 C 3.87 g/m*3 -1.7 C 1.6 km/h
383 21-02-2018 07:50:00 -1.7 C 3.87 g/m*3 -1.7 C 1.6 km/h
384 21-02-2018 07:55:00 -1.7 C 3.87 g/m*3 -1.7 C 0 km/h
385 21-02-2018 08:00:00 -1.8 C 3.85 g/m*3 -1.8 C 0 km/h
386 21-02-2018 08:05:00 -1.8 C 3.85 g/m*3 -1.8 C 0 km/h
387 21-02-2018 08:10:00 -1.8 C 3.85 g/m*3 -1.8 C 0 km/h
388 21-02-2018 08:15:00 -1.8 C 3.89 g/m*3 -1.8 C 0 km/h
389 21-02-2018 08:20:00 -1.8 C 3.89 g/m*3 -1.8 C 1.6 km/h
390 21-02-2018 08:25:00 -1.7 C 3.92 g/m*3 -1.7 C 3.2 km/h
391 21-02-2018 08:30:00 -1.7 C 3.92 g/m*3 -1.7 C 0 km/h
392 21-02-2018 08:35:00 -1.6 C 3.94 g/m*3 -1.6 C 1.6 km/h
393 21-02-2018 08:40:00 -1.5 C 3.97 g/m*3 -1.5 C 0 km/h
394 21-02-2018 08:45:00 -1.4 C 4 g/m*3 -3.8 C 6.4 km/h
395 21-02-2018 08:50:00 -1.3 C 3.98 g/m*3 -1.3 C 4.8 km/h
396 21-02-2018 08:55:00 -1.2 C 3.97 g/m*3 -1.2 C 0 km/h
397 21-02-2018 09:00:00 -1.1 C 4 g/m*3 -1.1 C 1.6 km/h
398 21-02-2018 09:05:00 -1.1 C 4 g/m*3 -1.1 C 1.6 km/h
399 21-02-2018 09:10:00 -1.1 C 4 g/m*3 -1.1 C 1.6 km/h
400 21-02-2018 09:15:00 -1.1 C 4 g/m*3 -1.1 C 0 km/h
Sensor: Nr:Datum:Temp:Abs-Feuchte:Windchill:Wind:
Aussen-T/F 401 21-02-2018 09:20:00 -1.1 C 4 g/m*3 -1.1 C 0 km/h
402 21-02-2018 09:25:00 -1.1 C 4 g/m*3 -1.1 C 3.2 km/h
403 21-02-2018 09:30:00 -0.9 C 4.05 g/m*3 -0.9 C 1.6 km/h
404 21-02-2018 09:35:00 -0.9 C 4.05 g/m*3 -0.9 C 0 km/h
405 21-02-2018 09:40:00 -0.8 C 4.08 g/m*3 -0.8 C 1.6 km/h
406 21-02-2018 09:45:00 -0.8 C 4.08 g/m*3 -0.8 C 1.6 km/h
407 21-02-2018 09:50:00 -0.8 C 4.08 g/m*3 -0.8 C 0 km/h
408 21-02-2018 09:55:00 -0.7 C 4.11 g/m*3 -0.7 C 0 km/h
409 21-02-2018 10:00:00 -0.7 C 4.11 g/m*3 -0.7 C 0 km/h
410 21-02-2018 10:05:00 -0.7 C 4.11 g/m*3 -0.7 C 3.2 km/h
411 21-02-2018 10:10:00 -0.6 C 4.14 g/m*3 -0.6 C 1.6 km/h
412 21-02-2018 10:15:00 -0.5 C 4.17 g/m*3 -0.5 C 1.6 km/h
413 21-02-2018 10:20:00 -0.4 C 4.19 g/m*3 -0.4 C 1.6 km/h
414 21-02-2018 10:25:00 -0.4 C 4.19 g/m*3 -0.4 C 0 km/h
415 21-02-2018 10:30:00 -0.3 C 4.22 g/m*3 -0.3 C 0 km/h
416 21-02-2018 10:35:00 -0.2 C 4.25 g/m*3 -0.2 C 0 km/h
417 21-02-2018 10:40:00 -0.1 C 4.28 g/m*3 -0.1 C 1.6 km/h
418 21-02-2018 10:45:00 0 C 4.31 g/m*3 0 C 0 km/h
419 21-02-2018 10:50:00 0.1 C 4.34 g/m*3 0.1 C 0 km/h
420 21-02-2018 10:55:00 0.3 C 4.4 g/m*3 0.3 C 0 km/h
421 21-02-2018 11:00:00 0.4 C 4.38 g/m*3 0.4 C 0 km/h
422 21-02-2018 11:05:00 0.6 C 4.44 g/m*3 0.6 C 0 km/h
423 21-02-2018 11:10:00 0.8 C 4.51 g/m*3 0.8 C 0 km/h
424 21-02-2018 11:15:00 1.1 C 4.55 g/m*3 1.1 C 1.6 km/h
425 21-02-2018 11:20:00 1.3 C 4.5 g/m*3 1.3 C 4.8 km/h
Sensor: Nr:Datum:Temp:Abs-Feuchte:Windchill:Wind:
Aussen-T/F 426 21-02-2018 11:25:00 1.6 C 4.54 g/m*3 1.6 C 0 km/h
427 21-02-2018 11:30:00 1.8 C 4.6 g/m*3 1.8 C 0 km/h
428 21-02-2018 11:35:00 1.9 C 4.58 g/m*3 1.9 C 0 km/h
429 21-02-2018 11:40:00 2 C 4.56 g/m*3 2 C 0 km/h
430 21-02-2018 11:45:00 2.1 C 4.42 g/m*3 2.1 C 4.8 km/h
431 21-02-2018 11:50:00 2.2 C 4.45 g/m*3 2.2 C 0 km/h
432 21-02-2018 11:55:00 2.3 C 4.48 g/m*3 2.3 C 0 km/h
433 21-02-2018 12:00:00 2.3 C 4.48 g/m*3 0.47 C 6.4 km/h
434 21-02-2018 12:05:00 2.4 C 4.4 g/m*3 2.4 C 0 km/h
435 21-02-2018 12:10:00 2.6 C 4.4 g/m*3 2.6 C 4.8 km/h
436 21-02-2018 12:15:00 2.8 C 4.28 g/m*3 0.52 C 8.1 km/h
437 21-02-2018 12:20:00 3 C 4.28 g/m*3 3 C 3.2 km/h
438 21-02-2018 12:25:00 3.1 C 4.13 g/m*3 0.1 C 11.3 km/h
439 21-02-2018 12:30:00 3.3 C 4.06 g/m*3 1.11 C 8.1 km/h
440 21-02-2018 12:35:00 3.6 C 4.09 g/m*3 3.6 C 4.8 km/h
441 21-02-2018 12:40:00 3.8 C 4.02 g/m*3 2.21 C 6.4 km/h
442 21-02-2018 12:45:00 4 C 4.01 g/m*3 1.53 C 9.7 km/h
443 21-02-2018 12:50:00 4.2 C 3.99 g/m*3 4.2 C 4.8 km/h
444 21-02-2018 12:55:00 4.2 C 4.19 g/m*3 1.12 C 12.9 km/h
445 21-02-2018 13:00:00 4.2 C 4.12 g/m*3 4.2 C 4.8 km/h
446 21-02-2018 13:05:00 4.2 C 3.93 g/m*3 4.2 C 4.8 km/h
447 21-02-2018 13:10:00 4.3 C 3.76 g/m*3 2.78 C 6.4 km/h
448 21-02-2018 13:15:00 4.6 C 3.84 g/m*3 2.25 C 9.7 km/h
449 21-02-2018 13:20:00 4.8 C 3.76 g/m*3 1.58 C 14.5 km/h
450 21-02-2018 13:25:00 5 C 4.01 g/m*3 2.72 C 9.7 km/h
Sensor: Nr:Datum:Temp:Abs-Feuchte:Windchill:Wind:
Aussen-T/F 451 21-02-2018 13:30:00 5.2 C 3.92 g/m*3 2.63 C 11.3 km/h
452 21-02-2018 13:35:00 5.3 C 3.81 g/m*3 3.08 C 9.7 km/h
453 21-02-2018 13:40:00 5.4 C 4.05 g/m*3 3.2 C 9.7 km/h
454 21-02-2018 13:45:00 5.5 C 3.86 g/m*3 3.32 C 9.7 km/h
455 21-02-2018 13:50:00 5.6 C 3.75 g/m*3 4.29 C 6.4 km/h
456 21-02-2018 13:55:00 5.7 C 3.7 g/m*3 2.69 C 14.5 km/h
457 21-02-2018 14:00:00 5.7 C 3.84 g/m*3 3.93 C 8.1 km/h
458 21-02-2018 14:05:00 5.8 C 3.8 g/m*3 2.58 C 16.1 km/h
459 21-02-2018 14:10:00 5.7 C 3.7 g/m*3 2.45 C 16.1 km/h
460 21-02-2018 14:15:00 5.7 C 3.7 g/m*3 3.23 C 11.3 km/h
461 21-02-2018 14:20:00 5.7 C 3.77 g/m*3 3.23 C 11.3 km/h
462 21-02-2018 14:25:00 5.6 C 3.75 g/m*3 4.29 C 6.4 km/h
463 21-02-2018 14:30:00 5.6 C 3.75 g/m*3 5.6 C 4.8 km/h
464 21-02-2018 14:35:00 5.6 C 3.75 g/m*3 3.44 C 9.7 km/h
465 21-02-2018 14:40:00 5.6 C 3.46 g/m*3 2.83 C 12.9 km/h
466 21-02-2018 14:45:00 5.7 C 3.77 g/m*3 4.4 C 6.4 km/h
467 21-02-2018 14:50:00 5.8 C 3.72 g/m*3 3.36 C 11.3 km/h
468 21-02-2018 14:55:00 5.8 C 3.65 g/m*3 2.58 C 16.1 km/h
469 21-02-2018 15:00:00 5.9 C 3.61 g/m*3 2.7 C 16.1 km/h
470 21-02-2018 15:05:00 5.9 C 3.68 g/m*3 2.48 C 17.7 km/h
471 21-02-2018 15:10:00 6 C 3.63 g/m*3 3.92 C 9.7 km/h
472 21-02-2018 15:15:00 6.1 C 3.58 g/m*3 3.43 C 12.9 km/h
473 21-02-2018 15:20:00 6.1 C 3.65 g/m*3 4.4 C 8.1 km/h
474 21-02-2018 15:25:00 6.1 C 3.58 g/m*3 3.43 C 12.9 km/h
475 21-02-2018 15:30:00 6.2 C 3.68 g/m*3 3.3 C 14.5 km/h
Sensor: Nr:Datum:Temp:Abs-Feuchte:Windchill:Wind:
Aussen-T/F 476 21-02-2018 15:35:00 6.2 C 3.6 g/m*3 3.3 C 14.5 km/h
477 21-02-2018 15:40:00 6.2 C 3.68 g/m*3 3.3 C 14.5 km/h
478 21-02-2018 15:45:00 6.3 C 3.7 g/m*3 3.43 C 14.5 km/h
479 21-02-2018 15:50:00 6.3 C 3.7 g/m*3 3.68 C 12.9 km/h
480 21-02-2018 15:55:00 6.3 C 3.63 g/m*3 3.43 C 14.5 km/h
481 21-02-2018 16:00:00 6.3 C 3.7 g/m*3 4.27 C 9.7 km/h
482 21-02-2018 16:05:00 6.3 C 3.7 g/m*3 2.98 C 17.7 km/h
483 21-02-2018 16:10:00 6.3 C 3.7 g/m*3 3.43 C 14.5 km/h
484 21-02-2018 16:15:00 6.3 C 3.7 g/m*3 3.68 C 12.9 km/h
485 21-02-2018 16:20:00 6.3 C 3.63 g/m*3 3.68 C 12.9 km/h
486 21-02-2018 16:25:00 6.3 C 3.63 g/m*3 3.68 C 12.9 km/h
487 21-02-2018 16:30:00 6.3 C 3.63 g/m*3 4.27 C 9.7 km/h
488 21-02-2018 16:35:00 6.3 C 3.63 g/m*3 3.96 C 11.3 km/h
489 21-02-2018 16:40:00 6.3 C 3.63 g/m*3 4.27 C 9.7 km/h
490 21-02-2018 16:45:00 6.3 C 3.7 g/m*3 5.1 C 6.4 km/h
491 21-02-2018 16:50:00 6.3 C 3.78 g/m*3 4.64 C 8.1 km/h
492 21-02-2018 16:55:00 6.2 C 3.75 g/m*3 3.56 C 12.9 km/h
493 21-02-2018 17:00:00 6.2 C 3.75 g/m*3 4.98 C 6.4 km/h
494 21-02-2018 17:05:00 6.2 C 3.9 g/m*3 4.52 C 8.1 km/h
495 21-02-2018 17:10:00 6.1 C 3.73 g/m*3 4.4 C 8.1 km/h
496 21-02-2018 17:15:00 6.2 C 3.75 g/m*3 4.52 C 8.1 km/h
497 21-02-2018 17:20:00 6.1 C 4.24 g/m*3 6.1 C 1.6 km/h
498 21-02-2018 17:25:00 5.8 C 4.3 g/m*3 5.8 C 0 km/h
499 21-02-2018 17:30:00 5.4 C 4.19 g/m*3 5.4 C 1.6 km/h
500 21-02-2018 17:35:00 5.1 C 4.38 g/m*3 5.1 C 0 km/h
Sensor: Nr:Datum:Temp:Abs-Feuchte:Windchill:Wind:
Aussen-T/F 501 21-02-2018 17:40:00 4.7 C 4.4 g/m*3 4.7 C 3.2 km/h
502 21-02-2018 17:45:00 4.4 C 4.37 g/m*3 4.4 C 4.8 km/h
503 21-02-2018 17:50:00 4.1 C 4.22 g/m*3 4.1 C 4.8 km/h
504 21-02-2018 17:55:00 3.9 C 4.29 g/m*3 3.9 C 3.2 km/h
505 21-02-2018 18:00:00 3.6 C 4.21 g/m*3 3.6 C 3.2 km/h
506 21-02-2018 18:05:00 3.4 C 4.15 g/m*3 3.4 C 1.6 km/h
507 21-02-2018 18:10:00 3.2 C 4.1 g/m*3 3.2 C 3.2 km/h
508 21-02-2018 18:15:00 3.1 C 4.19 g/m*3 3.1 C 1.6 km/h
509 21-02-2018 18:20:00 2.9 C 4.19 g/m*3 2.9 C 0 km/h
510 21-02-2018 18:25:00 2.8 C 4.16 g/m*3 2.8 C 3.2 km/h
511 21-02-2018 18:30:00 2.6 C 4.22 g/m*3 0.82 C 6.4 km/h
512 21-02-2018 18:35:00 2.4 C 4.17 g/m*3 2.4 C 4.8 km/h
513 21-02-2018 18:40:00 2.3 C 4.2 g/m*3 2.3 C 4.8 km/h
514 21-02-2018 18:45:00 2.2 C 4.22 g/m*3 2.2 C 4.8 km/h
515 21-02-2018 18:50:00 2.1 C 4.2 g/m*3 2.1 C 4.8 km/h
516 21-02-2018 18:55:00 1.9 C 4.19 g/m*3 1.9 C 4.8 km/h
517 21-02-2018 19:00:00 1.8 C 4.17 g/m*3 1.8 C 4.8 km/h
518 21-02-2018 19:05:00 1.8 C 4.22 g/m*3 1.8 C 4.8 km/h
519 21-02-2018 19:10:00 1.7 C 4.19 g/m*3 1.7 C 4.8 km/h
520 21-02-2018 19:15:00 1.6 C 4.16 g/m*3 1.6 C 4.8 km/h
521 21-02-2018 19:20:00 1.6 C 4.16 g/m*3 1.6 C 3.2 km/h
522 21-02-2018 19:25:00 1.6 C 4.16 g/m*3 1.6 C 3.2 km/h
523 21-02-2018 19:30:00 1.5 C 4.14 g/m*3 1.5 C 4.8 km/h
524 21-02-2018 19:35:00 1.4 C 4.16 g/m*3 1.4 C 3.2 km/h
525 21-02-2018 19:40:00 1.4 C 4.16 g/m*3 1.4 C 4.8 km/h
Sensor: Nr:Datum:Temp:Abs-Feuchte:Windchill:Wind:
Aussen-T/F 526 21-02-2018 19:45:00 1.3 C 4.13 g/m*3 1.3 C 3.2 km/h
527 21-02-2018 19:50:00 1.3 C 4.13 g/m*3 1.3 C 4.8 km/h
528 21-02-2018 19:55:00 1.2 C 4.1 g/m*3 1.2 C 3.2 km/h
529 21-02-2018 20:00:00 1.2 C 4.1 g/m*3 1.2 C 4.8 km/h
530 21-02-2018 20:05:00 1.1 C 4.13 g/m*3 1.1 C 4.8 km/h
531 21-02-2018 20:10:00 1 C 4.1 g/m*3 1 C 1.6 km/h
532 21-02-2018 20:15:00 0.9 C 4.07 g/m*3 0.9 C 3.2 km/h
533 21-02-2018 20:20:00 0.8 C 4.04 g/m*3 0.8 C 0 km/h
534 21-02-2018 20:25:00 0.7 C 4.07 g/m*3 -1.37 C 6.4 km/h
535 21-02-2018 20:30:00 0.8 C 4.1 g/m*3 0.8 C 1.6 km/h
536 21-02-2018 20:35:00 0.7 C 4.07 g/m*3 0.7 C 0 km/h
537 21-02-2018 20:40:00 0.6 C 4.04 g/m*3 0.6 C 0 km/h
538 21-02-2018 20:45:00 0.6 C 4.04 g/m*3 0.6 C 0 km/h
539 21-02-2018 20:50:00 0.5 C 4.06 g/m*3 0.5 C 0 km/h
540 21-02-2018 20:55:00 0.4 C 4.03 g/m*3 0.4 C 0 km/h
541 21-02-2018 21:00:00 0.4 C 4.03 g/m*3 0.4 C 0 km/h
542 21-02-2018 21:05:00 0.3 C 4.01 g/m*3 0.3 C 0 km/h
543 21-02-2018 21:10:00 0.2 C 4.03 g/m*3 0.2 C 0 km/h
544 21-02-2018 21:15:00 0.2 C 4.03 g/m*3 -2.53 C 8.1 km/h
545 21-02-2018 21:20:00 0.2 C 4.03 g/m*3 0.2 C 1.6 km/h
546 21-02-2018 21:25:00 0.2 C 4.03 g/m*3 0.2 C 0 km/h
547 21-02-2018 21:30:00 0.1 C 4.05 g/m*3 0.1 C 0 km/h
548 21-02-2018 21:35:00 0 C 3.97 g/m*3 0 C 0 km/h
549 21-02-2018 21:40:00 0 C 3.97 g/m*3 0 C 0 km/h
550 21-02-2018 21:45:00 -0.1 C 3.99 g/m*3 -0.1 C 0 km/h
Sensor: Nr:Datum:Temp:Abs-Feuchte:Windchill:Wind:
Aussen-T/F 551 21-02-2018 21:50:00 -0.1 C 3.99 g/m*3 -0.1 C 3.2 km/h
552 21-02-2018 21:55:00 -0.1 C 3.95 g/m*3 -0.1 C 4.8 km/h
553 21-02-2018 22:00:00 0 C 3.97 g/m*3 0 C 4.8 km/h
554 21-02-2018 22:05:00 0 C 3.92 g/m*3 0 C 3.2 km/h
555 21-02-2018 22:10:00 0 C 3.92 g/m*3 0 C 1.6 km/h
556 21-02-2018 22:15:00 -0.2 C 3.92 g/m*3 -2.41 C 6.4 km/h
557 21-02-2018 22:20:00 -0.2 C 3.92 g/m*3 -0.2 C 1.6 km/h
558 21-02-2018 22:25:00 -0.3 C 3.84 g/m*3 -0.3 C 4.8 km/h
559 21-02-2018 22:30:00 -0.3 C 3.84 g/m*3 -0.3 C 1.6 km/h
560 21-02-2018 22:35:00 -0.4 C 3.82 g/m*3 -0.4 C 1.6 km/h
561 21-02-2018 22:40:00 -0.5 C 3.79 g/m*3 -0.5 C 1.6 km/h
562 21-02-2018 22:45:00 -0.6 C 3.72 g/m*3 -0.6 C 3.2 km/h
563 21-02-2018 22:50:00 -0.6 C 3.72 g/m*3 -0.6 C 0 km/h
564 21-02-2018 22:55:00 -0.6 C 3.76 g/m*3 -0.6 C 0 km/h
565 21-02-2018 23:00:00 -0.5 C 3.7 g/m*3 -0.5 C 4.8 km/h
566 21-02-2018 23:05:00 -0.4 C 3.72 g/m*3 -2.64 C 6.4 km/h
567 21-02-2018 23:10:00 -0.4 C 3.72 g/m*3 -0.4 C 3.2 km/h
568 21-02-2018 23:15:00 -0.4 C 3.77 g/m*3 -0.4 C 3.2 km/h
569 21-02-2018 23:20:00 -0.4 C 3.72 g/m*3 -3.24 C 8.1 km/h
570 21-02-2018 23:25:00 -0.5 C 3.7 g/m*3 -0.5 C 1.6 km/h
571 21-02-2018 23:30:00 -0.6 C 3.67 g/m*3 -0.6 C 1.6 km/h
572 21-02-2018 23:35:00 -0.6 C 3.67 g/m*3 -0.6 C 1.6 km/h
573 21-02-2018 23:40:00 -0.6 C 3.67 g/m*3 -3.48 C 8.1 km/h
574 21-02-2018 23:45:00 -0.6 C 3.67 g/m*3 -0.6 C 1.6 km/h
575 21-02-2018 23:50:00 -0.5 C 3.65 g/m*3 -3.36 C 8.1 km/h
Sensor: Nr:Datum:Temp:Abs-Feuchte:Windchill:Wind:
Aussen-T/F 576 21-02-2018 23:55:00 -0.5 C 3.7 g/m*3 -0.5 C 1.6 km/h
577 22-02-2018 00:00:00 -0.6 C 3.67 g/m*3 -0.6 C 0 km/h
578 22-02-2018 00:05:00 -0.7 C 3.65 g/m*3 -0.7 C 0 km/h
579 22-02-2018 00:10:00 -0.8 C 3.71 g/m*3 -0.8 C 0 km/h
580 22-02-2018 00:15:00 -1 C 3.66 g/m*3 -1 C 1.6 km/h
581 22-02-2018 00:20:00 -1.1 C 3.68 g/m*3 -1.1 C 1.6 km/h
582 22-02-2018 00:25:00 -1.2 C 3.66 g/m*3 -1.2 C 3.2 km/h
583 22-02-2018 00:30:00 -1.3 C 3.67 g/m*3 -1.3 C 1.6 km/h
584 22-02-2018 00:35:00 -1.3 C 3.67 g/m*3 -1.3 C 1.6 km/h
585 22-02-2018 00:40:00 -1.4 C 3.69 g/m*3 -1.4 C 1.6 km/h
586 22-02-2018 00:45:00 -1.4 C 3.69 g/m*3 -1.4 C 0 km/h
587 22-02-2018 00:50:00 -1.5 C 3.62 g/m*3 -1.5 C 0 km/h
588 22-02-2018 00:55:00 -1.5 C 3.67 g/m*3 -1.5 C 3.2 km/h
589 22-02-2018 01:00:00 -1.5 C 3.62 g/m*3 -1.5 C 0 km/h
590 22-02-2018 01:05:00 -1.5 C 3.67 g/m*3 -1.5 C 3.2 km/h
591 22-02-2018 01:10:00 -1.5 C 3.67 g/m*3 -1.5 C 1.6 km/h
592 22-02-2018 01:15:00 -1.5 C 3.67 g/m*3 -1.5 C 0 km/h
593 22-02-2018 01:20:00 -1.6 C 3.64 g/m*3 -1.6 C 0 km/h
594 22-02-2018 01:25:00 -1.6 C 3.64 g/m*3 -1.6 C 0 km/h
595 22-02-2018 01:30:00 -1.7 C 3.66 g/m*3 -1.7 C 0 km/h
596 22-02-2018 01:35:00 -1.7 C 3.66 g/m*3 -1.7 C 0 km/h
597 22-02-2018 01:40:00 -1.7 C 3.66 g/m*3 -1.7 C 0 km/h
598 22-02-2018 01:45:00 -1.7 C 3.66 g/m*3 -1.7 C 0 km/h
599 22-02-2018 01:50:00 -1.8 C 3.63 g/m*3 -1.8 C 0 km/h
600 22-02-2018 01:55:00 -1.8 C 3.63 g/m*3 -1.8 C 0 km/h
Sensor: Nr:Datum:Temp:Abs-Feuchte:Windchill:Wind:
Aussen-T/F 601 22-02-2018 02:00:00 -1.9 C 3.61 g/m*3 -1.9 C 0 km/h
602 22-02-2018 02:05:00 -1.9 C 3.61 g/m*3 -1.9 C 0 km/h
603 22-02-2018 02:10:00 -1.9 C 3.61 g/m*3 -1.9 C 0 km/h
604 22-02-2018 02:15:00 -1.9 C 3.61 g/m*3 -1.9 C 0 km/h
605 22-02-2018 02:20:00 -1.9 C 3.61 g/m*3 -1.9 C 0 km/h
606 22-02-2018 02:25:00 -1.9 C 3.61 g/m*3 -1.9 C 0 km/h
607 22-02-2018 02:30:00 -2 C 3.63 g/m*3 -2 C 0 km/h
608 22-02-2018 02:35:00 -1.9 C 3.65 g/m*3 -1.9 C 0 km/h
609 22-02-2018 02:40:00 -1.9 C 3.65 g/m*3 -1.9 C 0 km/h
610 22-02-2018 02:45:00 -1.9 C 3.65 g/m*3 -1.9 C 0 km/h
611 22-02-2018 02:50:00 -1.9 C 3.65 g/m*3 -1.9 C 0 km/h
612 22-02-2018 02:55:00 -1.9 C 3.65 g/m*3 -1.9 C 0 km/h
613 22-02-2018 03:00:00 -1.9 C 3.65 g/m*3 -1.9 C 0 km/h
614 22-02-2018 03:05:00 -1.9 C 3.65 g/m*3 -1.9 C 0 km/h
615 22-02-2018 03:10:00 -1.9 C 3.65 g/m*3 -1.9 C 0 km/h
616 22-02-2018 03:15:00 -1.9 C 3.65 g/m*3 -1.9 C 0 km/h
617 22-02-2018 03:20:00 -1.9 C 3.65 g/m*3 -1.9 C 0 km/h
618 22-02-2018 03:25:00 -1.9 C 3.69 g/m*3 -1.9 C 0 km/h
619 22-02-2018 03:30:00 -1.9 C 3.69 g/m*3 -1.9 C 0 km/h
620 22-02-2018 03:35:00 -2 C 3.63 g/m*3 -2 C 3.2 km/h
621 22-02-2018 03:40:00 -2.1 C 3.6 g/m*3 -2.1 C 1.6 km/h
622 22-02-2018 03:45:00 -2.1 C 3.64 g/m*3 -2.1 C 0 km/h
623 22-02-2018 03:50:00 -2.1 C 3.64 g/m*3 -2.1 C 3.2 km/h
624 22-02-2018 03:55:00 -2.1 C 3.64 g/m*3 -2.1 C 0 km/h
625 22-02-2018 04:00:00 -2.1 C 3.64 g/m*3 -2.1 C 1.6 km/h
Sensor: Nr:Datum:Temp:Abs-Feuchte:Windchill:Wind:
Aussen-T/F 626 22-02-2018 04:05:00 -2.1 C 3.64 g/m*3 -2.1 C 3.2 km/h
627 22-02-2018 04:10:00 -2.2 C 3.62 g/m*3 -2.2 C 1.6 km/h
628 22-02-2018 04:15:00 -2.2 C 3.62 g/m*3 -2.2 C 1.6 km/h
629 22-02-2018 04:20:00 -2.2 C 3.62 g/m*3 -2.2 C 0 km/h
630 22-02-2018 04:25:00 -2.1 C 3.64 g/m*3 -2.1 C 0 km/h
631 22-02-2018 04:30:00 -2.1 C 3.64 g/m*3 -2.1 C 0 km/h
632 22-02-2018 04:35:00 -2.1 C 3.64 g/m*3 -2.1 C 1.6 km/h
633 22-02-2018 04:40:00 -2.1 C 3.64 g/m*3 -2.1 C 1.6 km/h
634 22-02-2018 04:45:00 -2.1 C 3.64 g/m*3 -2.1 C 0 km/h
635 22-02-2018 04:50:00 -2.1 C 3.64 g/m*3 -2.1 C 3.2 km/h
636 22-02-2018 04:55:00 -2.1 C 3.64 g/m*3 -2.1 C 1.6 km/h
637 22-02-2018 05:00:00 -2 C 3.71 g/m*3 -2 C 1.6 km/h
638 22-02-2018 05:05:00 -2 C 3.67 g/m*3 -2 C 0 km/h
639 22-02-2018 05:10:00 -2 C 3.67 g/m*3 -2 C 0 km/h
640 22-02-2018 05:15:00 -2.1 C 3.64 g/m*3 -2.1 C 0 km/h
641 22-02-2018 05:20:00 -2.1 C 3.68 g/m*3 -2.1 C 1.6 km/h
642 22-02-2018 05:25:00 -2 C 3.71 g/m*3 -2 C 3.2 km/h
643 22-02-2018 05:30:00 -2 C 3.71 g/m*3 -2 C 0 km/h
644 22-02-2018 05:35:00 -2 C 3.71 g/m*3 -2 C 1.6 km/h
645 22-02-2018 05:40:00 -2 C 3.67 g/m*3 -2 C 1.6 km/h
646 22-02-2018 05:45:00 -2 C 3.67 g/m*3 -2 C 1.6 km/h
647 22-02-2018 05:50:00 -2 C 3.67 g/m*3 -2 C 1.6 km/h
648 22-02-2018 05:55:00 -2.1 C 3.64 g/m*3 -2.1 C 1.6 km/h
649 22-02-2018 06:00:00 -2.1 C 3.68 g/m*3 -2.1 C 3.2 km/h
650 22-02-2018 06:05:00 -2.1 C 3.68 g/m*3 -2.1 C 0 km/h
Sensor: Nr:Datum:Temp:Abs-Feuchte:Windchill:Wind:
Aussen-T/F 651 22-02-2018 06:10:00 -2.1 C 3.68 g/m*3 -2.1 C 0 km/h
652 22-02-2018 06:15:00 -2.1 C 3.68 g/m*3 -2.1 C 0 km/h
653 22-02-2018 06:20:00 -2.2 C 3.66 g/m*3 -2.2 C 1.6 km/h
654 22-02-2018 06:25:00 -2.2 C 3.66 g/m*3 -2.2 C 0 km/h
655 22-02-2018 06:30:00 -2.2 C 3.66 g/m*3 -2.2 C 0 km/h
656 22-02-2018 06:35:00 -2.2 C 3.66 g/m*3 -2.2 C 3.2 km/h
657 22-02-2018 06:40:00 -2.2 C 3.66 g/m*3 -2.2 C 0 km/h
658 22-02-2018 06:45:00 -2.2 C 3.66 g/m*3 -2.2 C 1.6 km/h
659 22-02-2018 06:50:00 -2.2 C 3.66 g/m*3 -2.2 C 1.6 km/h
660 22-02-2018 06:55:00 -2.2 C 3.66 g/m*3 -2.2 C 1.6 km/h
661 22-02-2018 07:00:00 -2.2 C 3.66 g/m*3 -2.2 C 3.2 km/h
662 22-02-2018 07:05:00 -2.2 C 3.66 g/m*3 -2.2 C 0 km/h
663 22-02-2018 07:10:00 -2.3 C 3.63 g/m*3 -2.3 C 1.6 km/h
664 22-02-2018 07:15:00 -2.3 C 3.63 g/m*3 -2.3 C 1.6 km/h
665 22-02-2018 07:20:00 -2.3 C 3.63 g/m*3 -2.3 C 1.6 km/h
666 22-02-2018 07:25:00 -2.3 C 3.63 g/m*3 -2.3 C 4.8 km/h
667 22-02-2018 07:30:00 -2.3 C 3.63 g/m*3 -2.3 C 1.6 km/h
668 22-02-2018 07:35:00 -2.3 C 3.63 g/m*3 -2.3 C 0 km/h
669 22-02-2018 07:40:00 -2.3 C 3.63 g/m*3 -2.3 C 0 km/h
670 22-02-2018 07:45:00 -2.2 C 3.66 g/m*3 -2.2 C 1.6 km/h
671 22-02-2018 07:50:00 -2.2 C 3.66 g/m*3 -2.2 C 3.2 km/h
672 22-02-2018 07:55:00 -2.2 C 3.66 g/m*3 -2.2 C 0 km/h
673 22-02-2018 08:00:00 -2.2 C 3.62 g/m*3 -2.2 C 0 km/h
674 22-02-2018 08:05:00 -2.1 C 3.64 g/m*3 -2.1 C 1.6 km/h
675 22-02-2018 08:10:00 -2 C 3.67 g/m*3 -2 C 1.6 km/h
Sensor: Nr:Datum:Temp:Abs-Feuchte:Windchill:Wind:
Aussen-T/F 676 22-02-2018 08:15:00 -1.9 C 3.69 g/m*3 -1.9 C 4.8 km/h
677 22-02-2018 08:20:00 -1.8 C 3.72 g/m*3 -1.8 C 4.8 km/h
678 22-02-2018 08:25:00 -1.8 C 3.68 g/m*3 -1.8 C 1.6 km/h
679 22-02-2018 08:30:00 -1.8 C 3.68 g/m*3 -1.8 C 0 km/h
680 22-02-2018 08:35:00 -1.7 C 3.7 g/m*3 -1.7 C 0 km/h
681 22-02-2018 08:40:00 -1.7 C 3.7 g/m*3 -1.7 C 0 km/h
682 22-02-2018 08:45:00 -1.7 C 3.7 g/m*3 -1.7 C 1.6 km/h
683 22-02-2018 08:50:00 -1.6 C 3.73 g/m*3 -1.6 C 0 km/h
684 22-02-2018 08:55:00 -1.6 C 3.73 g/m*3 -1.6 C 1.6 km/h
685 22-02-2018 09:00:00 -1.6 C 3.73 g/m*3 -1.6 C 0 km/h
686 22-02-2018 09:05:00 -1.5 C 3.75 g/m*3 -1.5 C 1.6 km/h
687 22-02-2018 09:10:00 -1.5 C 3.75 g/m*3 -1.5 C 0 km/h
688 22-02-2018 09:15:00 -1.4 C 3.74 g/m*3 -1.4 C 4.8 km/h
689 22-02-2018 09:20:00 -1.3 C 3.72 g/m*3 -1.3 C 1.6 km/h
690 22-02-2018 09:25:00 -1.2 C 3.74 g/m*3 -1.2 C 1.6 km/h
691 22-02-2018 09:30:00 -1.1 C 3.77 g/m*3 -1.1 C 3.2 km/h
692 22-02-2018 09:35:00 -0.9 C 3.78 g/m*3 -3.83 C 8.1 km/h
693 22-02-2018 09:40:00 -0.8 C 3.8 g/m*3 -3.71 C 8.1 km/h
694 22-02-2018 09:45:00 -0.7 C 3.74 g/m*3 -2.99 C 6.4 km/h
695 22-02-2018 09:50:00 -0.4 C 3.77 g/m*3 -4.49 C 12.9 km/h
696 22-02-2018 09:55:00 -0.1 C 3.8 g/m*3 -4.12 C 12.9 km/h
697 22-02-2018 10:00:00 0 C 3.83 g/m*3 0 C 4.8 km/h
698 22-02-2018 10:05:00 0 C 3.78 g/m*3 -3.23 C 9.7 km/h
699 22-02-2018 10:10:00 0.3 C 3.76 g/m*3 -3.63 C 12.9 km/h
700 22-02-2018 10:15:00 0.4 C 3.79 g/m*3 -2.76 C 9.7 km/h
Sensor: Nr:Datum:Temp:Abs-Feuchte:Windchill:Wind:
Aussen-T/F 701 22-02-2018 10:20:00 0.7 C 3.76 g/m*3 -3.46 C 14.5 km/h
702 22-02-2018 10:25:00 0.8 C 3.74 g/m*3 -2.67 C 11.3 km/h
703 22-02-2018 10:30:00 0.9 C 3.76 g/m*3 -2.9 C 12.9 km/h
704 22-02-2018 10:35:00 1.1 C 3.76 g/m*3 -2.66 C 12.9 km/h
705 22-02-2018 10:40:00 1.1 C 3.76 g/m*3 -1.48 C 8.1 km/h
706 22-02-2018 10:45:00 1.2 C 3.74 g/m*3 -2.85 C 14.5 km/h
707 22-02-2018 10:50:00 1.2 C 3.74 g/m*3 1.2 C 4.8 km/h
708 22-02-2018 10:55:00 1.3 C 3.76 g/m*3 -0.68 C 6.4 km/h
709 22-02-2018 11:00:00 1.4 C 3.73 g/m*3 -2.29 C 12.9 km/h
710 22-02-2018 11:05:00 1.5 C 3.65 g/m*3 -1.83 C 11.3 km/h
711 22-02-2018 11:10:00 1.6 C 3.68 g/m*3 -2.89 C 17.7 km/h
712 22-02-2018 11:15:00 1.6 C 3.62 g/m*3 -1.71 C 11.3 km/h
713 22-02-2018 11:20:00 1.7 C 3.65 g/m*3 -1.59 C 11.3 km/h
714 22-02-2018 11:25:00 1.8 C 3.67 g/m*3 -1.47 C 11.3 km/h
715 22-02-2018 11:30:00 1.8 C 3.56 g/m*3 -2.38 C 16.1 km/h
716 22-02-2018 11:35:00 1.8 C 3.67 g/m*3 -2.38 C 16.1 km/h
717 22-02-2018 11:40:00 1.9 C 3.7 g/m*3 -1.68 C 12.9 km/h
718 22-02-2018 11:45:00 2 C 3.56 g/m*3 -2.62 C 19.3 km/h
719 22-02-2018 11:50:00 2 C 3.56 g/m*3 -3.24 C 24.1 km/h
720 22-02-2018 11:55:00 2.1 C 3.64 g/m*3 -3.11 C 24.1 km/h
721 22-02-2018 12:00:00 2.2 C 3.55 g/m*3 -2.37 C 19.3 km/h
722 22-02-2018 12:05:00 2.2 C 3.55 g/m*3 -2.37 C 19.3 km/h
723 22-02-2018 12:10:00 2.2 C 3.6 g/m*3 -1.62 C 14.5 km/h
724 22-02-2018 12:15:00 2.2 C 3.6 g/m*3 -2.37 C 19.3 km/h
725 22-02-2018 12:20:00 2.2 C 3.55 g/m*3 -2.14 C 17.7 km/h
Sensor: Nr:Datum:Temp:Abs-Feuchte:Windchill:Wind:
Aussen-T/F 726 22-02-2018 12:25:00 2.3 C 3.52 g/m*3 -2.01 C 17.7 km/h
727 22-02-2018 12:30:00 2.4 C 3.48 g/m*3 -2.53 C 22.5 km/h
728 22-02-2018 12:35:00 2.6 C 3.59 g/m*3 -1.39 C 16.1 km/h
729 22-02-2018 12:40:00 2.8 C 3.52 g/m*3 -1.83 C 20.9 km/h
730 22-02-2018 12:45:00 2.8 C 3.52 g/m*3 -1.14 C 16.1 km/h
731 22-02-2018 12:50:00 2.8 C 3.64 g/m*3 -1.39 C 17.7 km/h
732 22-02-2018 12:55:00 2.9 C 3.66 g/m*3 -0.14 C 11.3 km/h
733 22-02-2018 13:00:00 2.9 C 3.54 g/m*3 -2.08 C 24.1 km/h
734 22-02-2018 13:05:00 3.1 C 3.65 g/m*3 -0.22 C 12.9 km/h
735 22-02-2018 13:10:00 3.2 C 3.5 g/m*3 -0.89 C 17.7 km/h
736 22-02-2018 13:15:00 3.3 C 3.46 g/m*3 -1.57 C 24.1 km/h
737 22-02-2018 13:20:00 3.3 C 3.4 g/m*3 -1.57 C 24.1 km/h
738 22-02-2018 13:25:00 3.3 C 3.46 g/m*3 -1.57 C 24.1 km/h
739 22-02-2018 13:30:00 3.3 C 3.52 g/m*3 -2.07 C 29 km/h
740 22-02-2018 13:35:00 3.4 C 3.48 g/m*3 -0.14 C 14.5 km/h
741 22-02-2018 13:40:00 3.6 C 3.53 g/m*3 0.11 C 14.5 km/h
742 22-02-2018 13:45:00 3.8 C 3.45 g/m*3 -0.14 C 17.7 km/h
743 22-02-2018 13:50:00 3.9 C 3.41 g/m*3 -0.8 C 24.1 km/h
744 22-02-2018 13:55:00 3.8 C 3.51 g/m*3 -0.75 C 22.5 km/h
745 22-02-2018 14:00:00 3.6 C 3.47 g/m*3 -0.39 C 17.7 km/h
746 22-02-2018 14:05:00 3.3 C 3.4 g/m*3 -1.39 C 22.5 km/h
747 22-02-2018 14:10:00 3.1 C 3.41 g/m*3 -1.01 C 17.7 km/h
748 22-02-2018 14:15:00 2.9 C 3.43 g/m*3 -1.49 C 19.3 km/h
749 22-02-2018 14:20:00 2.9 C 3.43 g/m*3 -0.76 C 14.5 km/h
750 22-02-2018 14:25:00 2.9 C 3.37 g/m*3 -1.49 C 19.3 km/h
Sensor: Nr:Datum:Temp:Abs-Feuchte:Windchill:Wind:
Aussen-T/F 751 22-02-2018 14:30:00 3 C 3.39 g/m*3 -1.57 C 20.9 km/h
752 22-02-2018 14:35:00 3.1 C 3.35 g/m*3 -1.01 C 17.7 km/h
753 22-02-2018 14:40:00 3.2 C 3.31 g/m*3 -1.32 C 20.9 km/h
754 22-02-2018 14:45:00 3.2 C 3.37 g/m*3 -1.11 C 19.3 km/h
755 22-02-2018 14:50:00 3.3 C 3.4 g/m*3 -0.99 C 19.3 km/h
756 22-02-2018 14:55:00 3.4 C 3.42 g/m*3 -0.4 C 16.1 km/h
757 22-02-2018 15:00:00 3.5 C 3.38 g/m*3 -0.73 C 19.3 km/h
758 22-02-2018 15:05:00 3.6 C 3.4 g/m*3 -0.39 C 17.7 km/h
759 22-02-2018 15:10:00 3.6 C 3.34 g/m*3 -0.81 C 20.9 km/h
760 22-02-2018 15:15:00 3.5 C 3.32 g/m*3 -1.49 C 25.7 km/h
761 22-02-2018 15:20:00 3.4 C 3.36 g/m*3 -1.26 C 22.5 km/h
762 22-02-2018 15:25:00 3.3 C 3.28 g/m*3 -1.19 C 20.9 km/h
763 22-02-2018 15:30:00 3.2 C 3.19 g/m*3 -1.51 C 22.5 km/h
764 22-02-2018 15:35:00 3.2 C 3.19 g/m*3 -1.87 C 25.7 km/h
765 22-02-2018 15:40:00 3.3 C 3.22 g/m*3 -1.39 C 22.5 km/h
766 22-02-2018 15:45:00 3.3 C 3.22 g/m*3 -1.57 C 24.1 km/h
767 22-02-2018 15:50:00 3.3 C 3.22 g/m*3 -1.39 C 22.5 km/h
768 22-02-2018 15:55:00 3.4 C 3.24 g/m*3 -0.14 C 14.5 km/h
769 22-02-2018 16:00:00 3.6 C 3.28 g/m*3 -0.15 C 16.1 km/h
770 22-02-2018 16:05:00 3.6 C 3.28 g/m*3 0.7 C 11.3 km/h
771 22-02-2018 16:10:00 3.6 C 3.28 g/m*3 -0.15 C 16.1 km/h
772 22-02-2018 16:15:00 3.6 C 3.34 g/m*3 1.46 C 8.1 km/h
773 22-02-2018 16:20:00 3.6 C 3.34 g/m*3 0.7 C 11.3 km/h
774 22-02-2018 16:25:00 3.6 C 3.4 g/m*3 -0.39 C 17.7 km/h
775 22-02-2018 16:30:00 3.5 C 3.32 g/m*3 0.27 C 12.9 km/h
Sensor: Nr:Datum:Temp:Abs-Feuchte:Windchill:Wind:
Aussen-T/F 776 22-02-2018 16:35:00 3.5 C 3.44 g/m*3 -1.13 C 22.5 km/h
777 22-02-2018 16:40:00 3.4 C 3.36 g/m*3 -1.07 C 20.9 km/h
778 22-02-2018 16:45:00 3.3 C 3.34 g/m*3 0.7 C 9.7 km/h
779 22-02-2018 16:50:00 3.2 C 3.31 g/m*3 0.99 C 8.1 km/h
780 22-02-2018 16:55:00 3.2 C 3.31 g/m*3 0.99 C 8.1 km/h
781 22-02-2018 17:00:00 3.2 C 3.43 g/m*3 1.51 C 6.4 km/h
782 22-02-2018 17:05:00 3.2 C 3.43 g/m*3 -1.11 C 19.3 km/h
783 22-02-2018 17:10:00 3.2 C 3.43 g/m*3 0.58 C 9.7 km/h
784 22-02-2018 17:15:00 3.2 C 3.43 g/m*3 -0.39 C 14.5 km/h
785 22-02-2018 17:20:00 3.1 C 3.41 g/m*3 3.1 C 4.8 km/h
786 22-02-2018 17:25:00 3.1 C 3.47 g/m*3 3.1 C 1.6 km/h
787 22-02-2018 17:30:00 3.1 C 3.47 g/m*3 3.1 C 3.2 km/h
788 22-02-2018 17:35:00 2.9 C 3.37 g/m*3 -0.14 C 11.3 km/h
789 22-02-2018 17:40:00 2.8 C 3.34 g/m*3 0.1 C 9.7 km/h
790 22-02-2018 17:45:00 2.7 C 3.38 g/m*3 -1.27 C 16.1 km/h
791 22-02-2018 17:50:00 2.5 C 3.33 g/m*3 0.17 C 8.1 km/h
792 22-02-2018 17:55:00 2.3 C 3.4 g/m*3 -0.87 C 11.3 km/h
793 22-02-2018 18:00:00 2.1 C 3.36 g/m*3 -2.26 C 17.7 km/h
794 22-02-2018 18:05:00 1.8 C 3.34 g/m*3 -1.09 C 9.7 km/h
795 22-02-2018 18:10:00 1.6 C 3.35 g/m*3 -1.33 C 9.7 km/h
796 22-02-2018 18:15:00 1.4 C 3.36 g/m*3 -1.12 C 8.1 km/h
797 22-02-2018 18:20:00 1.2 C 3.37 g/m*3 -0.8 C 6.4 km/h
798 22-02-2018 18:25:00 1.1 C 3.34 g/m*3 1.1 C 0 km/h
799 22-02-2018 18:30:00 0.8 C 3.33 g/m*3 0.8 C 1.6 km/h
800 22-02-2018 18:35:00 0.7 C 3.36 g/m*3 0.7 C 0 km/h
Sensor: Nr:Datum:Temp:Abs-Feuchte:Windchill:Wind:
Aussen-T/F 801 22-02-2018 18:40:00 0.5 C 3.36 g/m*3 0.5 C 0 km/h
802 22-02-2018 18:45:00 0.3 C 3.41 g/m*3 0.3 C 0 km/h
803 22-02-2018 18:50:00 0.2 C 3.44 g/m*3 0.2 C 0 km/h
804 22-02-2018 18:55:00 -0.1 C 3.42 g/m*3 -0.1 C 0 km/h
805 22-02-2018 19:00:00 -0.2 C 3.39 g/m*3 -0.2 C 0 km/h
806 22-02-2018 19:05:00 -0.2 C 3.49 g/m*3 -0.2 C 3.2 km/h
807 22-02-2018 19:10:00 -0.3 C 3.37 g/m*3 -0.3 C 4.8 km/h
808 22-02-2018 19:15:00 -0.2 C 3.35 g/m*3 -0.2 C 3.2 km/h
809 22-02-2018 19:20:00 -0.2 C 3.44 g/m*3 -0.2 C 1.6 km/h
810 22-02-2018 19:25:00 -0.3 C 3.42 g/m*3 -0.3 C 1.6 km/h
811 22-02-2018 19:30:00 -0.5 C 3.46 g/m*3 -0.5 C 1.6 km/h
812 22-02-2018 19:35:00 -0.6 C 3.49 g/m*3 -0.6 C 1.6 km/h
813 22-02-2018 19:40:00 -0.7 C 3.42 g/m*3 -0.7 C 3.2 km/h
814 22-02-2018 19:45:00 -0.7 C 3.46 g/m*3 -0.7 C 0 km/h
815 22-02-2018 19:50:00 -0.7 C 3.51 g/m*3 -0.7 C 0 km/h
816 22-02-2018 19:55:00 -0.8 C 3.48 g/m*3 -0.8 C 0 km/h
817 22-02-2018 20:00:00 -0.9 C 3.51 g/m*3 -0.9 C 1.6 km/h
818 22-02-2018 20:05:00 -0.9 C 3.51 g/m*3 -0.9 C 3.2 km/h
819 22-02-2018 20:10:00 -1 C 3.44 g/m*3 -1 C 0 km/h
820 22-02-2018 20:15:00 -1 C 3.39 g/m*3 -1 C 4.8 km/h
821 22-02-2018 20:20:00 -0.9 C 3.37 g/m*3 -3.22 C 6.4 km/h
822 22-02-2018 20:25:00 -0.8 C 3.39 g/m*3 -0.8 C 0 km/h
823 22-02-2018 20:30:00 -0.9 C 3.37 g/m*3 -0.9 C 0 km/h
824 22-02-2018 20:35:00 -0.9 C 3.32 g/m*3 -0.9 C 0 km/h
825 22-02-2018 20:40:00 -1 C 3.35 g/m*3 -1 C 0 km/h
Sensor: Nr:Datum:Temp:Abs-Feuchte:Windchill:Wind:
Aussen-T/F 826 22-02-2018 20:45:00 -1.1 C 3.41 g/m*3 -1.1 C 0 km/h
827 22-02-2018 20:50:00 -1.2 C 3.43 g/m*3 -1.2 C 0 km/h
828 22-02-2018 20:55:00 -1.2 C 3.43 g/m*3 -1.2 C 0 km/h
829 22-02-2018 21:00:00 -1.3 C 3.45 g/m*3 -1.3 C 0 km/h
830 22-02-2018 21:05:00 -1.3 C 3.41 g/m*3 -1.3 C 3.2 km/h
831 22-02-2018 21:10:00 -1.3 C 3.32 g/m*3 -6.23 C 16.1 km/h
832 22-02-2018 21:15:00 -1.1 C 3.32 g/m*3 -1.1 C 3.2 km/h
833 22-02-2018 21:20:00 -1 C 3.35 g/m*3 -1 C 1.6 km/h
834 22-02-2018 21:25:00 -1 C 3.35 g/m*3 -1 C 0 km/h
835 22-02-2018 21:30:00 -1.1 C 3.32 g/m*3 -1.1 C 0 km/h
836 22-02-2018 21:35:00 -1.1 C 3.32 g/m*3 -1.1 C 4.8 km/h
837 22-02-2018 21:40:00 -1.1 C 3.37 g/m*3 -1.1 C 3.2 km/h
838 22-02-2018 21:45:00 -1.2 C 3.34 g/m*3 -1.2 C 4.8 km/h
839 22-02-2018 21:50:00 -1.1 C 3.32 g/m*3 -1.1 C 4.8 km/h
840 22-02-2018 21:55:00 -1.1 C 3.32 g/m*3 -1.1 C 3.2 km/h
841 22-02-2018 22:00:00 -1 C 3.35 g/m*3 -1 C 3.2 km/h
842 22-02-2018 22:05:00 -1.1 C 3.37 g/m*3 -1.1 C 4.8 km/h
843 22-02-2018 22:10:00 -1.1 C 3.32 g/m*3 -1.1 C 4.8 km/h
844 22-02-2018 22:15:00 -1.1 C 3.37 g/m*3 -1.1 C 3.2 km/h
845 22-02-2018 22:20:00 -1.2 C 3.34 g/m*3 -1.2 C 4.8 km/h
846 22-02-2018 22:25:00 -1.2 C 3.34 g/m*3 -1.2 C 3.2 km/h
847 22-02-2018 22:30:00 -1.3 C 3.32 g/m*3 -1.3 C 3.2 km/h
848 22-02-2018 22:35:00 -1.2 C 3.3 g/m*3 -4.18 C 8.1 km/h
849 22-02-2018 22:40:00 -1.2 C 3.34 g/m*3 -3.57 C 6.4 km/h
850 22-02-2018 22:45:00 -1.2 C 3.34 g/m*3 -1.2 C 0 km/h
Sensor: Nr:Datum:Temp:Abs-Feuchte:Windchill:Wind:
Aussen-T/F 851 22-02-2018 22:50:00 -1.2 C 3.34 g/m*3 -1.2 C 3.2 km/h
852 22-02-2018 22:55:00 -1.3 C 3.28 g/m*3 -5.21 C 11.3 km/h
853 22-02-2018 23:00:00 -1.2 C 3.3 g/m*3 -1.2 C 1.6 km/h
854 22-02-2018 23:05:00 -1.2 C 3.34 g/m*3 -1.2 C 0 km/h
855 22-02-2018 23:10:00 -1.3 C 3.32 g/m*3 -1.3 C 1.6 km/h
856 22-02-2018 23:15:00 -1.3 C 3.32 g/m*3 -1.3 C 1.6 km/h
857 22-02-2018 23:20:00 -1.3 C 3.28 g/m*3 -1.3 C 3.2 km/h
858 22-02-2018 23:25:00 -1.3 C 3.32 g/m*3 -1.3 C 4.8 km/h
859 22-02-2018 23:30:00 -1.3 C 3.32 g/m*3 -1.3 C 3.2 km/h
860 22-02-2018 23:35:00 -1.3 C 3.23 g/m*3 -3.68 C 6.4 km/h
861 22-02-2018 23:40:00 -1.3 C 3.28 g/m*3 -1.3 C 3.2 km/h
862 22-02-2018 23:45:00 -1.3 C 3.28 g/m*3 -1.3 C 4.8 km/h
863 22-02-2018 23:50:00 -1.4 C 3.25 g/m*3 -1.4 C 3.2 km/h
864 22-02-2018 23:55:00 -1.4 C 3.3 g/m*3 -1.4 C 3.2 km/h
865 23-02-2018 00:00:00 -1.5 C 3.23 g/m*3 -3.91 C 6.4 km/h
866 23-02-2018 00:05:00 -1.4 C 3.3 g/m*3 -1.4 C 3.2 km/h
867 23-02-2018 00:10:00 -1.4 C 3.3 g/m*3 -1.4 C 3.2 km/h
868 23-02-2018 00:15:00 -1.4 C 3.3 g/m*3 -4.42 C 8.1 km/h
869 23-02-2018 00:20:00 -1.4 C 3.3 g/m*3 -1.4 C 1.6 km/h
870 23-02-2018 00:25:00 -1.4 C 3.3 g/m*3 -1.4 C 1.6 km/h
871 23-02-2018 00:30:00 -1.5 C 3.27 g/m*3 -1.5 C 0 km/h
872 23-02-2018 00:35:00 -1.7 C 3.27 g/m*3 -1.7 C 0 km/h
873 23-02-2018 00:40:00 -1.8 C 3.25 g/m*3 -1.8 C 0 km/h
874 23-02-2018 00:45:00 -1.8 C 3.25 g/m*3 -1.8 C 0 km/h
875 23-02-2018 00:50:00 -1.9 C 3.27 g/m*3 -1.9 C 3.2 km/h
Sensor: Nr:Datum:Temp:Abs-Feuchte:Windchill:Wind:
Aussen-T/F 876 23-02-2018 00:55:00 -1.9 C 3.23 g/m*3 -1.9 C 3.2 km/h
877 23-02-2018 01:00:00 -1.8 C 3.25 g/m*3 -1.8 C 1.6 km/h
878 23-02-2018 01:05:00 -1.8 C 3.29 g/m*3 -1.8 C 0 km/h
879 23-02-2018 01:10:00 -1.9 C 3.31 g/m*3 -1.9 C 3.2 km/h
880 23-02-2018 01:15:00 -2 C 3.25 g/m*3 -2 C 0 km/h
881 23-02-2018 01:20:00 -2.1 C 3.26 g/m*3 -2.1 C 3.2 km/h
882 23-02-2018 01:25:00 -2.2 C 3.24 g/m*3 -2.2 C 3.2 km/h
883 23-02-2018 01:30:00 -2.2 C 3.2 g/m*3 -2.2 C 1.6 km/h
884 23-02-2018 01:35:00 -2.2 C 3.24 g/m*3 -2.2 C 3.2 km/h
885 23-02-2018 01:40:00 -2.2 C 3.24 g/m*3 -4.72 C 6.4 km/h
886 23-02-2018 01:45:00 -2.2 C 3.2 g/m*3 -2.2 C 3.2 km/h
887 23-02-2018 01:50:00 -2.2 C 3.2 g/m*3 -4.72 C 6.4 km/h
888 23-02-2018 01:55:00 -2.2 C 3.2 g/m*3 -2.2 C 3.2 km/h
889 23-02-2018 02:00:00 -2.2 C 3.2 g/m*3 -5.86 C 9.7 km/h
890 23-02-2018 02:05:00 -1.9 C 3.23 g/m*3 -5.5 C 9.7 km/h
891 23-02-2018 02:10:00 -1.9 C 3.23 g/m*3 -1.9 C 4.8 km/h
892 23-02-2018 02:15:00 -2 C 3.2 g/m*3 -2 C 4.8 km/h
893 23-02-2018 02:20:00 -2.1 C 3.18 g/m*3 -2.1 C 3.2 km/h
894 23-02-2018 02:25:00 -2.1 C 3.18 g/m*3 -2.1 C 3.2 km/h
895 23-02-2018 02:30:00 -2.1 C 3.18 g/m*3 -2.1 C 1.6 km/h
896 23-02-2018 02:35:00 -2.1 C 3.18 g/m*3 -2.1 C 0 km/h
897 23-02-2018 02:40:00 -2.1 C 3.22 g/m*3 -2.1 C 0 km/h
898 23-02-2018 02:45:00 -2.2 C 3.16 g/m*3 -2.2 C 0 km/h
899 23-02-2018 02:50:00 -2.3 C 3.14 g/m*3 -2.3 C 3.2 km/h
900 23-02-2018 02:55:00 -2.3 C 3.18 g/m*3 -2.3 C 0 km/h
Sensor: Nr:Datum:Temp:Abs-Feuchte:Windchill:Wind:
Aussen-T/F 901 23-02-2018 03:00:00 -2.3 C 3.18 g/m*3 -4.84 C 6.4 km/h
902 23-02-2018 03:05:00 -2.3 C 3.18 g/m*3 -2.3 C 1.6 km/h
903 23-02-2018 03:10:00 -2.3 C 3.18 g/m*3 -2.3 C 3.2 km/h
904 23-02-2018 03:15:00 -2.3 C 3.14 g/m*3 -2.3 C 1.6 km/h
905 23-02-2018 03:20:00 -2.4 C 3.11 g/m*3 -2.4 C 3.2 km/h
906 23-02-2018 03:25:00 -2.3 C 3.1 g/m*3 -2.3 C 4.8 km/h
907 23-02-2018 03:30:00 -2.3 C 3.1 g/m*3 -5.98 C 9.7 km/h
908 23-02-2018 03:35:00 -2.1 C 3.1 g/m*3 -6.56 C 12.9 km/h
909 23-02-2018 03:40:00 -2 C 3.08 g/m*3 -4.49 C 6.4 km/h
910 23-02-2018 03:45:00 -1.9 C 3.06 g/m*3 -1.9 C 4.8 km/h
911 23-02-2018 03:50:00 -1.8 C 3.08 g/m*3 -5.81 C 11.3 km/h
912 23-02-2018 03:55:00 -1.8 C 3.08 g/m*3 -4.26 C 6.4 km/h
913 23-02-2018 04:00:00 -1.8 C 3.08 g/m*3 -1.8 C 3.2 km/h
914 23-02-2018 04:05:00 -1.8 C 3.08 g/m*3 -4.89 C 8.1 km/h
915 23-02-2018 04:10:00 -1.8 C 3.08 g/m*3 -4.89 C 8.1 km/h
916 23-02-2018 04:15:00 -1.8 C 3.04 g/m*3 -4.26 C 6.4 km/h
917 23-02-2018 04:20:00 -1.9 C 3.1 g/m*3 -1.9 C 1.6 km/h
918 23-02-2018 04:25:00 -2 C 3.08 g/m*3 -2 C 1.6 km/h
919 23-02-2018 04:30:00 -2.1 C 3.06 g/m*3 -2.1 C 4.8 km/h
920 23-02-2018 04:35:00 -2.1 C 3.06 g/m*3 -2.1 C 4.8 km/h
921 23-02-2018 04:40:00 -2.1 C 3.06 g/m*3 -5.74 C 9.7 km/h
922 23-02-2018 04:45:00 -2.1 C 3.01 g/m*3 -5.74 C 9.7 km/h
923 23-02-2018 04:50:00 -2 C 3.03 g/m*3 -2 C 4.8 km/h
924 23-02-2018 04:55:00 -2.1 C 3.06 g/m*3 -2.1 C 3.2 km/h
925 23-02-2018 05:00:00 -2.2 C 3.03 g/m*3 -2.2 C 3.2 km/h
Sensor: Nr:Datum:Temp:Abs-Feuchte:Windchill:Wind:
Aussen-T/F 926 23-02-2018 05:05:00 -2.3 C 2.97 g/m*3 -2.3 C 4.8 km/h
927 23-02-2018 05:10:00 -2.3 C 3.01 g/m*3 -2.3 C 3.2 km/h
928 23-02-2018 05:15:00 -2.2 C 2.99 g/m*3 -6.29 C 11.3 km/h
929 23-02-2018 05:20:00 -2.2 C 2.99 g/m*3 -2.2 C 3.2 km/h
930 23-02-2018 05:25:00 -2.2 C 2.99 g/m*3 -2.2 C 0 km/h
931 23-02-2018 05:30:00 -2.3 C 2.97 g/m*3 -5.47 C 8.1 km/h
932 23-02-2018 05:35:00 -2.3 C 3.01 g/m*3 -2.3 C 1.6 km/h
933 23-02-2018 05:40:00 -2.4 C 2.99 g/m*3 -2.4 C 3.2 km/h
934 23-02-2018 05:45:00 -2.5 C 2.97 g/m*3 -2.5 C 4.8 km/h
935 23-02-2018 05:50:00 -2.5 C 2.93 g/m*3 -2.5 C 4.8 km/h
936 23-02-2018 05:55:00 -2.6 C 2.95 g/m*3 -2.6 C 3.2 km/h
937 23-02-2018 06:00:00 -2.6 C 2.95 g/m*3 -2.6 C 1.6 km/h
938 23-02-2018 06:05:00 -2.6 C 2.95 g/m*3 -2.6 C 4.8 km/h
939 23-02-2018 06:10:00 -2.7 C 2.93 g/m*3 -5.3 C 6.4 km/h
940 23-02-2018 06:15:00 -2.8 C 2.99 g/m*3 -2.8 C 0 km/h
941 23-02-2018 06:20:00 -2.8 C 2.87 g/m*3 -2.8 C 4.8 km/h
942 23-02-2018 06:25:00 -2.8 C 2.91 g/m*3 -2.8 C 3.2 km/h
943 23-02-2018 06:30:00 -2.8 C 2.91 g/m*3 -2.8 C 3.2 km/h
944 23-02-2018 06:35:00 -2.9 C 2.93 g/m*3 -2.9 C 1.6 km/h
945 23-02-2018 06:40:00 -3.1 C 2.85 g/m*3 -3.1 C 1.6 km/h
946 23-02-2018 06:45:00 -3.1 C 2.85 g/m*3 -3.1 C 1.6 km/h
947 23-02-2018 06:50:00 -3.1 C 2.81 g/m*3 -3.1 C 3.2 km/h
948 23-02-2018 06:55:00 -3 C 2.87 g/m*3 -3 C 3.2 km/h
949 23-02-2018 07:00:00 -3.1 C 2.89 g/m*3 -3.1 C 3.2 km/h
950 23-02-2018 07:05:00 -3.2 C 2.87 g/m*3 -3.2 C 0 km/h
Sensor: Nr:Datum:Temp:Abs-Feuchte:Windchill:Wind:
Aussen-T/F 951 23-02-2018 07:10:00 -3.4 C 2.83 g/m*3 -3.4 C 3.2 km/h
952 23-02-2018 07:15:00 -3.4 C 2.83 g/m*3 -3.4 C 0 km/h
953 23-02-2018 07:20:00 -3.5 C 2.77 g/m*3 -3.5 C 3.2 km/h
954 23-02-2018 07:25:00 -3.4 C 2.79 g/m*3 -6.11 C 6.4 km/h
955 23-02-2018 07:30:00 -3.4 C 2.79 g/m*3 -3.4 C 3.2 km/h
956 23-02-2018 07:35:00 -3.3 C 2.73 g/m*3 -3.3 C 1.6 km/h
957 23-02-2018 07:40:00 -3.2 C 2.79 g/m*3 -3.2 C 0 km/h
958 23-02-2018 07:45:00 -3.2 C 2.75 g/m*3 -6.53 C 8.1 km/h
959 23-02-2018 07:50:00 -3.1 C 2.81 g/m*3 -3.1 C 3.2 km/h
960 23-02-2018 07:55:00 -3.1 C 2.81 g/m*3 -3.1 C 4.8 km/h
961 23-02-2018 08:00:00 -3.2 C 2.79 g/m*3 -3.2 C 1.6 km/h
962 23-02-2018 08:05:00 -3.3 C 2.81 g/m*3 -3.3 C 1.6 km/h
963 23-02-2018 08:10:00 -3.3 C 2.81 g/m*3 -6.65 C 8.1 km/h
964 23-02-2018 08:15:00 -3.3 C 2.85 g/m*3 -3.3 C 1.6 km/h
965 23-02-2018 08:20:00 -3.3 C 2.81 g/m*3 -3.3 C 4.8 km/h
966 23-02-2018 08:25:00 -3.2 C 2.79 g/m*3 -3.2 C 4.8 km/h
967 23-02-2018 08:30:00 -3.1 C 2.81 g/m*3 -3.1 C 4.8 km/h
968 23-02-2018 08:35:00 -2.9 C 2.77 g/m*3 -7.14 C 11.3 km/h
969 23-02-2018 08:40:00 -2.8 C 2.87 g/m*3 -2.8 C 1.6 km/h
970 23-02-2018 08:45:00 -2.8 C 2.83 g/m*3 -6.06 C 8.1 km/h
971 23-02-2018 08:50:00 -2.8 C 2.79 g/m*3 -6.06 C 8.1 km/h
972 23-02-2018 08:55:00 -2.7 C 2.81 g/m*3 -2.7 C 1.6 km/h
973 23-02-2018 09:00:00 -2.7 C 2.81 g/m*3 -2.7 C 4.8 km/h
974 23-02-2018 09:05:00 -2.7 C 2.81 g/m*3 -5.3 C 6.4 km/h
975 23-02-2018 09:10:00 -2.7 C 2.81 g/m*3 -2.7 C 4.8 km/h
Sensor: Nr:Datum:Temp:Abs-Feuchte:Windchill:Wind:
Aussen-T/F 976 23-02-2018 09:15:00 -2.5 C 2.77 g/m*3 -6.65 C 11.3 km/h
977 23-02-2018 09:20:00 -2.4 C 2.79 g/m*3 -5.59 C 8.1 km/h
978 23-02-2018 09:25:00 -2.3 C 2.77 g/m*3 -6.8 C 12.9 km/h
979 23-02-2018 09:30:00 -2.2 C 2.74 g/m*3 -6.68 C 12.9 km/h
980 23-02-2018 09:35:00 -2 C 2.74 g/m*3 -6.05 C 11.3 km/h
981 23-02-2018 09:40:00 -1.9 C 2.76 g/m*3 -5.5 C 9.7 km/h
982 23-02-2018 09:45:00 -1.8 C 2.78 g/m*3 -5.38 C 9.7 km/h
983 23-02-2018 09:50:00 -1.8 C 2.78 g/m*3 -5.38 C 9.7 km/h
984 23-02-2018 09:55:00 -1.7 C 2.76 g/m*3 -1.7 C 4.8 km/h
985 23-02-2018 10:00:00 -1.7 C 2.8 g/m*3 -4.15 C 6.4 km/h
986 23-02-2018 10:05:00 -1.7 C 2.84 g/m*3 -4.77 C 8.1 km/h
987 23-02-2018 10:10:00 -1.7 C 2.76 g/m*3 -1.7 C 4.8 km/h
988 23-02-2018 10:15:00 -1.6 C 2.82 g/m*3 -6.6 C 16.1 km/h
989 23-02-2018 10:20:00 -1.5 C 2.79 g/m*3 -4.53 C 8.1 km/h
990 23-02-2018 10:25:00 -1.4 C 2.81 g/m*3 -5.7 C 12.9 km/h
991 23-02-2018 10:30:00 -1.3 C 2.79 g/m*3 -5.58 C 12.9 km/h
992 23-02-2018 10:35:00 -1.2 C 2.81 g/m*3 -4.66 C 9.7 km/h
993 23-02-2018 10:40:00 -1.1 C 2.78 g/m*3 -4.55 C 9.7 km/h
994 23-02-2018 10:45:00 -0.9 C 2.87 g/m*3 -0.9 C 3.2 km/h
995 23-02-2018 10:50:00 -0.8 C 2.84 g/m*3 -3.11 C 6.4 km/h
996 23-02-2018 10:55:00 -0.7 C 2.82 g/m*3 -5.48 C 16.1 km/h
997 23-02-2018 11:00:00 -0.6 C 2.79 g/m*3 -5.36 C 16.1 km/h
998 23-02-2018 11:05:00 -0.5 C 2.76 g/m*3 -4.24 C 11.3 km/h
999 23-02-2018 11:10:00 -0.3 C 2.8 g/m*3 -0.3 C 4.8 km/h
1000 23-02-2018 11:15:00 -0.2 C 2.77 g/m*3 -3.47 C 9.7 km/h
Sensor: Nr:Datum:Temp:Abs-Feuchte:Windchill:Wind:
Aussen-T/F 1001 23-02-2018 11:20:00 0 C 2.81 g/m*3 -2.18 C 6.4 km/h
1002 23-02-2018 11:25:00 0.2 C 2.75 g/m*3 -1.95 C 6.4 km/h
1003 23-02-2018 11:30:00 0.3 C 2.82 g/m*3 -3.95 C 14.5 km/h
1004 23-02-2018 11:35:00 0.3 C 2.82 g/m*3 0.3 C 4.8 km/h
1005 23-02-2018 11:40:00 0.3 C 2.87 g/m*3 -1.84 C 6.4 km/h
1006 23-02-2018 11:45:00 0.4 C 2.84 g/m*3 -2.76 C 9.7 km/h
1007 23-02-2018 11:50:00 0.4 C 2.79 g/m*3 -2.76 C 9.7 km/h
1008 23-02-2018 11:55:00 0.4 C 2.84 g/m*3 -3.16 C 11.3 km/h
1009 23-02-2018 12:00:00 0.5 C 2.81 g/m*3 -2.64 C 9.7 km/h
1010 23-02-2018 12:05:00 0.6 C 2.78 g/m*3 -3.58 C 14.5 km/h
1011 23-02-2018 12:10:00 0.6 C 2.73 g/m*3 -4.38 C 19.3 km/h
1012 23-02-2018 12:15:00 0.6 C 2.73 g/m*3 -3.58 C 14.5 km/h
1013 23-02-2018 12:20:00 0.6 C 2.78 g/m*3 -3.87 C 16.1 km/h
1014 23-02-2018 12:25:00 0.8 C 2.76 g/m*3 -3.34 C 14.5 km/h
1015 23-02-2018 12:30:00 0.8 C 2.71 g/m*3 -2.67 C 11.3 km/h
1016 23-02-2018 12:35:00 1 C 2.75 g/m*3 -3.38 C 16.1 km/h
1017 23-02-2018 12:40:00 1.1 C 2.77 g/m*3 -2.66 C 12.9 km/h
1018 23-02-2018 12:45:00 1.1 C 2.72 g/m*3 -3.75 C 19.3 km/h
1019 23-02-2018 12:50:00 1.1 C 2.72 g/m*3 -3.98 C 20.9 km/h
1020 23-02-2018 12:55:00 1.2 C 2.74 g/m*3 -3.63 C 19.3 km/h
1021 23-02-2018 13:00:00 1.3 C 2.75 g/m*3 -3.73 C 20.9 km/h
1022 23-02-2018 13:05:00 1.3 C 2.7 g/m*3 -1.69 C 9.7 km/h
1023 23-02-2018 13:10:00 1.5 C 2.74 g/m*3 -1.45 C 9.7 km/h
1024 23-02-2018 13:15:00 1.8 C 2.8 g/m*3 -1.09 C 9.7 km/h
1025 23-02-2018 13:20:00 1.9 C 2.76 g/m*3 -2.75 C 19.3 km/h
Sensor: Nr:Datum:Temp:Abs-Feuchte:Windchill:Wind:
Aussen-T/F 1026 23-02-2018 13:25:00 1.9 C 2.7 g/m*3 -2.75 C 19.3 km/h
1027 23-02-2018 13:30:00 2 C 2.72 g/m*3 -1.86 C 14.5 km/h
1028 23-02-2018 13:35:00 2.1 C 2.74 g/m*3 -2.71 C 20.9 km/h
1029 23-02-2018 13:40:00 2.1 C 2.85 g/m*3 -2.71 C 20.9 km/h
1030 23-02-2018 13:45:00 2.2 C 2.7 g/m*3 -2.37 C 19.3 km/h
1031 23-02-2018 13:50:00 2.2 C 2.65 g/m*3 -2.59 C 20.9 km/h
1032 23-02-2018 13:55:00 2.2 C 2.65 g/m*3 -1.32 C 12.9 km/h
1033 23-02-2018 14:00:00 2.3 C 2.67 g/m*3 -1.76 C 16.1 km/h
1034 23-02-2018 14:05:00 2.3 C 2.67 g/m*3 -1.76 C 16.1 km/h
1035 23-02-2018 14:10:00 2.2 C 2.65 g/m*3 -2.79 C 22.5 km/h
1036 23-02-2018 14:15:00 2.2 C 2.65 g/m*3 -2.59 C 20.9 km/h
1037 23-02-2018 14:20:00 2.2 C 2.59 g/m*3 -1.62 C 14.5 km/h
1038 23-02-2018 14:25:00 2.2 C 2.7 g/m*3 -1.32 C 12.9 km/h
1039 23-02-2018 14:30:00 2.2 C 2.59 g/m*3 -2.98 C 24.1 km/h
1040 23-02-2018 14:35:00 2.2 C 2.53 g/m*3 -2.98 C 24.1 km/h
1041 23-02-2018 14:40:00 2.2 C 2.53 g/m*3 -2.59 C 20.9 km/h
1042 23-02-2018 14:45:00 2.3 C 2.61 g/m*3 -1.49 C 14.5 km/h
1043 23-02-2018 14:50:00 2.4 C 2.63 g/m*3 -0.37 C 9.7 km/h
1044 23-02-2018 14:55:00 2.5 C 2.59 g/m*3 0.71 C 6.4 km/h
1045 23-02-2018 15:00:00 2.6 C 2.6 g/m*3 -2.08 C 20.9 km/h
1046 23-02-2018 15:05:00 2.7 C 2.68 g/m*3 -1.74 C 19.3 km/h
1047 23-02-2018 15:10:00 2.8 C 2.7 g/m*3 -1.14 C 16.1 km/h
1048 23-02-2018 15:15:00 2.8 C 2.64 g/m*3 0.1 C 9.7 km/h
1049 23-02-2018 15:20:00 2.9 C 2.6 g/m*3 -0.46 C 12.9 km/h
1050 23-02-2018 15:25:00 2.8 C 2.58 g/m*3 -2.02 C 22.5 km/h
Sensor: Nr:Datum:Temp:Abs-Feuchte:Windchill:Wind:
Aussen-T/F 1051 23-02-2018 15:30:00 2.8 C 2.52 g/m*3 -1.83 C 20.9 km/h
1052 23-02-2018 15:35:00 2.8 C 2.58 g/m*3 -0.26 C 11.3 km/h
1053 23-02-2018 15:40:00 2.9 C 2.6 g/m*3 0.64 C 8.1 km/h
1054 23-02-2018 15:45:00 3.1 C 2.63 g/m*3 0.1 C 11.3 km/h
1055 23-02-2018 15:50:00 3.1 C 2.63 g/m*3 0.87 C 8.1 km/h
1056 23-02-2018 15:55:00 3.2 C 2.65 g/m*3 1.51 C 6.4 km/h
1057 23-02-2018 16:00:00 3.3 C 2.61 g/m*3 -0.99 C 19.3 km/h
1058 23-02-2018 16:05:00 3.2 C 2.65 g/m*3 -0.65 C 16.1 km/h
1059 23-02-2018 16:10:00 3.2 C 2.59 g/m*3 0.22 C 11.3 km/h
1060 23-02-2018 16:15:00 3.2 C 2.65 g/m*3 -0.1 C 12.9 km/h
1061 23-02-2018 16:20:00 3.2 C 2.65 g/m*3 -0.1 C 12.9 km/h
1062 23-02-2018 16:25:00 3.2 C 2.77 g/m*3 0.22 C 11.3 km/h
1063 23-02-2018 16:30:00 3.2 C 2.59 g/m*3 -0.1 C 12.9 km/h
1064 23-02-2018 16:35:00 3.1 C 2.57 g/m*3 -0.77 C 16.1 km/h
1065 23-02-2018 16:40:00 3.1 C 2.57 g/m*3 -0.51 C 14.5 km/h
1066 23-02-2018 16:45:00 3 C 2.56 g/m*3 -0.63 C 14.5 km/h
1067 23-02-2018 16:50:00 3.1 C 2.57 g/m*3 0.87 C 8.1 km/h
1068 23-02-2018 16:55:00 3.1 C 2.57 g/m*3 -0.22 C 12.9 km/h
1069 23-02-2018 17:00:00 3.1 C 2.57 g/m*3 0.87 C 8.1 km/h
1070 23-02-2018 17:05:00 3.1 C 2.57 g/m*3 0.1 C 11.3 km/h
1071 23-02-2018 17:10:00 3 C 2.56 g/m*3 0.34 C 9.7 km/h
1072 23-02-2018 17:15:00 2.9 C 2.54 g/m*3 0.64 C 8.1 km/h
1073 23-02-2018 17:20:00 2.9 C 2.6 g/m*3 -0.14 C 11.3 km/h
1074 23-02-2018 17:25:00 2.8 C 2.7 g/m*3 -0.26 C 11.3 km/h
1075 23-02-2018 17:30:00 2.7 C 2.68 g/m*3 0.94 C 6.4 km/h
Sensor: Nr:Datum:Temp:Abs-Feuchte:Windchill:Wind:
Aussen-T/F 1076 23-02-2018 17:35:00 2.7 C 2.62 g/m*3 0.94 C 6.4 km/h
1077 23-02-2018 17:40:00 2.7 C 2.68 g/m*3 2.7 C 3.2 km/h
1078 23-02-2018 17:45:00 2.4 C 2.68 g/m*3 0.59 C 6.4 km/h
1079 23-02-2018 17:50:00 2.1 C 2.69 g/m*3 -1.11 C 11.3 km/h
1080 23-02-2018 17:55:00 1.8 C 2.69 g/m*3 1.8 C 4.8 km/h
1081 23-02-2018 18:00:00 1.5 C 2.85 g/m*3 1.5 C 0 km/h
1082 23-02-2018 18:05:00 1.1 C 2.87 g/m*3 1.1 C 0 km/h
1083 23-02-2018 18:10:00 0.8 C 2.87 g/m*3 0.8 C 1.6 km/h
1084 23-02-2018 18:15:00 0.5 C 2.86 g/m*3 0.5 C 0 km/h
1085 23-02-2018 18:20:00 0.3 C 2.87 g/m*3 0.3 C 0 km/h
1086 23-02-2018 18:25:00 0.2 C 2.95 g/m*3 0.2 C 0 km/h
1087 23-02-2018 18:30:00 -0.1 C 2.89 g/m*3 -0.1 C 0 km/h
1088 23-02-2018 18:35:00 -0.2 C 2.96 g/m*3 -0.2 C 0 km/h
1089 23-02-2018 18:40:00 -0.4 C 3.06 g/m*3 -0.4 C 0 km/h
1090 23-02-2018 18:45:00 -0.7 C 3 g/m*3 -0.7 C 0 km/h
1091 23-02-2018 18:50:00 -0.8 C 2.8 g/m*3 -0.8 C 1.6 km/h
1092 23-02-2018 18:55:00 -0.8 C 2.84 g/m*3 -0.8 C 1.6 km/h
1093 23-02-2018 19:00:00 -0.8 C 2.93 g/m*3 -0.8 C 1.6 km/h
1094 23-02-2018 19:05:00 -0.9 C 2.91 g/m*3 -0.9 C 1.6 km/h
1095 23-02-2018 19:10:00 -0.9 C 2.91 g/m*3 -0.9 C 3.2 km/h
1096 23-02-2018 19:15:00 -1 C 2.85 g/m*3 -1 C 4.8 km/h
1097 23-02-2018 19:20:00 -1.1 C 2.69 g/m*3 -1.1 C 4.8 km/h
1098 23-02-2018 19:25:00 -0.8 C 2.57 g/m*3 -0.8 C 4.8 km/h
1099 23-02-2018 19:30:00 -0.7 C 2.63 g/m*3 -0.7 C 4.8 km/h
1100 23-02-2018 19:35:00 -0.6 C 2.56 g/m*3 -2.88 C 6.4 km/h
Sensor: Nr:Datum:Temp:Abs-Feuchte:Windchill:Wind:
Aussen-T/F 1101 23-02-2018 19:40:00 -0.6 C 2.6 g/m*3 -0.6 C 3.2 km/h
1102 23-02-2018 19:45:00 -0.6 C 2.7 g/m*3 -0.6 C 4.8 km/h
1103 23-02-2018 19:50:00 -0.8 C 2.66 g/m*3 -0.8 C 0 km/h
1104 23-02-2018 19:55:00 -0.9 C 2.73 g/m*3 -0.9 C 0 km/h
1105 23-02-2018 20:00:00 -1.1 C 2.69 g/m*3 -1.1 C 1.6 km/h
1106 23-02-2018 20:05:00 -1.1 C 2.65 g/m*3 -1.1 C 3.2 km/h
1107 23-02-2018 20:10:00 -1.1 C 2.51 g/m*3 -4.55 C 9.7 km/h
1108 23-02-2018 20:15:00 -0.8 C 2.52 g/m*3 -3.71 C 8.1 km/h
1109 23-02-2018 20:20:00 -0.8 C 2.61 g/m*3 -0.8 C 4.8 km/h
1110 23-02-2018 20:25:00 -0.8 C 2.66 g/m*3 -0.8 C 1.6 km/h
1111 23-02-2018 20:30:00 -1 C 2.71 g/m*3 -1 C 1.6 km/h
1112 23-02-2018 20:35:00 -1.2 C 2.67 g/m*3 -1.2 C 3.2 km/h
1113 23-02-2018 20:40:00 -1.3 C 2.66 g/m*3 -1.3 C 3.2 km/h
1114 23-02-2018 20:45:00 -1.4 C 2.77 g/m*3 -1.4 C 3.2 km/h
1115 23-02-2018 20:50:00 -1.6 C 2.64 g/m*3 -1.6 C 4.8 km/h
1116 23-02-2018 20:55:00 -1.7 C 2.67 g/m*3 -1.7 C 3.2 km/h
1117 23-02-2018 21:00:00 -1.6 C 2.51 g/m*3 -4.03 C 6.4 km/h
1118 23-02-2018 21:05:00 -1.4 C 2.55 g/m*3 -1.4 C 1.6 km/h
1119 23-02-2018 21:10:00 -1.3 C 2.48 g/m*3 -1.3 C 4.8 km/h
1120 23-02-2018 21:15:00 -1.1 C 2.65 g/m*3 -1.1 C 4.8 km/h
1121 23-02-2018 21:20:00 -1.2 C 2.54 g/m*3 -3.57 C 6.4 km/h
1122 23-02-2018 21:25:00 -1.2 C 2.54 g/m*3 -1.2 C 1.6 km/h
1123 23-02-2018 21:30:00 -1.2 C 2.54 g/m*3 -5.8 C 14.5 km/h
1124 23-02-2018 21:35:00 -1.2 C 2.54 g/m*3 -1.2 C 4.8 km/h
1125 23-02-2018 21:40:00 -1.2 C 2.5 g/m*3 -4.66 C 9.7 km/h
Sensor: Nr:Datum:Temp:Abs-Feuchte:Windchill:Wind:
Aussen-T/F 1126 23-02-2018 21:45:00 -1.1 C 2.56 g/m*3 -4.06 C 8.1 km/h
1127 23-02-2018 21:50:00 -1.2 C 2.63 g/m*3 -3.57 C 6.4 km/h
1128 23-02-2018 21:55:00 -1.1 C 2.56 g/m*3 -5.34 C 12.9 km/h
1129 23-02-2018 22:00:00 -1 C 2.53 g/m*3 -4.43 C 9.7 km/h
1130 23-02-2018 22:05:00 -1.1 C 2.6 g/m*3 -3.45 C 6.4 km/h
1131 23-02-2018 22:10:00 -1.1 C 2.6 g/m*3 -4.06 C 8.1 km/h
1132 23-02-2018 22:15:00 -1.1 C 2.6 g/m*3 -5.98 C 16.1 km/h
1133 23-02-2018 22:20:00 -1.2 C 2.63 g/m*3 -1.2 C 1.6 km/h
1134 23-02-2018 22:25:00 -1.3 C 2.61 g/m*3 -3.68 C 6.4 km/h
1135 23-02-2018 22:30:00 -1.3 C 2.66 g/m*3 -4.78 C 9.7 km/h
1136 23-02-2018 22:35:00 -1.4 C 2.59 g/m*3 -1.4 C 4.8 km/h
1137 23-02-2018 22:40:00 -1.4 C 2.68 g/m*3 -4.42 C 8.1 km/h
1138 23-02-2018 22:45:00 -1.4 C 2.64 g/m*3 -3.8 C 6.4 km/h
1139 23-02-2018 22:50:00 -1.5 C 2.62 g/m*3 -5.45 C 11.3 km/h
1140 23-02-2018 22:55:00 -1.4 C 2.64 g/m*3 -5.33 C 11.3 km/h
1141 23-02-2018 23:00:00 -1.4 C 2.64 g/m*3 -4.42 C 8.1 km/h
1142 23-02-2018 23:05:00 -1.4 C 2.64 g/m*3 -1.4 C 4.8 km/h
1143 23-02-2018 23:10:00 -1.6 C 2.64 g/m*3 -1.6 C 3.2 km/h
1144 23-02-2018 23:15:00 -1.6 C 2.64 g/m*3 -1.6 C 3.2 km/h
1145 23-02-2018 23:20:00 -1.7 C 2.67 g/m*3 -1.7 C 4.8 km/h
1146 23-02-2018 23:25:00 -1.8 C 2.65 g/m*3 -1.8 C 3.2 km/h
1147 23-02-2018 23:30:00 -1.9 C 2.67 g/m*3 -1.9 C 4.8 km/h
1148 23-02-2018 23:35:00 -2 C 2.7 g/m*3 -2 C 3.2 km/h
1149 23-02-2018 23:40:00 -2.1 C 2.72 g/m*3 -6.56 C 12.9 km/h
1150 23-02-2018 23:45:00 -2.2 C 2.66 g/m*3 -5.86 C 9.7 km/h
Sensor: Nr:Datum:Temp:Abs-Feuchte:Windchill:Wind:
Aussen-T/F 1151 23-02-2018 23:50:00 -2.2 C 2.74 g/m*3 -2.2 C 3.2 km/h
1152 23-02-2018 23:55:00 -2.3 C 2.72 g/m*3 -2.3 C 3.2 km/h
1153 24-02-2018 00:00:00 -2.4 C 2.75 g/m*3 -2.4 C 3.2 km/h
1154 24-02-2018 00:05:00 -2.6 C 2.75 g/m*3 -2.6 C 1.6 km/h
1155 24-02-2018 00:10:00 -2.8 C 2.71 g/m*3 -2.8 C 0 km/h
1156 24-02-2018 00:15:00 -3 C 2.71 g/m*3 -3 C 0 km/h
1157 24-02-2018 00:20:00 -3.2 C 2.71 g/m*3 -3.2 C 3.2 km/h
1158 24-02-2018 00:25:00 -3.3 C 2.73 g/m*3 -3.3 C 1.6 km/h
1159 24-02-2018 00:30:00 -3.3 C 2.69 g/m*3 -5.99 C 6.4 km/h
1160 24-02-2018 00:35:00 -3.3 C 2.73 g/m*3 -5.99 C 6.4 km/h
1161 24-02-2018 00:40:00 -3.3 C 2.73 g/m*3 -3.3 C 3.2 km/h
1162 24-02-2018 00:45:00 -3.3 C 2.73 g/m*3 -5.99 C 6.4 km/h
1163 24-02-2018 00:50:00 -3.3 C 2.69 g/m*3 -5.99 C 6.4 km/h
1164 24-02-2018 00:55:00 -3.3 C 2.69 g/m*3 -3.3 C 1.6 km/h
1165 24-02-2018 01:00:00 -3.2 C 2.71 g/m*3 -3.2 C 3.2 km/h
1166 24-02-2018 01:05:00 -3.2 C 2.67 g/m*3 -5.88 C 6.4 km/h
1167 24-02-2018 01:10:00 -3.2 C 2.67 g/m*3 -5.88 C 6.4 km/h
1168 24-02-2018 01:15:00 -3.1 C 2.69 g/m*3 -3.1 C 3.2 km/h
1169 24-02-2018 01:20:00 -3.2 C 2.71 g/m*3 -3.2 C 0 km/h
1170 24-02-2018 01:25:00 -3.3 C 2.69 g/m*3 -3.3 C 1.6 km/h
1171 24-02-2018 01:30:00 -3.6 C 2.67 g/m*3 -3.6 C 0 km/h
1172 24-02-2018 01:35:00 -3.7 C 2.69 g/m*3 -3.7 C 4.8 km/h
1173 24-02-2018 01:40:00 -3.8 C 2.67 g/m*3 -3.8 C 3.2 km/h
1174 24-02-2018 01:45:00 -3.9 C 2.65 g/m*3 -3.9 C 4.8 km/h
1175 24-02-2018 01:50:00 -3.9 C 2.65 g/m*3 -3.9 C 4.8 km/h
Sensor: Nr:Datum:Temp:Abs-Feuchte:Windchill:Wind:
Aussen-T/F 1176 24-02-2018 01:55:00 -3.9 C 2.65 g/m*3 -3.9 C 4.8 km/h
1177 24-02-2018 02:00:00 -3.8 C 2.67 g/m*3 -3.8 C 3.2 km/h
1178 24-02-2018 02:05:00 -3.9 C 2.65 g/m*3 -3.9 C 3.2 km/h
1179 24-02-2018 02:10:00 -3.9 C 2.65 g/m*3 -3.9 C 4.8 km/h
1180 24-02-2018 02:15:00 -3.9 C 2.65 g/m*3 -3.9 C 1.6 km/h
1181 24-02-2018 02:20:00 -4 C 2.63 g/m*3 -4 C 1.6 km/h
1182 24-02-2018 02:25:00 -4.1 C 2.65 g/m*3 -4.1 C 3.2 km/h
1183 24-02-2018 02:30:00 -4.2 C 2.63 g/m*3 -4.2 C 1.6 km/h
1184 24-02-2018 02:35:00 -4.3 C 2.65 g/m*3 -4.3 C 0 km/h
1185 24-02-2018 02:40:00 -4.5 C 2.61 g/m*3 -4.5 C 0 km/h
1186 24-02-2018 02:45:00 -4.7 C 2.61 g/m*3 -4.7 C 0 km/h
1187 24-02-2018 02:50:00 -4.7 C 2.57 g/m*3 -4.7 C 4.8 km/h
1188 24-02-2018 02:55:00 -4.6 C 2.63 g/m*3 -4.6 C 0 km/h
1189 24-02-2018 03:00:00 -4.7 C 2.57 g/m*3 -4.7 C 0 km/h
1190 24-02-2018 03:05:00 -4.8 C 2.59 g/m*3 -4.8 C 0 km/h
1191 24-02-2018 03:10:00 -4.9 C 2.61 g/m*3 -4.9 C 1.6 km/h
1192 24-02-2018 03:15:00 -5.1 C 2.57 g/m*3 -5.1 C 0 km/h
1193 24-02-2018 03:20:00 -5.2 C 2.58 g/m*3 -5.2 C 0 km/h
1194 24-02-2018 03:25:00 -5.3 C 2.57 g/m*3 -5.3 C 0 km/h
1195 24-02-2018 03:30:00 -5.3 C 2.57 g/m*3 -5.3 C 0 km/h
1196 24-02-2018 03:35:00 -5.4 C 2.55 g/m*3 -5.4 C 0 km/h
1197 24-02-2018 03:40:00 -5.4 C 2.55 g/m*3 -5.4 C 0 km/h
1198 24-02-2018 03:45:00 -5.3 C 2.57 g/m*3 -5.3 C 0 km/h
1199 24-02-2018 03:50:00 -5.3 C 2.57 g/m*3 -5.3 C 0 km/h
1200 24-02-2018 03:55:00 -5.3 C 2.57 g/m*3 -5.3 C 0 km/h
Sensor: Nr:Datum:Temp:Abs-Feuchte:Windchill:Wind:
Aussen-T/F 1201 24-02-2018 04:00:00 -5.3 C 2.57 g/m*3 -5.3 C 0 km/h
1202 24-02-2018 04:05:00 -5.3 C 2.57 g/m*3 -5.3 C 0 km/h
1203 24-02-2018 04:10:00 -5.3 C 2.57 g/m*3 -5.3 C 0 km/h
1204 24-02-2018 04:15:00 -5.4 C 2.55 g/m*3 -5.4 C 0 km/h
1205 24-02-2018 04:20:00 -5.4 C 2.55 g/m*3 -5.4 C 0 km/h
1206 24-02-2018 04:25:00 -5.3 C 2.57 g/m*3 -5.3 C 3.2 km/h
1207 24-02-2018 04:30:00 -5.3 C 2.57 g/m*3 -5.3 C 4.8 km/h
1208 24-02-2018 04:35:00 -5.3 C 2.53 g/m*3 -5.3 C 3.2 km/h
1209 24-02-2018 04:40:00 -5.2 C 2.55 g/m*3 -5.2 C 4.8 km/h
1210 24-02-2018 04:45:00 -5.2 C 2.55 g/m*3 -5.2 C 3.2 km/h
1211 24-02-2018 04:50:00 -5.2 C 2.52 g/m*3 -5.2 C 4.8 km/h
1212 24-02-2018 04:55:00 -5 C 2.52 g/m*3 -7.96 C 6.4 km/h
1213 24-02-2018 05:00:00 -4.9 C 2.54 g/m*3 -4.9 C 1.6 km/h
1214 24-02-2018 05:05:00 -5 C 2.52 g/m*3 -5 C 3.2 km/h
1215 24-02-2018 05:10:00 -5.1 C 2.5 g/m*3 -5.1 C 3.2 km/h
1216 24-02-2018 05:15:00 -5.1 C 2.5 g/m*3 -5.1 C 0 km/h
1217 24-02-2018 05:20:00 -5.1 C 2.47 g/m*3 -5.1 C 4.8 km/h
1218 24-02-2018 05:25:00 -4.9 C 2.47 g/m*3 -7.84 C 6.4 km/h
1219 24-02-2018 05:30:00 -4.8 C 2.49 g/m*3 -7.73 C 6.4 km/h
1220 24-02-2018 05:35:00 -4.7 C 2.51 g/m*3 -8.3 C 8.1 km/h
1221 24-02-2018 05:40:00 -4.7 C 2.51 g/m*3 -8.3 C 8.1 km/h
1222 24-02-2018 05:45:00 -4.7 C 2.47 g/m*3 -4.7 C 3.2 km/h
1223 24-02-2018 05:50:00 -4.7 C 2.47 g/m*3 -4.7 C 0 km/h
1224 24-02-2018 05:55:00 -4.8 C 2.49 g/m*3 -4.8 C 1.6 km/h
1225 24-02-2018 06:00:00 -4.9 C 2.47 g/m*3 -4.9 C 3.2 km/h
Sensor: Nr:Datum:Temp:Abs-Feuchte:Windchill:Wind:
Aussen-T/F 1226 24-02-2018 06:05:00 -4.9 C 2.47 g/m*3 -4.9 C 4.8 km/h
1227 24-02-2018 06:10:00 -5.1 C 2.47 g/m*3 -5.1 C 4.8 km/h
1228 24-02-2018 06:15:00 -5.2 C 2.48 g/m*3 -5.2 C 3.2 km/h
1229 24-02-2018 06:20:00 -5.2 C 2.48 g/m*3 -5.2 C 1.6 km/h
1230 24-02-2018 06:25:00 -5.3 C 2.47 g/m*3 -5.3 C 4.8 km/h
1231 24-02-2018 06:30:00 -5.3 C 2.47 g/m*3 -5.3 C 4.8 km/h
1232 24-02-2018 06:35:00 -5.3 C 2.5 g/m*3 -5.3 C 0 km/h
1233 24-02-2018 06:40:00 -5.5 C 2.46 g/m*3 -5.5 C 1.6 km/h
1234 24-02-2018 06:45:00 -5.7 C 2.46 g/m*3 -5.7 C 0 km/h
1235 24-02-2018 06:50:00 -5.8 C 2.44 g/m*3 -5.8 C 1.6 km/h
1236 24-02-2018 06:55:00 -5.9 C 2.42 g/m*3 -5.9 C 3.2 km/h
1237 24-02-2018 07:00:00 -5.9 C 2.46 g/m*3 -5.9 C 0 km/h
1238 24-02-2018 07:05:00 -6.1 C 2.42 g/m*3 -6.1 C 0 km/h
1239 24-02-2018 07:10:00 -6.1 C 2.42 g/m*3 -6.1 C 0 km/h
1240 24-02-2018 07:15:00 -6.1 C 2.45 g/m*3 -6.1 C 0 km/h
1241 24-02-2018 07:20:00 -6.1 C 2.45 g/m*3 -6.1 C 0 km/h
1242 24-02-2018 07:25:00 -6.1 C 2.45 g/m*3 -6.1 C 0 km/h
1243 24-02-2018 07:30:00 -6.1 C 2.45 g/m*3 -6.1 C 1.6 km/h
1244 24-02-2018 07:35:00 -6 C 2.47 g/m*3 -6 C 1.6 km/h
1245 24-02-2018 07:40:00 -5.9 C 2.46 g/m*3 -5.9 C 3.2 km/h
1246 24-02-2018 07:45:00 -5.8 C 2.44 g/m*3 -5.8 C 1.6 km/h
1247 24-02-2018 07:50:00 -5.8 C 2.44 g/m*3 -5.8 C 3.2 km/h
1248 24-02-2018 07:55:00 -5.8 C 2.44 g/m*3 -5.8 C 1.6 km/h
1249 24-02-2018 08:00:00 -5.8 C 2.44 g/m*3 -5.8 C 0 km/h
1250 24-02-2018 08:05:00 -5.8 C 2.47 g/m*3 -5.8 C 0 km/h
Sensor: Nr:Datum:Temp:Abs-Feuchte:Windchill:Wind:
Aussen-T/F 1251 24-02-2018 08:10:00 -5.8 C 2.47 g/m*3 -5.8 C 0 km/h
1252 24-02-2018 08:15:00 -5.8 C 2.47 g/m*3 -5.8 C 0 km/h
1253 24-02-2018 08:20:00 -5.8 C 2.47 g/m*3 -5.8 C 0 km/h
1254 24-02-2018 08:25:00 -5.7 C 2.49 g/m*3 -5.7 C 4.8 km/h
1255 24-02-2018 08:30:00 -5.6 C 2.48 g/m*3 -9.35 C 8.1 km/h
1256 24-02-2018 08:35:00 -5.4 C 2.48 g/m*3 -5.4 C 1.6 km/h
1257 24-02-2018 08:40:00 -5.3 C 2.53 g/m*3 -5.3 C 0 km/h
1258 24-02-2018 08:45:00 -5.1 C 2.5 g/m*3 -8.77 C 8.1 km/h
1259 24-02-2018 08:50:00 -4.9 C 2.54 g/m*3 -4.9 C 0 km/h
1260 24-02-2018 08:55:00 -4.9 C 2.57 g/m*3 -4.9 C 0 km/h
1261 24-02-2018 09:00:00 -4.8 C 2.52 g/m*3 -4.8 C 3.2 km/h
1262 24-02-2018 09:05:00 -4.7 C 2.57 g/m*3 -4.7 C 1.6 km/h
1263 24-02-2018 09:10:00 -4.6 C 2.59 g/m*3 -4.6 C 0 km/h
1264 24-02-2018 09:15:00 -4.5 C 2.54 g/m*3 -4.5 C 0 km/h
1265 24-02-2018 09:20:00 -4.4 C 2.6 g/m*3 -4.4 C 0 km/h
1266 24-02-2018 09:25:00 -4.4 C 2.56 g/m*3 -4.4 C 1.6 km/h
1267 24-02-2018 09:30:00 -4.2 C 2.56 g/m*3 -4.2 C 3.2 km/h
1268 24-02-2018 09:35:00 -4.1 C 2.58 g/m*3 -4.1 C 0 km/h
1269 24-02-2018 09:40:00 -3.9 C 2.65 g/m*3 -3.9 C 0 km/h
1270 24-02-2018 09:45:00 -3.8 C 2.63 g/m*3 -3.8 C 0 km/h
1271 24-02-2018 09:50:00 -3.8 C 2.63 g/m*3 -3.8 C 0 km/h
1272 24-02-2018 09:55:00 -3.7 C 2.69 g/m*3 -3.7 C 0 km/h
1273 24-02-2018 10:00:00 -3.7 C 2.65 g/m*3 -3.7 C 0 km/h
1274 24-02-2018 10:05:00 -3.6 C 2.67 g/m*3 -3.6 C 0 km/h
1275 24-02-2018 10:10:00 -3.4 C 2.6 g/m*3 -3.4 C 4.8 km/h
Sensor: Nr:Datum:Temp:Abs-Feuchte:Windchill:Wind:
Aussen-T/F 1276 24-02-2018 10:15:00 -2.8 C 2.51 g/m*3 -7.02 C 11.3 km/h
1277 24-02-2018 10:20:00 -2.5 C 2.48 g/m*3 -2.5 C 4.8 km/h
1278 24-02-2018 10:25:00 -2.2 C 2.49 g/m*3 -2.2 C 3.2 km/h
1279 24-02-2018 10:30:00 -2.1 C 2.55 g/m*3 -2.1 C 3.2 km/h
1280 24-02-2018 10:35:00 -1.8 C 2.65 g/m*3 -1.8 C 4.8 km/h
1281 24-02-2018 10:40:00 -1.7 C 2.63 g/m*3 -1.7 C 3.2 km/h
1282 24-02-2018 10:45:00 -1.5 C 2.71 g/m*3 -1.5 C 4.8 km/h
1283 24-02-2018 10:50:00 -1.3 C 2.61 g/m*3 -1.3 C 4.8 km/h
1284 24-02-2018 10:55:00 -1.1 C 2.65 g/m*3 -4.55 C 9.7 km/h
1285 24-02-2018 11:00:00 -0.8 C 2.57 g/m*3 -0.8 C 4.8 km/h
1286 24-02-2018 11:05:00 -0.5 C 2.67 g/m*3 -0.5 C 4.8 km/h
1287 24-02-2018 11:10:00 -0.3 C 2.66 g/m*3 -3.12 C 8.1 km/h
1288 24-02-2018 11:15:00 0.1 C 2.59 g/m*3 -2.07 C 6.4 km/h
1289 24-02-2018 11:20:00 0.3 C 2.62 g/m*3 -1.84 C 6.4 km/h
1290 24-02-2018 11:25:00 0.6 C 2.58 g/m*3 -1.49 C 6.4 km/h
1291 24-02-2018 11:30:00 0.8 C 2.56 g/m*3 -2.67 C 11.3 km/h
1292 24-02-2018 11:35:00 0.9 C 2.68 g/m*3 0.9 C 4.8 km/h
1293 24-02-2018 11:40:00 1.1 C 2.67 g/m*3 -2.31 C 11.3 km/h
1294 24-02-2018 11:45:00 1.3 C 2.7 g/m*3 -0.68 C 6.4 km/h
1295 24-02-2018 11:50:00 1.3 C 2.81 g/m*3 1.3 C 3.2 km/h
1296 24-02-2018 11:55:00 1.4 C 2.61 g/m*3 -2.88 C 16.1 km/h
1297 24-02-2018 12:00:00 1.6 C 2.65 g/m*3 -2.05 C 12.9 km/h
1298 24-02-2018 12:05:00 1.8 C 2.74 g/m*3 -1.47 C 11.3 km/h
1299 24-02-2018 12:10:00 1.9 C 2.7 g/m*3 -1.35 C 11.3 km/h
1300 24-02-2018 12:15:00 2.1 C 2.69 g/m*3 -1.44 C 12.9 km/h
Sensor: Nr:Datum:Temp:Abs-Feuchte:Windchill:Wind:
Aussen-T/F 1301 24-02-2018 12:20:00 2.2 C 2.7 g/m*3 -0.99 C 11.3 km/h
1302 24-02-2018 12:25:00 2.3 C 2.78 g/m*3 -1.49 C 14.5 km/h
1303 24-02-2018 12:30:00 2.6 C 2.72 g/m*3 -1.39 C 16.1 km/h
1304 24-02-2018 12:35:00 2.7 C 2.74 g/m*3 0.4 C 8.1 km/h
1305 24-02-2018 12:40:00 2.8 C 2.7 g/m*3 -0.59 C 12.9 km/h
1306 24-02-2018 12:45:00 2.8 C 2.76 g/m*3 -0.59 C 12.9 km/h
1307 24-02-2018 12:50:00 2.9 C 2.72 g/m*3 0.64 C 8.1 km/h
1308 24-02-2018 12:55:00 2.9 C 2.72 g/m*3 -1.49 C 19.3 km/h
1309 24-02-2018 13:00:00 2.9 C 2.89 g/m*3 -1.49 C 19.3 km/h
1310 24-02-2018 13:05:00 3 C 2.79 g/m*3 -0.34 C 12.9 km/h
1311 24-02-2018 13:10:00 3.2 C 2.83 g/m*3 -0.1 C 12.9 km/h
1312 24-02-2018 13:15:00 3.3 C 2.79 g/m*3 -0.76 C 17.7 km/h
1313 24-02-2018 13:20:00 3.2 C 2.71 g/m*3 -1.7 C 24.1 km/h
1314 24-02-2018 13:25:00 3.1 C 2.75 g/m*3 -0.51 C 14.5 km/h
1315 24-02-2018 13:30:00 3.1 C 2.75 g/m*3 -1.24 C 19.3 km/h
1316 24-02-2018 13:35:00 3.2 C 2.83 g/m*3 -1.32 C 20.9 km/h
1317 24-02-2018 13:40:00 3.3 C 2.85 g/m*3 0.02 C 12.9 km/h
1318 24-02-2018 13:45:00 3.4 C 2.93 g/m*3 -1.26 C 22.5 km/h
1319 24-02-2018 13:50:00 3.4 C 2.87 g/m*3 -1.44 C 24.1 km/h
1320 24-02-2018 13:55:00 3.3 C 2.85 g/m*3 -1.74 C 25.7 km/h
1321 24-02-2018 14:00:00 3.3 C 2.91 g/m*3 -1.39 C 22.5 km/h
1322 24-02-2018 14:05:00 3.3 C 2.97 g/m*3 -0.76 C 17.7 km/h
1323 24-02-2018 14:10:00 3.3 C 2.91 g/m*3 -1.74 C 25.7 km/h
1324 24-02-2018 14:15:00 3.3 C 2.97 g/m*3 -0.26 C 14.5 km/h
1325 24-02-2018 14:20:00 3.3 C 3.09 g/m*3 0.34 C 11.3 km/h
Sensor: Nr:Datum:Temp:Abs-Feuchte:Windchill:Wind:
Aussen-T/F 1326 24-02-2018 14:25:00 3.3 C 3.03 g/m*3 -0.52 C 16.1 km/h
1327 24-02-2018 14:30:00 3.2 C 3.07 g/m*3 0.58 C 9.7 km/h
1328 24-02-2018 14:35:00 3.2 C 3.13 g/m*3 -1.7 C 24.1 km/h
1329 24-02-2018 14:40:00 3.2 C 3.13 g/m*3 -1.32 C 20.9 km/h
1330 24-02-2018 14:45:00 3.4 C 3.24 g/m*3 -0.4 C 16.1 km/h
1331 24-02-2018 14:50:00 3.3 C 3.22 g/m*3 -1.19 C 20.9 km/h
1332 24-02-2018 14:55:00 3.2 C 3.25 g/m*3 -1.7 C 24.1 km/h
1333 24-02-2018 15:00:00 3.2 C 3.31 g/m*3 -1.87 C 25.7 km/h
1334 24-02-2018 15:05:00 3.2 C 3.31 g/m*3 -0.89 C 17.7 km/h
1335 24-02-2018 15:10:00 3.3 C 3.4 g/m*3 -0.26 C 14.5 km/h
1336 24-02-2018 15:15:00 3.4 C 3.36 g/m*3 -1.26 C 22.5 km/h
1337 24-02-2018 15:20:00 3.2 C 3.31 g/m*3 -1.51 C 22.5 km/h
1338 24-02-2018 15:25:00 3.1 C 3.29 g/m*3 -1.83 C 24.1 km/h
1339 24-02-2018 15:30:00 3.1 C 3.29 g/m*3 -1.64 C 22.5 km/h
1340 24-02-2018 15:35:00 3.1 C 3.35 g/m*3 -1.24 C 19.3 km/h
1341 24-02-2018 15:40:00 3.1 C 3.35 g/m*3 -0.77 C 16.1 km/h
1342 24-02-2018 15:45:00 3.2 C 3.43 g/m*3 -0.39 C 14.5 km/h
1343 24-02-2018 15:50:00 3.3 C 3.4 g/m*3 0.02 C 12.9 km/h
1344 24-02-2018 15:55:00 3.2 C 3.25 g/m*3 -1.32 C 20.9 km/h
1345 24-02-2018 16:00:00 2.9 C 3.19 g/m*3 -2.26 C 25.7 km/h
1346 24-02-2018 16:05:00 2.8 C 3.23 g/m*3 -1.39 C 17.7 km/h
1347 24-02-2018 16:10:00 2.6 C 3.13 g/m*3 -2.08 C 20.9 km/h
1348 24-02-2018 16:15:00 2.4 C 3.08 g/m*3 -2.9 C 25.7 km/h
1349 24-02-2018 16:20:00 2.3 C 3.06 g/m*3 -3.68 C 32.2 km/h
1350 24-02-2018 16:25:00 2.3 C 3.01 g/m*3 -2.85 C 24.1 km/h
Sensor: Nr:Datum:Temp:Abs-Feuchte:Windchill:Wind:
Aussen-T/F 1351 24-02-2018 16:30:00 2.3 C 3.01 g/m*3 -1.76 C 16.1 km/h
1352 24-02-2018 16:35:00 2.3 C 3.01 g/m*3 -1.49 C 14.5 km/h
1353 24-02-2018 16:40:00 2.3 C 2.95 g/m*3 -2.24 C 19.3 km/h
1354 24-02-2018 16:45:00 2.3 C 2.95 g/m*3 -1.76 C 16.1 km/h
1355 24-02-2018 16:50:00 2.5 C 2.99 g/m*3 -2.6 C 24.1 km/h
1356 24-02-2018 16:55:00 2.5 C 2.99 g/m*3 -2.41 C 22.5 km/h
1357 24-02-2018 17:00:00 2.6 C 3.01 g/m*3 -0.83 C 12.9 km/h
1358 24-02-2018 17:05:00 2.3 C 2.95 g/m*3 -2.01 C 17.7 km/h
1359 24-02-2018 17:10:00 2.1 C 2.97 g/m*3 -1.74 C 14.5 km/h
1360 24-02-2018 17:15:00 2 C 2.95 g/m*3 -1.23 C 11.3 km/h
1361 24-02-2018 17:20:00 1.9 C 2.87 g/m*3 -2.51 C 17.7 km/h
1362 24-02-2018 17:25:00 1.8 C 2.85 g/m*3 -2.11 C 14.5 km/h
1363 24-02-2018 17:30:00 1.6 C 2.87 g/m*3 -2.05 C 12.9 km/h
1364 24-02-2018 17:35:00 1.4 C 2.88 g/m*3 -3.38 C 19.3 km/h
1365 24-02-2018 17:40:00 1.3 C 2.86 g/m*3 -1.69 C 9.7 km/h
1366 24-02-2018 17:45:00 1.1 C 2.87 g/m*3 -4.19 C 22.5 km/h
1367 24-02-2018 17:50:00 0.8 C 2.87 g/m*3 -4.36 C 20.9 km/h
1368 24-02-2018 17:55:00 0.7 C 2.85 g/m*3 -3.75 C 16.1 km/h
1369 24-02-2018 18:00:00 0.5 C 2.86 g/m*3 0.5 C 4.8 km/h
1370 24-02-2018 18:05:00 0.3 C 2.82 g/m*3 -4.99 C 20.9 km/h
1371 24-02-2018 18:10:00 0.2 C 2.8 g/m*3 -4.08 C 14.5 km/h
1372 24-02-2018 18:15:00 0.2 C 2.9 g/m*3 -3.4 C 11.3 km/h
1373 24-02-2018 18:20:00 0.1 C 2.88 g/m*3 -2.07 C 6.4 km/h
1374 24-02-2018 18:25:00 -0.1 C 2.84 g/m*3 -3.35 C 9.7 km/h
1375 24-02-2018 18:30:00 -0.2 C 2.91 g/m*3 -3 C 8.1 km/h
Sensor: Nr:Datum:Temp:Abs-Feuchte:Windchill:Wind:
Aussen-T/F 1376 24-02-2018 18:35:00 -0.2 C 2.91 g/m*3 -3.88 C 11.3 km/h
1377 24-02-2018 18:40:00 -0.3 C 2.89 g/m*3 -4 C 11.3 km/h
1378 24-02-2018 18:45:00 -0.3 C 2.89 g/m*3 -4.36 C 12.9 km/h
1379 24-02-2018 18:50:00 -0.3 C 2.94 g/m*3 -3.12 C 8.1 km/h
1380 24-02-2018 18:55:00 -0.3 C 2.94 g/m*3 -4 C 11.3 km/h
1381 24-02-2018 19:00:00 -0.3 C 2.89 g/m*3 -0.3 C 3.2 km/h
1382 24-02-2018 19:05:00 -0.4 C 2.87 g/m*3 -2.64 C 6.4 km/h
1383 24-02-2018 19:10:00 -0.4 C 2.87 g/m*3 -3.71 C 9.7 km/h
1384 24-02-2018 19:15:00 -0.3 C 2.89 g/m*3 -5.26 C 17.7 km/h
1385 24-02-2018 19:20:00 -0.3 C 2.89 g/m*3 -3.12 C 8.1 km/h
1386 24-02-2018 19:25:00 -0.3 C 2.89 g/m*3 -3.59 C 9.7 km/h
1387 24-02-2018 19:30:00 -0.4 C 2.87 g/m*3 -2.64 C 6.4 km/h
1388 24-02-2018 19:35:00 -0.4 C 2.92 g/m*3 -4.81 C 14.5 km/h
1389 24-02-2018 19:40:00 -0.6 C 2.88 g/m*3 -0.6 C 4.8 km/h
1390 24-02-2018 19:45:00 -0.6 C 2.88 g/m*3 -2.88 C 6.4 km/h
1391 24-02-2018 19:50:00 -0.7 C 2.91 g/m*3 -0.7 C 3.2 km/h
1392 24-02-2018 19:55:00 -0.7 C 2.77 g/m*3 -4.48 C 11.3 km/h
1393 24-02-2018 20:00:00 -0.6 C 2.84 g/m*3 -2.88 C 6.4 km/h
1394 24-02-2018 20:05:00 -0.6 C 2.84 g/m*3 -3.95 C 9.7 km/h
1395 24-02-2018 20:10:00 -0.7 C 2.86 g/m*3 -3.59 C 8.1 km/h
1396 24-02-2018 20:15:00 -0.7 C 2.82 g/m*3 -4.48 C 11.3 km/h
1397 24-02-2018 20:20:00 -0.7 C 2.86 g/m*3 -0.7 C 4.8 km/h
1398 24-02-2018 20:25:00 -0.8 C 2.75 g/m*3 -3.11 C 6.4 km/h
1399 24-02-2018 20:30:00 -0.8 C 2.8 g/m*3 -0.8 C 3.2 km/h
1400 24-02-2018 20:35:00 -0.8 C 2.75 g/m*3 -3.71 C 8.1 km/h
Sensor: Nr:Datum:Temp:Abs-Feuchte:Windchill:Wind:
Aussen-T/F 1401 24-02-2018 20:40:00 -0.8 C 2.84 g/m*3 -4.97 C 12.9 km/h
1402 24-02-2018 20:45:00 -0.7 C 2.72 g/m*3 -5.18 C 14.5 km/h
1403 24-02-2018 20:50:00 -0.7 C 2.68 g/m*3 -4.07 C 9.7 km/h
1404 24-02-2018 20:55:00 -0.7 C 2.68 g/m*3 -2.99 C 6.4 km/h
1405 24-02-2018 21:00:00 -0.6 C 2.65 g/m*3 -3.95 C 9.7 km/h
1406 24-02-2018 21:05:00 -0.6 C 2.6 g/m*3 -3.95 C 9.7 km/h
1407 24-02-2018 21:10:00 -0.7 C 2.58 g/m*3 -5.48 C 16.1 km/h
1408 24-02-2018 21:15:00 -0.7 C 2.63 g/m*3 -3.59 C 8.1 km/h
1409 24-02-2018 21:20:00 -0.8 C 2.57 g/m*3 -4.97 C 12.9 km/h
1410 24-02-2018 21:25:00 -0.8 C 2.52 g/m*3 -6.14 C 19.3 km/h
1411 24-02-2018 21:30:00 -0.8 C 2.52 g/m*3 -4.19 C 9.7 km/h
1412 24-02-2018 21:35:00 -0.9 C 2.59 g/m*3 -3.22 C 6.4 km/h
1413 24-02-2018 21:40:00 -1.1 C 2.56 g/m*3 -5.67 C 14.5 km/h
1414 24-02-2018 21:45:00 -1 C 2.58 g/m*3 -4.85 C 11.3 km/h
1415 24-02-2018 21:50:00 -1 C 2.58 g/m*3 -5.55 C 14.5 km/h
1416 24-02-2018 21:55:00 -0.9 C 2.55 g/m*3 -6.95 C 24.1 km/h
1417 24-02-2018 22:00:00 -0.9 C 2.59 g/m*3 -3.83 C 8.1 km/h
1418 24-02-2018 22:05:00 -1 C 2.58 g/m*3 -5.55 C 14.5 km/h
1419 24-02-2018 22:10:00 -1.1 C 2.6 g/m*3 -4.55 C 9.7 km/h
1420 24-02-2018 22:15:00 -1.2 C 2.54 g/m*3 -5.8 C 14.5 km/h
1421 24-02-2018 22:20:00 -1.2 C 2.59 g/m*3 -6.39 C 17.7 km/h
1422 24-02-2018 22:25:00 -1.2 C 2.54 g/m*3 -5.09 C 11.3 km/h
1423 24-02-2018 22:30:00 -1.3 C 2.57 g/m*3 -1.3 C 3.2 km/h
1424 24-02-2018 22:35:00 -1.4 C 2.55 g/m*3 -6.35 C 16.1 km/h
1425 24-02-2018 22:40:00 -1.4 C 2.55 g/m*3 -6.64 C 17.7 km/h
Sensor: Nr:Datum:Temp:Abs-Feuchte:Windchill:Wind:
Aussen-T/F 1426 24-02-2018 22:45:00 -1.4 C 2.46 g/m*3 -6.64 C 17.7 km/h
1427 24-02-2018 22:50:00 -1.3 C 2.52 g/m*3 -3.68 C 6.4 km/h
1428 24-02-2018 22:55:00 -1.4 C 2.46 g/m*3 -5.7 C 12.9 km/h
1429 24-02-2018 23:00:00 -1.4 C 2.46 g/m*3 -4.9 C 9.7 km/h
1430 24-02-2018 23:05:00 -1.4 C 2.46 g/m*3 -6.64 C 17.7 km/h
1431 24-02-2018 23:10:00 -1.4 C 2.46 g/m*3 -5.33 C 11.3 km/h
1432 24-02-2018 23:15:00 -1.4 C 2.51 g/m*3 -3.8 C 6.4 km/h
1433 24-02-2018 23:20:00 -1.6 C 2.43 g/m*3 -5.95 C 12.9 km/h
1434 24-02-2018 23:25:00 -1.6 C 2.47 g/m*3 -5.14 C 9.7 km/h
1435 24-02-2018 23:30:00 -1.6 C 2.43 g/m*3 -5.57 C 11.3 km/h
1436 24-02-2018 23:35:00 -1.7 C 2.5 g/m*3 -1.7 C 4.8 km/h
1437 24-02-2018 23:40:00 -1.8 C 2.44 g/m*3 -4.89 C 8.1 km/h
1438 24-02-2018 23:45:00 -1.8 C 2.48 g/m*3 -4.26 C 6.4 km/h
1439 24-02-2018 23:50:00 -1.8 C 2.48 g/m*3 -5.38 C 9.7 km/h
1440 24-02-2018 23:55:00 -1.9 C 2.46 g/m*3 -1.9 C 4.8 km/h
1441 25-02-2018 00:00:00 -1.9 C 2.5 g/m*3 -5 C 8.1 km/h
1442 25-02-2018 00:05:00 -2.1 C 2.47 g/m*3 -5.74 C 9.7 km/h
1443 25-02-2018 00:10:00 -2.1 C 2.47 g/m*3 -6.9 C 14.5 km/h
1444 25-02-2018 00:15:00 -2.1 C 2.47 g/m*3 -5.24 C 8.1 km/h
1445 25-02-2018 00:20:00 -2.1 C 2.47 g/m*3 -6.17 C 11.3 km/h
1446 25-02-2018 00:25:00 -2.1 C 2.51 g/m*3 -5.74 C 9.7 km/h
1447 25-02-2018 00:30:00 -2.2 C 2.45 g/m*3 -7.64 C 17.7 km/h
1448 25-02-2018 00:35:00 -2.2 C 2.45 g/m*3 -4.72 C 6.4 km/h
1449 25-02-2018 00:40:00 -2.2 C 2.45 g/m*3 -6.68 C 12.9 km/h
1450 25-02-2018 00:45:00 -2.2 C 2.49 g/m*3 -6.29 C 11.3 km/h
Sensor: Nr:Datum:Temp:Abs-Feuchte:Windchill:Wind:
Aussen-T/F 1451 25-02-2018 00:50:00 -2.2 C 2.45 g/m*3 -6.68 C 12.9 km/h
1452 25-02-2018 00:55:00 -2.3 C 2.52 g/m*3 -5.47 C 8.1 km/h
1453 25-02-2018 01:00:00 -2.3 C 2.48 g/m*3 -5.98 C 9.7 km/h
1454 25-02-2018 01:05:00 -2.4 C 2.46 g/m*3 -2.4 C 1.6 km/h
1455 25-02-2018 01:10:00 -2.5 C 2.48 g/m*3 -2.5 C 1.6 km/h
1456 25-02-2018 01:15:00 -2.6 C 2.42 g/m*3 -7.52 C 14.5 km/h
1457 25-02-2018 01:20:00 -2.6 C 2.42 g/m*3 -6.77 C 11.3 km/h
1458 25-02-2018 01:25:00 -2.6 C 2.46 g/m*3 -8.41 C 19.3 km/h
1459 25-02-2018 01:30:00 -2.6 C 2.42 g/m*3 -5.83 C 8.1 km/h
1460 25-02-2018 01:35:00 -2.6 C 2.46 g/m*3 -6.33 C 9.7 km/h
1461 25-02-2018 01:40:00 -2.7 C 2.45 g/m*3 -5.3 C 6.4 km/h
1462 25-02-2018 01:45:00 -2.7 C 2.45 g/m*3 -6.45 C 9.7 km/h
1463 25-02-2018 01:50:00 -2.8 C 2.43 g/m*3 -6.06 C 8.1 km/h
1464 25-02-2018 01:55:00 -2.8 C 2.43 g/m*3 -6.06 C 8.1 km/h
1465 25-02-2018 02:00:00 -2.9 C 2.41 g/m*3 -7.53 C 12.9 km/h
1466 25-02-2018 02:05:00 -2.9 C 2.41 g/m*3 -5.53 C 6.4 km/h
1467 25-02-2018 02:10:00 -2.9 C 2.41 g/m*3 -6.18 C 8.1 km/h
1468 25-02-2018 02:15:00 -3 C 2.4 g/m*3 -8.34 C 16.1 km/h
1469 25-02-2018 02:20:00 -3 C 2.4 g/m*3 -8.01 C 14.5 km/h
1470 25-02-2018 02:25:00 -3 C 2.44 g/m*3 -7.26 C 11.3 km/h
1471 25-02-2018 02:30:00 -3.1 C 2.38 g/m*3 -5.76 C 6.4 km/h
1472 25-02-2018 02:35:00 -3.2 C 2.36 g/m*3 -7.05 C 9.7 km/h
1473 25-02-2018 02:40:00 -3.2 C 2.36 g/m*3 -9.16 C 19.3 km/h
1474 25-02-2018 02:45:00 -3.2 C 2.36 g/m*3 -7.9 C 12.9 km/h
1475 25-02-2018 02:50:00 -3.2 C 2.4 g/m*3 -6.53 C 8.1 km/h
Sensor: Nr:Datum:Temp:Abs-Feuchte:Windchill:Wind:
Aussen-T/F 1476 25-02-2018 02:55:00 -3.3 C 2.42 g/m*3 -3.3 C 3.2 km/h
1477 25-02-2018 03:00:00 -3.4 C 2.37 g/m*3 -6.77 C 8.1 km/h
1478 25-02-2018 03:05:00 -3.5 C 2.39 g/m*3 -6.88 C 8.1 km/h
1479 25-02-2018 03:10:00 -3.6 C 2.37 g/m*3 -7 C 8.1 km/h
1480 25-02-2018 03:15:00 -3.6 C 2.37 g/m*3 -7 C 8.1 km/h
1481 25-02-2018 03:20:00 -3.7 C 2.35 g/m*3 -3.7 C 4.8 km/h
1482 25-02-2018 03:25:00 -3.7 C 2.35 g/m*3 -7.12 C 8.1 km/h
1483 25-02-2018 03:30:00 -3.7 C 2.35 g/m*3 -8.51 C 12.9 km/h
1484 25-02-2018 03:35:00 -3.8 C 2.34 g/m*3 -7.24 C 8.1 km/h
1485 25-02-2018 03:40:00 -3.8 C 2.34 g/m*3 -9.33 C 16.1 km/h
1486 25-02-2018 03:45:00 -3.8 C 2.37 g/m*3 -7.24 C 8.1 km/h
1487 25-02-2018 03:50:00 -3.9 C 2.39 g/m*3 -3.9 C 1.6 km/h
1488 25-02-2018 03:55:00 -4.1 C 2.36 g/m*3 -4.1 C 3.2 km/h
1489 25-02-2018 04:00:00 -4.2 C 2.34 g/m*3 -4.2 C 3.2 km/h
1490 25-02-2018 04:05:00 -4.3 C 2.33 g/m*3 -4.3 C 4.8 km/h
1491 25-02-2018 04:10:00 -4.3 C 2.36 g/m*3 -4.3 C 4.8 km/h
1492 25-02-2018 04:15:00 -4.3 C 2.33 g/m*3 -8.36 C 9.7 km/h
1493 25-02-2018 04:20:00 -4.3 C 2.33 g/m*3 -7.15 C 6.4 km/h
1494 25-02-2018 04:25:00 -4.2 C 2.34 g/m*3 -7.03 C 6.4 km/h
1495 25-02-2018 04:30:00 -4.2 C 2.34 g/m*3 -4.2 C 3.2 km/h
1496 25-02-2018 04:35:00 -4.3 C 2.36 g/m*3 -4.3 C 0 km/h
1497 25-02-2018 04:40:00 -4.5 C 2.36 g/m*3 -4.5 C 3.2 km/h
1498 25-02-2018 04:45:00 -4.6 C 2.35 g/m*3 -4.6 C 3.2 km/h
1499 25-02-2018 04:50:00 -4.7 C 2.37 g/m*3 -4.7 C 1.6 km/h
1500 25-02-2018 04:55:00 -4.8 C 2.35 g/m*3 -4.8 C 1.6 km/h
Sensor: Nr:Datum:Temp:Abs-Feuchte:Windchill:Wind:
Aussen-T/F 1501 25-02-2018 05:00:00 -4.9 C 2.37 g/m*3 -4.9 C 3.2 km/h
1502 25-02-2018 05:05:00 -4.9 C 2.33 g/m*3 -8.53 C 8.1 km/h
1503 25-02-2018 05:10:00 -5 C 2.35 g/m*3 -5 C 0 km/h
1504 25-02-2018 05:15:00 -5 C 2.35 g/m*3 -5 C 4.8 km/h
1505 25-02-2018 05:20:00 -5 C 2.35 g/m*3 -9.67 C 11.3 km/h
1506 25-02-2018 05:25:00 -4.9 C 2.33 g/m*3 -7.84 C 6.4 km/h
1507 25-02-2018 05:30:00 -5 C 2.32 g/m*3 -7.96 C 6.4 km/h
1508 25-02-2018 05:35:00 -5 C 2.32 g/m*3 -5 C 3.2 km/h
1509 25-02-2018 05:40:00 -4.9 C 2.3 g/m*3 -9.55 C 11.3 km/h
1510 25-02-2018 05:45:00 -4.9 C 2.33 g/m*3 -4.9 C 4.8 km/h
1511 25-02-2018 05:50:00 -4.9 C 2.33 g/m*3 -9.07 C 9.7 km/h
1512 25-02-2018 05:55:00 -5.1 C 2.3 g/m*3 -5.1 C 0 km/h
1513 25-02-2018 06:00:00 -5.2 C 2.28 g/m*3 -8.19 C 6.4 km/h
1514 25-02-2018 06:05:00 -5.2 C 2.28 g/m*3 -5.2 C 3.2 km/h
1515 25-02-2018 06:10:00 -5.3 C 2.3 g/m*3 -9 C 8.1 km/h
1516 25-02-2018 06:15:00 -5.3 C 2.27 g/m*3 -10.03 C 11.3 km/h
1517 25-02-2018 06:20:00 -5.3 C 2.27 g/m*3 -5.3 C 1.6 km/h
1518 25-02-2018 06:25:00 -5.4 C 2.28 g/m*3 -5.4 C 3.2 km/h
1519 25-02-2018 06:30:00 -5.5 C 2.23 g/m*3 -10.7 C 12.9 km/h
1520 25-02-2018 06:35:00 -5.5 C 2.27 g/m*3 -5.5 C 3.2 km/h
1521 25-02-2018 06:40:00 -5.6 C 2.25 g/m*3 -10.39 C 11.3 km/h
1522 25-02-2018 06:45:00 -5.5 C 2.23 g/m*3 -11.08 C 14.5 km/h
1523 25-02-2018 06:50:00 -5.4 C 2.22 g/m*3 -5.4 C 3.2 km/h
1524 25-02-2018 06:55:00 -5.4 C 2.22 g/m*3 -5.4 C 4.8 km/h
1525 25-02-2018 07:00:00 -5.4 C 2.25 g/m*3 -5.4 C 4.8 km/h
Sensor: Nr:Datum:Temp:Abs-Feuchte:Windchill:Wind:
Aussen-T/F 1526 25-02-2018 07:05:00 -5.5 C 2.23 g/m*3 -5.5 C 3.2 km/h
1527 25-02-2018 07:10:00 -5.7 C 2.23 g/m*3 -5.7 C 1.6 km/h
1528 25-02-2018 07:15:00 -5.8 C 2.22 g/m*3 -5.8 C 3.2 km/h
1529 25-02-2018 07:20:00 -5.8 C 2.22 g/m*3 -5.8 C 1.6 km/h
1530 25-02-2018 07:25:00 -5.9 C 2.23 g/m*3 -10.75 C 11.3 km/h
1531 25-02-2018 07:30:00 -5.8 C 2.25 g/m*3 -11.81 C 16.1 km/h
1532 25-02-2018 07:35:00 -5.9 C 2.2 g/m*3 -5.9 C 3.2 km/h
1533 25-02-2018 07:40:00 -5.9 C 2.23 g/m*3 -10.27 C 9.7 km/h
1534 25-02-2018 07:45:00 -5.9 C 2.23 g/m*3 -5.9 C 1.6 km/h
1535 25-02-2018 07:50:00 -5.9 C 2.2 g/m*3 -5.9 C 4.8 km/h
1536 25-02-2018 07:55:00 -5.9 C 2.23 g/m*3 -5.9 C 0 km/h
1537 25-02-2018 08:00:00 -5.9 C 2.27 g/m*3 -5.9 C 0 km/h
1538 25-02-2018 08:05:00 -6 C 2.25 g/m*3 -6 C 0 km/h
1539 25-02-2018 08:10:00 -6 C 2.22 g/m*3 -9.11 C 6.4 km/h
1540 25-02-2018 08:15:00 -5.9 C 2.23 g/m*3 -5.9 C 4.8 km/h
1541 25-02-2018 08:20:00 -5.9 C 2.23 g/m*3 -5.9 C 1.6 km/h
1542 25-02-2018 08:25:00 -5.9 C 2.23 g/m*3 -5.9 C 3.2 km/h
1543 25-02-2018 08:30:00 -5.9 C 2.23 g/m*3 -5.9 C 3.2 km/h
1544 25-02-2018 08:35:00 -5.8 C 2.25 g/m*3 -8.88 C 6.4 km/h
1545 25-02-2018 08:40:00 -5.8 C 2.25 g/m*3 -5.8 C 3.2 km/h
1546 25-02-2018 08:45:00 -5.9 C 2.27 g/m*3 -5.9 C 1.6 km/h
1547 25-02-2018 08:50:00 -5.8 C 2.25 g/m*3 -10.15 C 9.7 km/h
1548 25-02-2018 08:55:00 -5.7 C 2.23 g/m*3 -5.7 C 3.2 km/h
1549 25-02-2018 09:00:00 -5.5 C 2.27 g/m*3 -10.7 C 12.9 km/h
1550 25-02-2018 09:05:00 -5.4 C 2.25 g/m*3 -9.12 C 8.1 km/h
Sensor: Nr:Datum:Temp:Abs-Feuchte:Windchill:Wind:
Aussen-T/F 1551 25-02-2018 09:10:00 -5.4 C 2.25 g/m*3 -5.4 C 1.6 km/h
1552 25-02-2018 09:15:00 -5.3 C 2.23 g/m*3 -9.55 C 9.7 km/h
1553 25-02-2018 09:20:00 -5.2 C 2.22 g/m*3 -9.91 C 11.3 km/h
1554 25-02-2018 09:25:00 -5.1 C 2.23 g/m*3 -8.77 C 8.1 km/h
1555 25-02-2018 09:30:00 -5 C 2.21 g/m*3 -9.19 C 9.7 km/h
1556 25-02-2018 09:35:00 -4.8 C 2.25 g/m*3 -4.8 C 4.8 km/h
1557 25-02-2018 09:40:00 -4.8 C 2.21 g/m*3 -10.22 C 14.5 km/h
1558 25-02-2018 09:45:00 -4.7 C 2.16 g/m*3 -9.31 C 11.3 km/h
1559 25-02-2018 09:50:00 -4.6 C 2.21 g/m*3 -8.72 C 9.7 km/h
1560 25-02-2018 09:55:00 -4.6 C 2.17 g/m*3 -9.98 C 14.5 km/h
1561 25-02-2018 10:00:00 -4.5 C 2.19 g/m*3 -7.38 C 6.4 km/h
1562 25-02-2018 10:05:00 -4.4 C 2.17 g/m*3 -9.36 C 12.9 km/h
1563 25-02-2018 10:10:00 -4.3 C 2.18 g/m*3 -10.26 C 17.7 km/h
1564 25-02-2018 10:15:00 -4.2 C 2.2 g/m*3 -7.71 C 8.1 km/h
1565 25-02-2018 10:20:00 -4.2 C 2.16 g/m*3 -7.03 C 6.4 km/h
1566 25-02-2018 10:25:00 -4.1 C 2.14 g/m*3 -9.7 C 16.1 km/h
1567 25-02-2018 10:30:00 -4 C 2.16 g/m*3 -9.24 C 14.5 km/h
1568 25-02-2018 10:35:00 -3.9 C 2.17 g/m*3 -3.9 C 4.8 km/h
1569 25-02-2018 10:40:00 -3.8 C 2.19 g/m*3 -3.8 C 3.2 km/h
1570 25-02-2018 10:45:00 -3.7 C 2.17 g/m*3 -6.46 C 6.4 km/h
1571 25-02-2018 10:50:00 -3.6 C 2.22 g/m*3 -7.98 C 11.3 km/h
1572 25-02-2018 10:55:00 -3.4 C 2.14 g/m*3 -9.13 C 17.7 km/h
1573 25-02-2018 11:00:00 -3.3 C 2.15 g/m*3 -9.01 C 17.7 km/h
1574 25-02-2018 11:05:00 -3.2 C 2.13 g/m*3 -5.88 C 6.4 km/h
1575 25-02-2018 11:10:00 -2.9 C 2.18 g/m*3 -2.9 C 4.8 km/h
Sensor: Nr:Datum:Temp:Abs-Feuchte:Windchill:Wind:
Aussen-T/F 1576 25-02-2018 11:15:00 -2.8 C 2.15 g/m*3 -6.06 C 8.1 km/h
1577 25-02-2018 11:20:00 -2.7 C 2.05 g/m*3 -7.64 C 14.5 km/h
1578 25-02-2018 11:25:00 -2.6 C 2.1 g/m*3 -6.77 C 11.3 km/h
1579 25-02-2018 11:30:00 -2.5 C 2.12 g/m*3 -6.21 C 9.7 km/h
1580 25-02-2018 11:35:00 -2.4 C 2.09 g/m*3 -5.59 C 8.1 km/h
1581 25-02-2018 11:40:00 -2.4 C 2.05 g/m*3 -6.1 C 9.7 km/h
1582 25-02-2018 11:45:00 -2.3 C 2.02 g/m*3 -2.3 C 4.8 km/h
1583 25-02-2018 11:50:00 -2.3 C 2.02 g/m*3 -6.41 C 11.3 km/h
1584 25-02-2018 11:55:00 -2.2 C 2 g/m*3 -7.34 C 16.1 km/h
1585 25-02-2018 12:00:00 -2.2 C 2 g/m*3 -5.86 C 9.7 km/h
1586 25-02-2018 12:05:00 -2.2 C 1.95 g/m*3 -6.29 C 11.3 km/h
1587 25-02-2018 12:10:00 -2.1 C 1.93 g/m*3 -6.17 C 11.3 km/h
1588 25-02-2018 12:15:00 -1.9 C 1.91 g/m*3 -5.5 C 9.7 km/h
1589 25-02-2018 12:20:00 -1.8 C 1.92 g/m*3 -5.38 C 9.7 km/h
1590 25-02-2018 12:25:00 -1.7 C 1.94 g/m*3 -5.69 C 11.3 km/h
1591 25-02-2018 12:30:00 -1.5 C 1.96 g/m*3 -4.53 C 8.1 km/h
1592 25-02-2018 12:35:00 -1.3 C 2.04 g/m*3 -6.51 C 17.7 km/h
1593 25-02-2018 12:40:00 -1.2 C 1.92 g/m*3 -6.1 C 16.1 km/h
1594 25-02-2018 12:45:00 -1.2 C 1.87 g/m*3 -5.8 C 14.5 km/h
1595 25-02-2018 12:50:00 -1.2 C 1.87 g/m*3 -5.8 C 14.5 km/h
1596 25-02-2018 12:55:00 -1.1 C 1.93 g/m*3 -1.1 C 4.8 km/h
1597 25-02-2018 13:00:00 -0.9 C 1.87 g/m*3 -5.09 C 12.9 km/h
1598 25-02-2018 13:05:00 -1 C 1.85 g/m*3 -6.64 C 20.9 km/h
1599 25-02-2018 13:10:00 -0.9 C 1.87 g/m*3 -6.51 C 20.9 km/h
1600 25-02-2018 13:15:00 -0.8 C 1.88 g/m*3 -5.61 C 16.1 km/h
Sensor: Nr:Datum:Temp:Abs-Feuchte:Windchill:Wind:
Aussen-T/F 1601 25-02-2018 13:20:00 -0.7 C 1.89 g/m*3 -6.48 C 22.5 km/h
1602 25-02-2018 13:25:00 -0.7 C 1.85 g/m*3 -6.02 C 19.3 km/h
1603 25-02-2018 13:30:00 -0.6 C 1.86 g/m*3 -5.64 C 17.7 km/h
1604 25-02-2018 13:35:00 -0.5 C 1.83 g/m*3 -5.77 C 19.3 km/h
1605 25-02-2018 13:40:00 -0.6 C 1.81 g/m*3 -5.36 C 16.1 km/h
1606 25-02-2018 13:45:00 -0.6 C 1.72 g/m*3 -5.06 C 14.5 km/h
1607 25-02-2018 13:50:00 -0.6 C 1.67 g/m*3 -6.13 C 20.9 km/h
1608 25-02-2018 13:55:00 -0.5 C 1.68 g/m*3 -6.44 C 24.1 km/h
1609 25-02-2018 14:00:00 -0.6 C 1.63 g/m*3 -5.89 C 19.3 km/h
1610 25-02-2018 14:05:00 -0.6 C 1.72 g/m*3 -6.36 C 22.5 km/h
1611 25-02-2018 14:10:00 -0.4 C 1.7 g/m*3 -2.64 C 6.4 km/h
1612 25-02-2018 14:15:00 -0.3 C 1.66 g/m*3 -5.97 C 22.5 km/h
1613 25-02-2018 14:20:00 -0.6 C 1.58 g/m*3 -5.89 C 19.3 km/h
1614 25-02-2018 14:25:00 -0.5 C 1.64 g/m*3 -3.83 C 9.7 km/h
1615 25-02-2018 14:30:00 -0.4 C 1.74 g/m*3 -0.4 C 4.8 km/h
1616 25-02-2018 14:35:00 -0.3 C 1.66 g/m*3 -4.69 C 14.5 km/h
1617 25-02-2018 14:40:00 -0.3 C 1.57 g/m*3 -3.12 C 8.1 km/h
1618 25-02-2018 14:45:00 -0.2 C 1.58 g/m*3 -3 C 8.1 km/h
1619 25-02-2018 14:50:00 -0.2 C 1.62 g/m*3 -4.86 C 16.1 km/h
1620 25-02-2018 14:55:00 -0.2 C 1.58 g/m*3 -4.24 C 12.9 km/h
1621 25-02-2018 15:00:00 -0.2 C 1.53 g/m*3 -3.88 C 11.3 km/h
1622 25-02-2018 15:05:00 -0.1 C 1.54 g/m*3 -4.44 C 14.5 km/h
1623 25-02-2018 15:10:00 -0.1 C 1.64 g/m*3 -4.12 C 12.9 km/h
1624 25-02-2018 15:15:00 0.1 C 1.66 g/m*3 -5.01 C 19.3 km/h
1625 25-02-2018 15:20:00 0.1 C 1.56 g/m*3 -4.49 C 16.1 km/h
Sensor: Nr:Datum:Temp:Abs-Feuchte:Windchill:Wind:
Aussen-T/F 1626 25-02-2018 15:25:00 0.2 C 1.62 g/m*3 -5.12 C 20.9 km/h
1627 25-02-2018 15:30:00 0.2 C 1.67 g/m*3 -4.37 C 16.1 km/h
1628 25-02-2018 15:35:00 0.3 C 1.73 g/m*3 -3.63 C 12.9 km/h
1629 25-02-2018 15:40:00 0.3 C 1.63 g/m*3 -3.95 C 14.5 km/h
1630 25-02-2018 15:45:00 0.4 C 1.74 g/m*3 -3.83 C 14.5 km/h
1631 25-02-2018 15:50:00 0.5 C 1.81 g/m*3 -4.26 C 17.7 km/h
1632 25-02-2018 15:55:00 0.5 C 1.71 g/m*3 -4.95 C 22.5 km/h
1633 25-02-2018 16:00:00 0.4 C 1.69 g/m*3 -4.87 C 20.9 km/h
1634 25-02-2018 16:05:00 0.4 C 1.74 g/m*3 -3.51 C 12.9 km/h
1635 25-02-2018 16:10:00 0.4 C 1.79 g/m*3 -4.63 C 19.3 km/h
1636 25-02-2018 16:15:00 0.4 C 1.84 g/m*3 -3.16 C 11.3 km/h
1637 25-02-2018 16:20:00 0.4 C 1.79 g/m*3 -3.83 C 14.5 km/h
1638 25-02-2018 16:25:00 0.4 C 1.79 g/m*3 -4.39 C 17.7 km/h
1639 25-02-2018 16:30:00 0.3 C 1.78 g/m*3 -4.51 C 17.7 km/h
1640 25-02-2018 16:35:00 0.3 C 1.78 g/m*3 -4.51 C 17.7 km/h
1641 25-02-2018 16:40:00 0.1 C 1.71 g/m*3 -5.01 C 19.3 km/h
1642 25-02-2018 16:45:00 0.1 C 1.76 g/m*3 -3.88 C 12.9 km/h
1643 25-02-2018 16:50:00 0.1 C 1.71 g/m*3 -4.76 C 17.7 km/h
1644 25-02-2018 16:55:00 0.1 C 1.71 g/m*3 -4.2 C 14.5 km/h
1645 25-02-2018 17:00:00 0.1 C 1.76 g/m*3 -3.88 C 12.9 km/h
1646 25-02-2018 17:05:00 0.2 C 1.72 g/m*3 -2.53 C 8.1 km/h
1647 25-02-2018 17:10:00 0.1 C 1.76 g/m*3 -5.01 C 19.3 km/h
1648 25-02-2018 17:15:00 0.1 C 1.76 g/m*3 -4.49 C 16.1 km/h
1649 25-02-2018 17:20:00 0 C 1.7 g/m*3 -4.32 C 14.5 km/h
1650 25-02-2018 17:25:00 0.1 C 1.85 g/m*3 -3.12 C 9.7 km/h
Sensor: Nr:Datum:Temp:Abs-Feuchte:Windchill:Wind:
Aussen-T/F 1651 25-02-2018 17:30:00 0.2 C 1.82 g/m*3 -3 C 9.7 km/h
1652 25-02-2018 17:35:00 0.2 C 1.77 g/m*3 -3 C 9.7 km/h
1653 25-02-2018 17:40:00 0.1 C 1.9 g/m*3 -2.07 C 6.4 km/h
1654 25-02-2018 17:45:00 -0.1 C 1.78 g/m*3 -4.44 C 14.5 km/h
1655 25-02-2018 17:50:00 -0.3 C 1.76 g/m*3 -4.99 C 16.1 km/h
1656 25-02-2018 17:55:00 -0.5 C 1.78 g/m*3 -3.83 C 9.7 km/h
1657 25-02-2018 18:00:00 -0.7 C 1.8 g/m*3 -2.99 C 6.4 km/h
1658 25-02-2018 18:05:00 -0.9 C 1.87 g/m*3 -3.22 C 6.4 km/h
1659 25-02-2018 18:10:00 -1.2 C 1.87 g/m*3 -1.2 C 4.8 km/h
1660 25-02-2018 18:15:00 -1.4 C 1.85 g/m*3 -1.4 C 4.8 km/h
1661 25-02-2018 18:20:00 -1.5 C 1.83 g/m*3 -4.53 C 8.1 km/h
1662 25-02-2018 18:25:00 -1.6 C 1.78 g/m*3 -1.6 C 1.6 km/h
1663 25-02-2018 18:30:00 -1.7 C 1.76 g/m*3 -1.7 C 3.2 km/h
1664 25-02-2018 18:35:00 -1.7 C 1.85 g/m*3 -1.7 C 4.8 km/h
1665 25-02-2018 18:40:00 -1.8 C 1.84 g/m*3 -1.8 C 4.8 km/h
1666 25-02-2018 18:45:00 -1.7 C 1.81 g/m*3 -5.69 C 11.3 km/h
1667 25-02-2018 18:50:00 -1.7 C 1.76 g/m*3 -4.15 C 6.4 km/h
1668 25-02-2018 18:55:00 -1.7 C 1.85 g/m*3 -5.69 C 11.3 km/h
1669 25-02-2018 19:00:00 -1.7 C 1.76 g/m*3 -5.26 C 9.7 km/h
1670 25-02-2018 19:05:00 -1.7 C 1.76 g/m*3 -4.77 C 8.1 km/h
1671 25-02-2018 19:10:00 -1.7 C 1.85 g/m*3 -4.77 C 8.1 km/h
1672 25-02-2018 19:15:00 -1.8 C 1.71 g/m*3 -4.89 C 8.1 km/h
1673 25-02-2018 19:20:00 -1.7 C 1.72 g/m*3 -5.69 C 11.3 km/h
1674 25-02-2018 19:25:00 -1.7 C 1.68 g/m*3 -4.77 C 8.1 km/h
1675 25-02-2018 19:30:00 -1.7 C 1.64 g/m*3 -5.26 C 9.7 km/h
Sensor: Nr:Datum:Temp:Abs-Feuchte:Windchill:Wind:
Aussen-T/F 1676 25-02-2018 19:35:00 -1.7 C 1.68 g/m*3 -6.41 C 14.5 km/h
1677 25-02-2018 19:40:00 -1.7 C 1.72 g/m*3 -1.7 C 3.2 km/h
1678 25-02-2018 19:45:00 -1.8 C 1.71 g/m*3 -4.26 C 6.4 km/h
1679 25-02-2018 19:50:00 -1.8 C 1.8 g/m*3 -1.8 C 0 km/h
1680 25-02-2018 19:55:00 -1.9 C 1.7 g/m*3 -1.9 C 4.8 km/h
1681 25-02-2018 20:00:00 -1.9 C 1.7 g/m*3 -4.38 C 6.4 km/h
1682 25-02-2018 20:05:00 -2 C 1.73 g/m*3 -4.49 C 6.4 km/h
1683 25-02-2018 20:10:00 -2 C 1.69 g/m*3 -6.05 C 11.3 km/h
1684 25-02-2018 20:15:00 -1.9 C 1.74 g/m*3 -5.5 C 9.7 km/h
1685 25-02-2018 20:20:00 -2 C 1.73 g/m*3 -4.49 C 6.4 km/h
1686 25-02-2018 20:25:00 -2 C 1.73 g/m*3 -6.43 C 12.9 km/h
1687 25-02-2018 20:30:00 -1.9 C 1.7 g/m*3 -5.93 C 11.3 km/h
1688 25-02-2018 20:35:00 -1.9 C 1.7 g/m*3 -5.93 C 11.3 km/h
1689 25-02-2018 20:40:00 -1.9 C 1.83 g/m*3 -7.53 C 19.3 km/h
1690 25-02-2018 20:45:00 -2 C 1.81 g/m*3 -4.49 C 6.4 km/h
1691 25-02-2018 20:50:00 -2.1 C 1.8 g/m*3 -7.51 C 17.7 km/h
1692 25-02-2018 20:55:00 -2.2 C 1.83 g/m*3 -2.2 C 4.8 km/h
1693 25-02-2018 21:00:00 -2.2 C 1.87 g/m*3 -7.91 C 19.3 km/h
1694 25-02-2018 21:05:00 -2.2 C 1.83 g/m*3 -7.03 C 14.5 km/h
1695 25-02-2018 21:10:00 -2.3 C 1.9 g/m*3 -6.41 C 11.3 km/h
1696 25-02-2018 21:15:00 -2.3 C 1.9 g/m*3 -2.3 C 4.8 km/h
1697 25-02-2018 21:20:00 -2.4 C 1.97 g/m*3 -2.4 C 4.8 km/h
1698 25-02-2018 21:25:00 -2.5 C 1.95 g/m*3 -6.65 C 11.3 km/h
1699 25-02-2018 21:30:00 -2.5 C 1.95 g/m*3 -5.07 C 6.4 km/h
1700 25-02-2018 21:35:00 -2.4 C 1.97 g/m*3 -7.89 C 17.7 km/h
Sensor: Nr:Datum:Temp:Abs-Feuchte:Windchill:Wind:
Aussen-T/F 1701 25-02-2018 21:40:00 -2.5 C 1.99 g/m*3 -2.5 C 1.6 km/h
1702 25-02-2018 21:45:00 -2.6 C 2.02 g/m*3 -2.6 C 1.6 km/h
1703 25-02-2018 21:50:00 -2.7 C 2.05 g/m*3 -2.7 C 1.6 km/h
1704 25-02-2018 21:55:00 -2.8 C 2.03 g/m*3 -6.57 C 9.7 km/h
1705 25-02-2018 22:00:00 -2.8 C 2.03 g/m*3 -2.8 C 4.8 km/h
1706 25-02-2018 22:05:00 -2.8 C 2.03 g/m*3 -2.8 C 3.2 km/h
1707 25-02-2018 22:10:00 -2.7 C 2.09 g/m*3 -5.3 C 6.4 km/h
1708 25-02-2018 22:15:00 -2.7 C 2.13 g/m*3 -6.45 C 9.7 km/h
1709 25-02-2018 22:20:00 -2.7 C 2.09 g/m*3 -7.29 C 12.9 km/h
1710 25-02-2018 22:25:00 -2.6 C 2.06 g/m*3 -7.84 C 16.1 km/h
1711 25-02-2018 22:30:00 -2.6 C 2.1 g/m*3 -7.17 C 12.9 km/h
1712 25-02-2018 22:35:00 -2.6 C 2.06 g/m*3 -7.52 C 14.5 km/h
1713 25-02-2018 22:40:00 -2.6 C 2.06 g/m*3 -7.52 C 14.5 km/h
1714 25-02-2018 22:45:00 -2.6 C 2.1 g/m*3 -6.77 C 11.3 km/h
1715 25-02-2018 22:50:00 -2.6 C 2.1 g/m*3 -6.77 C 11.3 km/h
1716 25-02-2018 22:55:00 -2.7 C 2.09 g/m*3 -6.9 C 11.3 km/h
1717 25-02-2018 23:00:00 -2.7 C 2.13 g/m*3 -6.45 C 9.7 km/h
1718 25-02-2018 23:05:00 -2.7 C 2.09 g/m*3 -7.64 C 14.5 km/h
1719 25-02-2018 23:10:00 -2.7 C 2.09 g/m*3 -6.9 C 11.3 km/h
1720 25-02-2018 23:15:00 -2.8 C 2.07 g/m*3 -7.02 C 11.3 km/h
1721 25-02-2018 23:20:00 -2.8 C 2.11 g/m*3 -6.57 C 9.7 km/h
1722 25-02-2018 23:25:00 -2.8 C 2.11 g/m*3 -6.57 C 9.7 km/h
1723 25-02-2018 23:30:00 -2.9 C 2.1 g/m*3 -7.89 C 14.5 km/h
1724 25-02-2018 23:35:00 -2.9 C 2.14 g/m*3 -2.9 C 4.8 km/h
1725 25-02-2018 23:40:00 -2.9 C 2.14 g/m*3 -5.53 C 6.4 km/h
Sensor: Nr:Datum:Temp:Abs-Feuchte:Windchill:Wind:
Aussen-T/F 1726 25-02-2018 23:45:00 -3 C 2.16 g/m*3 -6.81 C 9.7 km/h
1727 25-02-2018 23:50:00 -3 C 2.12 g/m*3 -9.64 C 24.1 km/h
1728 25-02-2018 23:55:00 -3 C 2.16 g/m*3 -6.3 C 8.1 km/h
1729 26-02-2018 00:00:00 -3.1 C 2.15 g/m*3 -5.76 C 6.4 km/h
1730 26-02-2018 00:05:00 -3.1 C 2.18 g/m*3 -5.76 C 6.4 km/h
1731 26-02-2018 00:10:00 -3.1 C 2.18 g/m*3 -8.46 C 16.1 km/h
1732 26-02-2018 00:15:00 -3.2 C 2.13 g/m*3 -9.67 C 22.5 km/h
1733 26-02-2018 00:20:00 -3.2 C 2.17 g/m*3 -9.67 C 22.5 km/h
1734 26-02-2018 00:25:00 -3.2 C 2.17 g/m*3 -7.9 C 12.9 km/h
1735 26-02-2018 00:30:00 -3.3 C 2.15 g/m*3 -5.99 C 6.4 km/h
1736 26-02-2018 00:35:00 -3.3 C 2.19 g/m*3 -3.3 C 3.2 km/h
1737 26-02-2018 00:40:00 -3.4 C 2.18 g/m*3 -7.74 C 11.3 km/h
1738 26-02-2018 00:45:00 -3.4 C 2.18 g/m*3 -7.74 C 11.3 km/h
1739 26-02-2018 00:50:00 -3.5 C 2.16 g/m*3 -3.5 C 4.8 km/h
1740 26-02-2018 00:55:00 -3.6 C 2.18 g/m*3 -3.6 C 4.8 km/h
1741 26-02-2018 01:00:00 -3.7 C 2.17 g/m*3 -7.64 C 9.7 km/h
1742 26-02-2018 01:05:00 -3.8 C 2.19 g/m*3 -3.8 C 4.8 km/h
1743 26-02-2018 01:10:00 -4 C 2.19 g/m*3 -4 C 1.6 km/h
1744 26-02-2018 01:15:00 -4.2 C 2.2 g/m*3 -4.2 C 1.6 km/h
1745 26-02-2018 01:20:00 -4.3 C 2.22 g/m*3 -4.3 C 4.8 km/h
1746 26-02-2018 01:25:00 -4.5 C 2.19 g/m*3 -4.5 C 1.6 km/h
1747 26-02-2018 01:30:00 -4.6 C 2.21 g/m*3 -4.6 C 0 km/h
1748 26-02-2018 01:35:00 -4.7 C 2.19 g/m*3 -4.7 C 4.8 km/h
1749 26-02-2018 01:40:00 -4.8 C 2.18 g/m*3 -7.73 C 6.4 km/h
1750 26-02-2018 01:45:00 -4.8 C 2.21 g/m*3 -4.8 C 3.2 km/h
Sensor: Nr:Datum:Temp:Abs-Feuchte:Windchill:Wind:
Aussen-T/F 1751 26-02-2018 01:50:00 -4.7 C 2.19 g/m*3 -8.84 C 9.7 km/h
1752 26-02-2018 01:55:00 -4.7 C 2.23 g/m*3 -4.7 C 3.2 km/h
1753 26-02-2018 02:00:00 -4.8 C 2.21 g/m*3 -4.8 C 3.2 km/h
1754 26-02-2018 02:05:00 -4.8 C 2.25 g/m*3 -4.8 C 3.2 km/h
1755 26-02-2018 02:10:00 -4.9 C 2.26 g/m*3 -4.9 C 3.2 km/h
1756 26-02-2018 02:15:00 -5.1 C 2.23 g/m*3 -5.1 C 4.8 km/h
1757 26-02-2018 02:20:00 -5.1 C 2.23 g/m*3 -5.1 C 1.6 km/h
1758 26-02-2018 02:25:00 -5.1 C 2.23 g/m*3 -5.1 C 1.6 km/h
1759 26-02-2018 02:30:00 -5.1 C 2.26 g/m*3 -5.1 C 3.2 km/h
1760 26-02-2018 02:35:00 -5.2 C 2.25 g/m*3 -5.2 C 0 km/h
1761 26-02-2018 02:40:00 -5.4 C 2.25 g/m*3 -5.4 C 1.6 km/h
1762 26-02-2018 02:45:00 -5.5 C 2.27 g/m*3 -5.5 C 0 km/h
1763 26-02-2018 02:50:00 -5.6 C 2.25 g/m*3 -5.6 C 0 km/h
1764 26-02-2018 02:55:00 -5.7 C 2.27 g/m*3 -5.7 C 1.6 km/h
1765 26-02-2018 03:00:00 -5.8 C 2.28 g/m*3 -5.8 C 1.6 km/h
1766 26-02-2018 03:05:00 -5.8 C 2.31 g/m*3 -5.8 C 1.6 km/h
1767 26-02-2018 03:10:00 -5.8 C 2.31 g/m*3 -5.8 C 0 km/h
1768 26-02-2018 03:15:00 -5.9 C 2.3 g/m*3 -5.9 C 1.6 km/h
1769 26-02-2018 03:20:00 -6 C 2.31 g/m*3 -6 C 3.2 km/h
1770 26-02-2018 03:25:00 -6.1 C 2.3 g/m*3 -6.1 C 3.2 km/h
1771 26-02-2018 03:30:00 -6.1 C 2.33 g/m*3 -6.1 C 1.6 km/h
1772 26-02-2018 03:35:00 -6.2 C 2.31 g/m*3 -6.2 C 1.6 km/h
1773 26-02-2018 03:40:00 -6.3 C 2.32 g/m*3 -6.3 C 3.2 km/h
1774 26-02-2018 03:45:00 -6.3 C 2.32 g/m*3 -6.3 C 0 km/h
1775 26-02-2018 03:50:00 -6.3 C 2.35 g/m*3 -6.3 C 1.6 km/h
Sensor: Nr:Datum:Temp:Abs-Feuchte:Windchill:Wind:
Aussen-T/F 1776 26-02-2018 03:55:00 -6.4 C 2.34 g/m*3 -6.4 C 4.8 km/h
1777 26-02-2018 04:00:00 -6.4 C 2.34 g/m*3 -6.4 C 0 km/h
1778 26-02-2018 04:05:00 -6.3 C 2.35 g/m*3 -10.74 C 9.7 km/h
1779 26-02-2018 04:10:00 -6.3 C 2.35 g/m*3 -6.3 C 1.6 km/h
1780 26-02-2018 04:15:00 -6.2 C 2.34 g/m*3 -6.2 C 3.2 km/h
1781 26-02-2018 04:20:00 -6.2 C 2.34 g/m*3 -6.2 C 3.2 km/h
1782 26-02-2018 04:25:00 -6.2 C 2.34 g/m*3 -6.2 C 4.8 km/h
1783 26-02-2018 04:30:00 -6.2 C 2.34 g/m*3 -6.2 C 0 km/h
1784 26-02-2018 04:35:00 -6.2 C 2.31 g/m*3 -10.06 C 8.1 km/h
1785 26-02-2018 04:40:00 -6 C 2.34 g/m*3 -6 C 1.6 km/h
1786 26-02-2018 04:45:00 -6 C 2.31 g/m*3 -6 C 1.6 km/h
1787 26-02-2018 04:50:00 -6.1 C 2.33 g/m*3 -6.1 C 0 km/h
1788 26-02-2018 04:55:00 -6.2 C 2.31 g/m*3 -6.2 C 3.2 km/h
1789 26-02-2018 05:00:00 -6.2 C 2.28 g/m*3 -6.2 C 0 km/h
1790 26-02-2018 05:05:00 -6.2 C 2.28 g/m*3 -6.2 C 1.6 km/h
1791 26-02-2018 05:10:00 -6.3 C 2.26 g/m*3 -6.3 C 0 km/h
1792 26-02-2018 05:15:00 -6.4 C 2.28 g/m*3 -6.4 C 1.6 km/h
1793 26-02-2018 05:20:00 -6.5 C 2.29 g/m*3 -6.5 C 1.6 km/h
1794 26-02-2018 05:25:00 -6.6 C 2.27 g/m*3 -6.6 C 1.6 km/h
1795 26-02-2018 05:30:00 -6.7 C 2.26 g/m*3 -6.7 C 0 km/h
1796 26-02-2018 05:35:00 -6.8 C 2.24 g/m*3 -6.8 C 0 km/h
1797 26-02-2018 05:40:00 -6.9 C 2.25 g/m*3 -6.9 C 0 km/h
1798 26-02-2018 05:45:00 -6.9 C 2.25 g/m*3 -6.9 C 1.6 km/h
1799 26-02-2018 05:50:00 -6.9 C 2.25 g/m*3 -6.9 C 1.6 km/h
1800 26-02-2018 05:55:00 -6.9 C 2.25 g/m*3 -6.9 C 1.6 km/h
Sensor: Nr:Datum:Temp:Abs-Feuchte:Windchill:Wind:
Aussen-T/F 1801 26-02-2018 06:00:00 -7 C 2.24 g/m*3 -7 C 0 km/h
1802 26-02-2018 06:05:00 -7.1 C 2.25 g/m*3 -7.1 C 0 km/h
1803 26-02-2018 06:10:00 -7.1 C 2.25 g/m*3 -7.1 C 1.6 km/h
1804 26-02-2018 06:15:00 -7.1 C 2.22 g/m*3 -7.1 C 1.6 km/h
1805 26-02-2018 06:20:00 -7.2 C 2.23 g/m*3 -7.2 C 0 km/h
1806 26-02-2018 06:25:00 -7.2 C 2.23 g/m*3 -7.2 C 0 km/h
1807 26-02-2018 06:30:00 -7.2 C 2.23 g/m*3 -7.2 C 1.6 km/h
1808 26-02-2018 06:35:00 -7.2 C 2.23 g/m*3 -7.2 C 0 km/h
1809 26-02-2018 06:40:00 -7.2 C 2.23 g/m*3 -7.2 C 1.6 km/h
1810 26-02-2018 06:45:00 -7.2 C 2.23 g/m*3 -7.2 C 1.6 km/h
1811 26-02-2018 06:50:00 -7.2 C 2.23 g/m*3 -7.2 C 0 km/h
1812 26-02-2018 06:55:00 -7.3 C 2.25 g/m*3 -7.3 C 0 km/h
1813 26-02-2018 07:00:00 -7.3 C 2.25 g/m*3 -7.3 C 0 km/h
1814 26-02-2018 07:05:00 -7.3 C 2.25 g/m*3 -7.3 C 0 km/h
1815 26-02-2018 07:10:00 -7.3 C 2.25 g/m*3 -7.3 C 0 km/h
1816 26-02-2018 07:15:00 -7.3 C 2.25 g/m*3 -7.3 C 1.6 km/h
1817 26-02-2018 07:20:00 -7.4 C 2.23 g/m*3 -7.4 C 0 km/h
1818 26-02-2018 07:25:00 -7.4 C 2.23 g/m*3 -7.4 C 0 km/h
1819 26-02-2018 07:30:00 -7.4 C 2.23 g/m*3 -7.4 C 0 km/h
1820 26-02-2018 07:35:00 -7.4 C 2.23 g/m*3 -7.4 C 0 km/h
1821 26-02-2018 07:40:00 -7.4 C 2.23 g/m*3 -7.4 C 0 km/h
1822 26-02-2018 07:45:00 -7.4 C 2.23 g/m*3 -7.4 C 0 km/h
1823 26-02-2018 07:50:00 -7.4 C 2.26 g/m*3 -7.4 C 0 km/h
1824 26-02-2018 07:55:00 -7.5 C 2.24 g/m*3 -7.5 C 0 km/h
1825 26-02-2018 08:00:00 -7.5 C 2.24 g/m*3 -7.5 C 0 km/h
Sensor: Nr:Datum:Temp:Abs-Feuchte:Windchill:Wind:
Aussen-T/F 1826 26-02-2018 08:05:00 -7.5 C 2.27 g/m*3 -7.5 C 0 km/h
1827 26-02-2018 08:10:00 -7.6 C 2.25 g/m*3 -7.6 C 0 km/h
1828 26-02-2018 08:15:00 -7.6 C 2.25 g/m*3 -7.6 C 0 km/h
1829 26-02-2018 08:20:00 -7.5 C 2.3 g/m*3 -7.5 C 0 km/h
1830 26-02-2018 08:25:00 -7.4 C 2.32 g/m*3 -7.4 C 0 km/h
1831 26-02-2018 08:30:00 -7.3 C 2.33 g/m*3 -7.3 C 0 km/h
1832 26-02-2018 08:35:00 -7.3 C 2.3 g/m*3 -7.3 C 0 km/h
1833 26-02-2018 08:40:00 -7.2 C 2.32 g/m*3 -7.2 C 0 km/h
1834 26-02-2018 08:45:00 -7.1 C 2.34 g/m*3 -7.1 C 0 km/h
1835 26-02-2018 08:50:00 -6.9 C 2.37 g/m*3 -6.9 C 1.6 km/h
1836 26-02-2018 08:55:00 -6.7 C 2.41 g/m*3 -6.7 C 0 km/h
1837 26-02-2018 09:00:00 -6.5 C 2.44 g/m*3 -6.5 C 0 km/h
1838 26-02-2018 09:05:00 -6.2 C 2.47 g/m*3 -6.2 C 3.2 km/h
1839 26-02-2018 09:10:00 -5.9 C 2.46 g/m*3 -5.9 C 4.8 km/h
1840 26-02-2018 09:15:00 -5.6 C 2.48 g/m*3 -9.35 C 8.1 km/h
1841 26-02-2018 09:20:00 -5.4 C 2.45 g/m*3 -8.42 C 6.4 km/h
1842 26-02-2018 09:25:00 -5.3 C 2.47 g/m*3 -9 C 8.1 km/h
1843 26-02-2018 09:30:00 -5.2 C 2.45 g/m*3 -10.33 C 12.9 km/h
1844 26-02-2018 09:35:00 -5.1 C 2.47 g/m*3 -10.21 C 12.9 km/h
1845 26-02-2018 09:40:00 -5 C 2.49 g/m*3 -9.19 C 9.7 km/h
1846 26-02-2018 09:45:00 -4.9 C 2.5 g/m*3 -9.55 C 11.3 km/h
1847 26-02-2018 09:50:00 -4.9 C 2.5 g/m*3 -10.69 C 16.1 km/h
1848 26-02-2018 09:55:00 -4.9 C 2.5 g/m*3 -9.07 C 9.7 km/h
1849 26-02-2018 10:00:00 -4.8 C 2.52 g/m*3 -10.88 C 17.7 km/h
1850 26-02-2018 10:05:00 -4.8 C 2.52 g/m*3 -9.43 C 11.3 km/h
Sensor: Nr:Datum:Temp:Abs-Feuchte:Windchill:Wind:
Aussen-T/F 1851 26-02-2018 10:10:00 -4.8 C 2.56 g/m*3 -9.43 C 11.3 km/h
1852 26-02-2018 10:15:00 -4.7 C 2.54 g/m*3 -9.72 C 12.9 km/h
1853 26-02-2018 10:20:00 -4.4 C 2.56 g/m*3 -8.95 C 11.3 km/h
1854 26-02-2018 10:25:00 -4.3 C 2.54 g/m*3 -7.82 C 8.1 km/h
1855 26-02-2018 10:30:00 -4.1 C 2.54 g/m*3 -6.92 C 6.4 km/h
1856 26-02-2018 10:35:00 -3.8 C 2.56 g/m*3 -7.24 C 8.1 km/h
1857 26-02-2018 10:40:00 -3.6 C 2.52 g/m*3 -7.53 C 9.7 km/h
1858 26-02-2018 10:45:00 -3.3 C 2.46 g/m*3 -8.38 C 14.5 km/h
1859 26-02-2018 10:50:00 -3 C 2.47 g/m*3 -8.34 C 16.1 km/h
1860 26-02-2018 10:55:00 -2.8 C 2.51 g/m*3 -8.09 C 16.1 km/h
1861 26-02-2018 11:00:00 -2.9 C 2.41 g/m*3 -9.04 C 20.9 km/h
1862 26-02-2018 11:05:00 -3.1 C 2.38 g/m*3 -9.99 C 25.7 km/h
1863 26-02-2018 11:10:00 -3.2 C 2.36 g/m*3 -10.12 C 25.7 km/h
1864 26-02-2018 11:15:00 -3.2 C 2.4 g/m*3 -8.26 C 14.5 km/h
1865 26-02-2018 11:20:00 -3.2 C 2.44 g/m*3 -8.58 C 16.1 km/h
1866 26-02-2018 11:25:00 -3.2 C 2.44 g/m*3 -8.58 C 16.1 km/h
1867 26-02-2018 11:30:00 -3.1 C 2.42 g/m*3 -7.38 C 11.3 km/h
1868 26-02-2018 11:35:00 -3.1 C 2.34 g/m*3 -8.46 C 16.1 km/h
1869 26-02-2018 11:40:00 -2.9 C 2.33 g/m*3 -8.79 C 19.3 km/h
1870 26-02-2018 11:45:00 -2.6 C 2.38 g/m*3 -9.56 C 27.4 km/h
1871 26-02-2018 11:50:00 -2.7 C 2.69 g/m*3 -9.47 C 25.7 km/h
1872 26-02-2018 11:55:00 -3.1 C 2.69 g/m*3 -9.99 C 25.7 km/h
1873 26-02-2018 12:00:00 -3.2 C 2.63 g/m*3 -9.16 C 19.3 km/h
1874 26-02-2018 12:05:00 -3.3 C 2.61 g/m*3 -10.03 C 24.1 km/h
1875 26-02-2018 12:10:00 -3.3 C 2.61 g/m*3 -8.02 C 12.9 km/h
Sensor: Nr:Datum:Temp:Abs-Feuchte:Windchill:Wind:
Aussen-T/F 1876 26-02-2018 12:15:00 -3.3 C 2.58 g/m*3 -8.02 C 12.9 km/h
1877 26-02-2018 12:20:00 -3.1 C 2.5 g/m*3 -8.13 C 14.5 km/h
1878 26-02-2018 12:25:00 -2.8 C 2.43 g/m*3 -8.66 C 19.3 km/h
1879 26-02-2018 12:30:00 -2.7 C 2.33 g/m*3 -10.06 C 30.6 km/h
1880 26-02-2018 12:35:00 -2.6 C 2.3 g/m*3 -8.66 C 20.9 km/h
1881 26-02-2018 12:40:00 -2.3 C 2.31 g/m*3 -7.76 C 17.7 km/h
1882 26-02-2018 12:45:00 -2 C 2.36 g/m*3 -6.05 C 11.3 km/h
1883 26-02-2018 12:50:00 -2.1 C 2.34 g/m*3 -7.22 C 16.1 km/h
1884 26-02-2018 12:55:00 -2.2 C 2.37 g/m*3 -8.62 C 24.1 km/h
1885 26-02-2018 13:00:00 -2.1 C 2.34 g/m*3 -8.27 C 22.5 km/h
1886 26-02-2018 13:05:00 -1.9 C 2.33 g/m*3 -6.66 C 14.5 km/h
1887 26-02-2018 13:10:00 -1.8 C 2.35 g/m*3 -7.14 C 17.7 km/h
1888 26-02-2018 13:15:00 -1.9 C 2.33 g/m*3 -6.66 C 14.5 km/h
1889 26-02-2018 13:20:00 -1.9 C 2.38 g/m*3 -7.26 C 17.7 km/h
1890 26-02-2018 13:25:00 -1.9 C 2.38 g/m*3 -7.78 C 20.9 km/h
1891 26-02-2018 13:30:00 -2 C 2.4 g/m*3 -7.9 C 20.9 km/h
1892 26-02-2018 13:35:00 -2 C 2.49 g/m*3 -7.1 C 16.1 km/h
1893 26-02-2018 13:40:00 -2.1 C 2.6 g/m*3 -8.27 C 22.5 km/h
1894 26-02-2018 13:45:00 -2.2 C 2.58 g/m*3 -7.91 C 19.3 km/h
1895 26-02-2018 13:50:00 -2.2 C 2.58 g/m*3 -8.39 C 22.5 km/h
1896 26-02-2018 13:55:00 -2.3 C 2.48 g/m*3 -7.76 C 17.7 km/h
1897 26-02-2018 14:00:00 -2.2 C 2.49 g/m*3 -7.34 C 16.1 km/h
1898 26-02-2018 14:05:00 -2 C 2.44 g/m*3 -8.36 C 24.1 km/h
1899 26-02-2018 14:10:00 -1.8 C 2.44 g/m*3 -7.65 C 20.9 km/h
1900 26-02-2018 14:15:00 -1.7 C 2.45 g/m*3 -4.77 C 8.1 km/h
Sensor: Nr:Datum:Temp:Abs-Feuchte:Windchill:Wind:
Aussen-T/F 1901 26-02-2018 14:20:00 -1.4 C 2.37 g/m*3 -6.04 C 14.5 km/h
1902 26-02-2018 14:25:00 -1.4 C 2.29 g/m*3 -7.59 C 24.1 km/h
1903 26-02-2018 14:30:00 -1.4 C 2.29 g/m*3 -8 C 27.4 km/h
1904 26-02-2018 14:35:00 -1.5 C 2.23 g/m*3 -7.03 C 19.3 km/h
1905 26-02-2018 14:40:00 -1.6 C 2.25 g/m*3 -6.6 C 16.1 km/h
1906 26-02-2018 14:45:00 -1.5 C 2.23 g/m*3 -6.17 C 14.5 km/h
1907 26-02-2018 14:50:00 -1.5 C 2.27 g/m*3 -6.48 C 16.1 km/h
1908 26-02-2018 14:55:00 -1.6 C 2.25 g/m*3 -6.6 C 16.1 km/h
1909 26-02-2018 15:00:00 -1.6 C 2.21 g/m*3 -6.89 C 17.7 km/h
1910 26-02-2018 15:05:00 -1.5 C 2.27 g/m*3 -7.03 C 19.3 km/h
1911 26-02-2018 15:10:00 -1.5 C 2.23 g/m*3 -6.17 C 14.5 km/h
1912 26-02-2018 15:15:00 -1.6 C 2.25 g/m*3 -6.6 C 16.1 km/h
1913 26-02-2018 15:20:00 -1.8 C 2.31 g/m*3 -7.65 C 20.9 km/h
1914 26-02-2018 15:25:00 -1.8 C 2.39 g/m*3 -7.4 C 19.3 km/h
1915 26-02-2018 15:30:00 -1.8 C 2.44 g/m*3 -7.4 C 19.3 km/h
1916 26-02-2018 15:35:00 -1.9 C 2.46 g/m*3 -8.44 C 25.7 km/h
1917 26-02-2018 15:40:00 -2.1 C 2.39 g/m*3 -7.22 C 16.1 km/h
1918 26-02-2018 15:45:00 -2.1 C 2.39 g/m*3 -7.22 C 16.1 km/h
1919 26-02-2018 15:50:00 -2.1 C 2.34 g/m*3 -9.28 C 30.6 km/h
1920 26-02-2018 15:55:00 -2.1 C 2.34 g/m*3 -7.22 C 16.1 km/h
1921 26-02-2018 16:00:00 -2.1 C 2.34 g/m*3 -6.56 C 12.9 km/h
1922 26-02-2018 16:05:00 -2.1 C 2.26 g/m*3 -9.45 C 32.2 km/h
1923 26-02-2018 16:10:00 -2.2 C 2.29 g/m*3 -9.58 C 32.2 km/h
1924 26-02-2018 16:15:00 -2.1 C 2.26 g/m*3 -8.03 C 20.9 km/h
1925 26-02-2018 16:20:00 -2.1 C 2.26 g/m*3 -7.51 C 17.7 km/h
Sensor: Nr:Datum:Temp:Abs-Feuchte:Windchill:Wind:
Aussen-T/F 1926 26-02-2018 16:25:00 -2.1 C 2.22 g/m*3 -7.78 C 19.3 km/h
1927 26-02-2018 16:30:00 -2.1 C 2.18 g/m*3 -8.49 C 24.1 km/h
1928 26-02-2018 16:35:00 -2.2 C 2.12 g/m*3 -8.16 C 20.9 km/h
1929 26-02-2018 16:40:00 -2.2 C 2.16 g/m*3 -8.16 C 20.9 km/h
1930 26-02-2018 16:45:00 -2.3 C 2.15 g/m*3 -8.28 C 20.9 km/h
1931 26-02-2018 16:50:00 -2.2 C 2.16 g/m*3 -8.62 C 24.1 km/h
1932 26-02-2018 16:55:00 -2.1 C 2.22 g/m*3 -6.9 C 14.5 km/h
1933 26-02-2018 17:00:00 -1.8 C 2.22 g/m*3 -8.1 C 24.1 km/h
1934 26-02-2018 17:05:00 -1.9 C 2.25 g/m*3 -7.53 C 19.3 km/h
1935 26-02-2018 17:10:00 -2 C 2.19 g/m*3 -8.14 C 22.5 km/h
1936 26-02-2018 17:15:00 -2.1 C 2.18 g/m*3 -6.56 C 12.9 km/h
1937 26-02-2018 17:20:00 -2.1 C 2.13 g/m*3 -6.56 C 12.9 km/h
1938 26-02-2018 17:25:00 -2.2 C 2.16 g/m*3 -7.34 C 16.1 km/h
1939 26-02-2018 17:30:00 -2.2 C 2.2 g/m*3 -6.68 C 12.9 km/h
1940 26-02-2018 17:35:00 -2.3 C 2.31 g/m*3 -7.76 C 17.7 km/h
1941 26-02-2018 17:40:00 -2.4 C 2.34 g/m*3 -7.27 C 14.5 km/h
1942 26-02-2018 17:45:00 -2.6 C 2.26 g/m*3 -7.84 C 16.1 km/h
1943 26-02-2018 17:50:00 -2.6 C 2.3 g/m*3 -6.33 C 9.7 km/h
1944 26-02-2018 17:55:00 -2.6 C 2.3 g/m*3 -7.17 C 12.9 km/h
1945 26-02-2018 18:00:00 -2.7 C 2.29 g/m*3 -7.29 C 12.9 km/h
1946 26-02-2018 18:05:00 -2.7 C 2.25 g/m*3 -6.45 C 9.7 km/h
1947 26-02-2018 18:10:00 -2.8 C 2.23 g/m*3 -7.76 C 14.5 km/h
1948 26-02-2018 18:15:00 -2.8 C 2.23 g/m*3 -7.76 C 14.5 km/h
1949 26-02-2018 18:20:00 -2.8 C 2.27 g/m*3 -7.02 C 11.3 km/h
1950 26-02-2018 18:25:00 -2.9 C 2.29 g/m*3 -5.53 C 6.4 km/h
Sensor: Nr:Datum:Temp:Abs-Feuchte:Windchill:Wind:
Aussen-T/F 1951 26-02-2018 18:30:00 -2.9 C 2.29 g/m*3 -7.53 C 12.9 km/h
1952 26-02-2018 18:35:00 -2.9 C 2.33 g/m*3 -7.14 C 11.3 km/h
1953 26-02-2018 18:40:00 -2.9 C 2.41 g/m*3 -7.53 C 12.9 km/h
1954 26-02-2018 18:45:00 -3 C 2.4 g/m*3 -7.26 C 11.3 km/h
1955 26-02-2018 18:50:00 -3.1 C 2.46 g/m*3 -6.41 C 8.1 km/h
1956 26-02-2018 18:55:00 -3.2 C 2.44 g/m*3 -3.2 C 4.8 km/h
1957 26-02-2018 19:00:00 -3.4 C 2.44 g/m*3 -3.4 C 4.8 km/h
1958 26-02-2018 19:05:00 -3.5 C 2.43 g/m*3 -3.5 C 1.6 km/h
1959 26-02-2018 19:10:00 -3.6 C 2.45 g/m*3 -3.6 C 3.2 km/h
1960 26-02-2018 19:15:00 -3.6 C 2.48 g/m*3 -3.6 C 0 km/h
1961 26-02-2018 19:20:00 -3.7 C 2.47 g/m*3 -3.7 C 1.6 km/h
1962 26-02-2018 19:25:00 -3.7 C 2.5 g/m*3 -3.7 C 3.2 km/h
1963 26-02-2018 19:30:00 -3.8 C 2.52 g/m*3 -3.8 C 1.6 km/h
1964 26-02-2018 19:35:00 -3.8 C 2.52 g/m*3 -3.8 C 0 km/h
1965 26-02-2018 19:40:00 -3.8 C 2.52 g/m*3 -3.8 C 3.2 km/h
1966 26-02-2018 19:45:00 -3.7 C 2.54 g/m*3 -9.51 C 17.7 km/h
1967 26-02-2018 19:50:00 -3.6 C 2.6 g/m*3 -7 C 8.1 km/h
1968 26-02-2018 19:55:00 -3.5 C 2.62 g/m*3 -7.41 C 9.7 km/h
1969 26-02-2018 20:00:00 -3.5 C 2.65 g/m*3 -7.86 C 11.3 km/h
1970 26-02-2018 20:05:00 -3.6 C 2.63 g/m*3 -6.34 C 6.4 km/h
1971 26-02-2018 20:10:00 -3.7 C 2.62 g/m*3 -3.7 C 0 km/h
1972 26-02-2018 20:15:00 -3.8 C 2.63 g/m*3 -3.8 C 4.8 km/h
1973 26-02-2018 20:20:00 -3.9 C 2.62 g/m*3 -3.9 C 1.6 km/h
1974 26-02-2018 20:25:00 -4.1 C 2.62 g/m*3 -4.1 C 3.2 km/h
1975 26-02-2018 20:30:00 -4.2 C 2.63 g/m*3 -4.2 C 0 km/h
Sensor: Nr:Datum:Temp:Abs-Feuchte:Windchill:Wind:
Aussen-T/F 1976 26-02-2018 20:35:00 -4.2 C 2.67 g/m*3 -4.2 C 1.6 km/h
1977 26-02-2018 20:40:00 -4.3 C 2.65 g/m*3 -4.3 C 0 km/h
1978 26-02-2018 20:45:00 -4.3 C 2.65 g/m*3 -4.3 C 3.2 km/h
1979 26-02-2018 20:50:00 -4.3 C 2.69 g/m*3 -4.3 C 1.6 km/h
1980 26-02-2018 20:55:00 -4.3 C 2.69 g/m*3 -4.3 C 3.2 km/h
1981 26-02-2018 21:00:00 -4.2 C 2.67 g/m*3 -4.2 C 3.2 km/h
1982 26-02-2018 21:05:00 -4.1 C 2.65 g/m*3 -7.59 C 8.1 km/h
1983 26-02-2018 21:10:00 -3.9 C 2.69 g/m*3 -6.69 C 6.4 km/h
1984 26-02-2018 21:15:00 -3.8 C 2.63 g/m*3 -7.76 C 9.7 km/h
1985 26-02-2018 21:20:00 -3.7 C 2.65 g/m*3 -3.7 C 4.8 km/h
1986 26-02-2018 21:25:00 -3.7 C 2.62 g/m*3 -7.12 C 8.1 km/h
1987 26-02-2018 21:30:00 -3.7 C 2.62 g/m*3 -7.64 C 9.7 km/h
1988 26-02-2018 21:35:00 -3.6 C 2.63 g/m*3 -6.34 C 6.4 km/h
1989 26-02-2018 21:40:00 -3.6 C 2.6 g/m*3 -7 C 8.1 km/h
1990 26-02-2018 21:45:00 -3.5 C 2.62 g/m*3 -6.88 C 8.1 km/h
1991 26-02-2018 21:50:00 -3.5 C 2.62 g/m*3 -7.41 C 9.7 km/h
1992 26-02-2018 21:55:00 -3.5 C 2.62 g/m*3 -7.41 C 9.7 km/h
1993 26-02-2018 22:00:00 -3.5 C 2.62 g/m*3 -6.88 C 8.1 km/h
1994 26-02-2018 22:05:00 -3.5 C 2.62 g/m*3 -6.88 C 8.1 km/h
1995 26-02-2018 22:10:00 -3.5 C 2.62 g/m*3 -6.22 C 6.4 km/h
1996 26-02-2018 22:15:00 -3.5 C 2.62 g/m*3 -6.22 C 6.4 km/h
1997 26-02-2018 22:20:00 -3.5 C 2.62 g/m*3 -8.26 C 12.9 km/h
1998 26-02-2018 22:25:00 -3.5 C 2.65 g/m*3 -7.41 C 9.7 km/h
1999 26-02-2018 22:30:00 -3.5 C 2.65 g/m*3 -7.41 C 9.7 km/h
2000 26-02-2018 22:35:00 -3.6 C 2.67 g/m*3 -7.98 C 11.3 km/h
Sensor: Nr:Datum:Temp:Abs-Feuchte:Windchill:Wind:
Aussen-T/F 2001 26-02-2018 22:40:00 -3.6 C 2.71 g/m*3 -7.53 C 9.7 km/h
2002 26-02-2018 22:45:00 -3.6 C 2.75 g/m*3 -7.53 C 9.7 km/h
2003 26-02-2018 22:50:00 -3.6 C 2.75 g/m*3 -8.38 C 12.9 km/h
2004 26-02-2018 22:55:00 -3.6 C 2.79 g/m*3 -7.53 C 9.7 km/h
2005 26-02-2018 23:00:00 -3.7 C 2.8 g/m*3 -8.1 C 11.3 km/h
2006 26-02-2018 23:05:00 -3.7 C 2.84 g/m*3 -8.1 C 11.3 km/h
2007 26-02-2018 23:10:00 -3.8 C 2.93 g/m*3 -7.76 C 9.7 km/h
2008 26-02-2018 23:15:00 -3.9 C 2.95 g/m*3 -7.35 C 8.1 km/h
2009 26-02-2018 23:20:00 -4 C 3 g/m*3 -7.47 C 8.1 km/h
2010 26-02-2018 23:25:00 -4.1 C 3.01 g/m*3 -4.1 C 3.2 km/h
2011 26-02-2018 23:30:00 -4.1 C 3.05 g/m*3 -4.1 C 4.8 km/h
2012 26-02-2018 23:35:00 -4.2 C 3.07 g/m*3 -4.2 C 1.6 km/h
2013 26-02-2018 23:40:00 -4.2 C 3.07 g/m*3 -4.2 C 1.6 km/h
2014 26-02-2018 23:45:00 -4.2 C 3.07 g/m*3 -4.2 C 1.6 km/h
2015 26-02-2018 23:50:00 -4.2 C 3.1 g/m*3 -4.2 C 0 km/h
2016 26-02-2018 23:55:00 -4.2 C 3.1 g/m*3 -4.2 C 0 km/h
2017 27-02-2018 00:00:00 -4.3 C 3.08 g/m*3 -4.3 C 1.6 km/h
2018 27-02-2018 00:05:00 -4.3 C 3.08 g/m*3 -4.3 C 1.6 km/h
2019 27-02-2018 00:10:00 -4.3 C 3.12 g/m*3 -4.3 C 0 km/h
2020 27-02-2018 00:15:00 -4.3 C 3.12 g/m*3 -4.3 C 0 km/h
2021 27-02-2018 00:20:00 -4.3 C 3.12 g/m*3 -4.3 C 0 km/h
2022 27-02-2018 00:25:00 -4.4 C 3.09 g/m*3 -4.4 C 0 km/h
2023 27-02-2018 00:30:00 -4.4 C 3.09 g/m*3 -4.4 C 1.6 km/h
2024 27-02-2018 00:35:00 -4.4 C 3.13 g/m*3 -4.4 C 0 km/h
2025 27-02-2018 00:40:00 -4.4 C 3.13 g/m*3 -4.4 C 0 km/h
Sensor: Nr:Datum:Temp:Abs-Feuchte:Windchill:Wind:
Aussen-T/F 2026 27-02-2018 00:45:00 -4.5 C 3.11 g/m*3 -4.5 C 3.2 km/h
2027 27-02-2018 00:50:00 -4.6 C 3.12 g/m*3 -4.6 C 3.2 km/h
2028 27-02-2018 00:55:00 -4.6 C 3.12 g/m*3 -4.6 C 1.6 km/h
2029 27-02-2018 01:00:00 -4.7 C 3.1 g/m*3 -4.7 C 0 km/h
2030 27-02-2018 01:05:00 -4.7 C 3.1 g/m*3 -4.7 C 0 km/h
2031 27-02-2018 01:10:00 -4.7 C 3.1 g/m*3 -4.7 C 0 km/h
2032 27-02-2018 01:15:00 -4.8 C 3.07 g/m*3 -4.8 C 0 km/h
2033 27-02-2018 01:20:00 -4.8 C 3.07 g/m*3 -4.8 C 0 km/h
2034 27-02-2018 01:25:00 -4.9 C 3.05 g/m*3 -4.9 C 0 km/h
2035 27-02-2018 01:30:00 -4.9 C 3.05 g/m*3 -4.9 C 0 km/h
2036 27-02-2018 01:35:00 -5 C 3.06 g/m*3 -5 C 0 km/h
2037 27-02-2018 01:40:00 -5 C 3.06 g/m*3 -5 C 0 km/h
2038 27-02-2018 01:45:00 -5.1 C 3.04 g/m*3 -5.1 C 0 km/h
2039 27-02-2018 01:50:00 -5.1 C 3.04 g/m*3 -5.1 C 0 km/h
2040 27-02-2018 01:55:00 -5.1 C 3.04 g/m*3 -5.1 C 0 km/h
2041 27-02-2018 02:00:00 -5.1 C 3.08 g/m*3 -5.1 C 0 km/h
2042 27-02-2018 02:05:00 -5 C 3.1 g/m*3 -5 C 1.6 km/h
2043 27-02-2018 02:10:00 -4.9 C 3.12 g/m*3 -4.9 C 1.6 km/h
2044 27-02-2018 02:15:00 -4.9 C 3.12 g/m*3 -4.9 C 1.6 km/h
2045 27-02-2018 02:20:00 -4.9 C 3.12 g/m*3 -4.9 C 1.6 km/h
2046 27-02-2018 02:25:00 -4.9 C 3.12 g/m*3 -4.9 C 3.2 km/h
2047 27-02-2018 02:30:00 -4.9 C 3.09 g/m*3 -4.9 C 0 km/h
2048 27-02-2018 02:35:00 -4.9 C 3.09 g/m*3 -4.9 C 0 km/h
2049 27-02-2018 02:40:00 -5 C 3.06 g/m*3 -5 C 0 km/h
2050 27-02-2018 02:45:00 -5.1 C 3.01 g/m*3 -10.21 C 12.9 km/h
Sensor: Nr:Datum:Temp:Abs-Feuchte:Windchill:Wind:
Aussen-T/F 2051 27-02-2018 02:50:00 -5.1 C 3.01 g/m*3 -5.1 C 1.6 km/h
2052 27-02-2018 02:55:00 -5.2 C 2.99 g/m*3 -8.19 C 6.4 km/h
2053 27-02-2018 03:00:00 -5.2 C 2.99 g/m*3 -8.88 C 8.1 km/h
2054 27-02-2018 03:05:00 -5.2 C 2.95 g/m*3 -9.91 C 11.3 km/h
2055 27-02-2018 03:10:00 -5.2 C 2.92 g/m*3 -10.72 C 14.5 km/h
2056 27-02-2018 03:15:00 -5.2 C 2.92 g/m*3 -10.72 C 14.5 km/h
2057 27-02-2018 03:20:00 -5.1 C 2.94 g/m*3 -10.21 C 12.9 km/h
2058 27-02-2018 03:25:00 -5.1 C 2.97 g/m*3 -10.94 C 16.1 km/h
2059 27-02-2018 03:30:00 -5.2 C 2.95 g/m*3 -10.72 C 14.5 km/h
2060 27-02-2018 03:35:00 -5.2 C 2.95 g/m*3 -8.19 C 6.4 km/h
2061 27-02-2018 03:40:00 -5.3 C 2.93 g/m*3 -10.03 C 11.3 km/h
2062 27-02-2018 03:45:00 -5.4 C 2.88 g/m*3 -10.15 C 11.3 km/h
2063 27-02-2018 03:50:00 -5.5 C 2.89 g/m*3 -5.5 C 3.2 km/h
2064 27-02-2018 03:55:00 -5.7 C 2.82 g/m*3 -5.7 C 1.6 km/h
2065 27-02-2018 04:00:00 -5.8 C 2.76 g/m*3 -5.8 C 4.8 km/h
2066 27-02-2018 04:05:00 -5.9 C 2.74 g/m*3 -5.9 C 0 km/h
2067 27-02-2018 04:10:00 -6.3 C 2.63 g/m*3 -6.3 C 4.8 km/h
2068 27-02-2018 04:15:00 -6.5 C 2.6 g/m*3 -6.5 C 3.2 km/h
2069 27-02-2018 04:20:00 -6.7 C 2.53 g/m*3 -10.65 C 8.1 km/h
2070 27-02-2018 04:25:00 -6.9 C 2.49 g/m*3 -6.9 C 3.2 km/h
2071 27-02-2018 04:30:00 -7.2 C 2.44 g/m*3 -7.2 C 1.6 km/h
2072 27-02-2018 04:35:00 -7.4 C 2.4 g/m*3 -7.4 C 1.6 km/h
2073 27-02-2018 04:40:00 -7.7 C 2.35 g/m*3 -7.7 C 1.6 km/h
2074 27-02-2018 04:45:00 -7.8 C 2.36 g/m*3 -7.8 C 1.6 km/h
2075 27-02-2018 04:50:00 -7.9 C 2.34 g/m*3 -7.9 C 3.2 km/h
Sensor: Nr:Datum:Temp:Abs-Feuchte:Windchill:Wind:
Aussen-T/F 2076 27-02-2018 04:55:00 -8.2 C 2.26 g/m*3 -8.2 C 1.6 km/h
2077 27-02-2018 05:00:00 -8.3 C 2.27 g/m*3 -8.3 C 1.6 km/h
2078 27-02-2018 05:05:00 -8.4 C 2.26 g/m*3 -8.4 C 0 km/h
2079 27-02-2018 05:10:00 -8.6 C 2.22 g/m*3 -8.6 C 0 km/h
2080 27-02-2018 05:15:00 -8.6 C 2.22 g/m*3 -8.6 C 3.2 km/h
2081 27-02-2018 05:20:00 -8.6 C 2.25 g/m*3 -8.6 C 0 km/h
2082 27-02-2018 05:25:00 -8.7 C 2.23 g/m*3 -8.7 C 1.6 km/h
2083 27-02-2018 05:30:00 -8.7 C 2.23 g/m*3 -8.7 C 0 km/h
2084 27-02-2018 05:35:00 -8.8 C 2.19 g/m*3 -8.8 C 3.2 km/h
2085 27-02-2018 05:40:00 -8.8 C 2.19 g/m*3 -8.8 C 3.2 km/h
2086 27-02-2018 05:45:00 -8.9 C 2.2 g/m*3 -8.9 C 1.6 km/h
2087 27-02-2018 05:50:00 -9 C 2.16 g/m*3 -9 C 1.6 km/h
2088 27-02-2018 05:55:00 -9 C 2.16 g/m*3 -9 C 1.6 km/h
2089 27-02-2018 06:00:00 -9.1 C 2.14 g/m*3 -9.1 C 3.2 km/h
2090 27-02-2018 06:05:00 -9.1 C 2.14 g/m*3 -9.1 C 1.6 km/h
2091 27-02-2018 06:10:00 -9.2 C 2.15 g/m*3 -9.2 C 1.6 km/h
2092 27-02-2018 06:15:00 -9.2 C 2.13 g/m*3 -9.2 C 0 km/h
2093 27-02-2018 06:20:00 -9.4 C 2.09 g/m*3 -9.4 C 1.6 km/h
2094 27-02-2018 06:25:00 -9.6 C 2.06 g/m*3 -9.6 C 0 km/h
2095 27-02-2018 06:30:00 -9.7 C 2.05 g/m*3 -9.7 C 0 km/h
2096 27-02-2018 06:35:00 -9.8 C 2.03 g/m*3 -9.8 C 0 km/h
2097 27-02-2018 06:40:00 -9.8 C 2.06 g/m*3 -9.8 C 0 km/h
2098 27-02-2018 06:45:00 -9.9 C 2.04 g/m*3 -9.9 C 0 km/h
2099 27-02-2018 06:50:00 -9.9 C 2.04 g/m*3 -9.9 C 0 km/h
2100 27-02-2018 06:55:00 -9.9 C 2.04 g/m*3 -9.9 C 0 km/h
Sensor: Nr:Datum:Temp:Abs-Feuchte:Windchill:Wind:
Aussen-T/F 2101 27-02-2018 07:00:00 -9.9 C 2.04 g/m*3 -9.9 C 0 km/h
2102 27-02-2018 07:05:00 -10.1 C 2.01 g/m*3 -10.1 C 0 km/h
2103 27-02-2018 07:10:00 -10.2 C 2 g/m*3 -10.2 C 0 km/h
2104 27-02-2018 07:15:00 -10.3 C 1.98 g/m*3 -10.3 C 0 km/h
2105 27-02-2018 07:20:00 -10.3 C 1.98 g/m*3 -10.3 C 0 km/h
2106 27-02-2018 07:25:00 -10.4 C 1.97 g/m*3 -10.4 C 0 km/h
2107 27-02-2018 07:30:00 -10.3 C 2 g/m*3 -10.3 C 0 km/h
2108 27-02-2018 07:35:00 -10.3 C 2 g/m*3 -10.3 C 0 km/h
2109 27-02-2018 07:40:00 -10.2 C 2.02 g/m*3 -10.2 C 0 km/h
2110 27-02-2018 07:45:00 -10.1 C 2.06 g/m*3 -10.1 C 0 km/h
2111 27-02-2018 07:50:00 -10 C 2.05 g/m*3 -10 C 0 km/h
2112 27-02-2018 07:55:00 -9.9 C 2.06 g/m*3 -9.9 C 0 km/h
2113 27-02-2018 08:00:00 -9.9 C 2.06 g/m*3 -9.9 C 0 km/h
2114 27-02-2018 08:05:00 -9.8 C 2.08 g/m*3 -9.8 C 1.6 km/h
2115 27-02-2018 08:10:00 -9.7 C 2.1 g/m*3 -9.7 C 1.6 km/h
2116 27-02-2018 08:15:00 -9.6 C 2.11 g/m*3 -9.6 C 1.6 km/h
2117 27-02-2018 08:20:00 -9.5 C 2.1 g/m*3 -9.5 C 3.2 km/h
2118 27-02-2018 08:25:00 -9.4 C 2.12 g/m*3 -9.4 C 1.6 km/h
2119 27-02-2018 08:30:00 -9.3 C 2.14 g/m*3 -9.3 C 1.6 km/h
2120 27-02-2018 08:35:00 -9.3 C 2.14 g/m*3 -9.3 C 3.2 km/h
2121 27-02-2018 08:40:00 -9.2 C 2.15 g/m*3 -9.2 C 3.2 km/h
2122 27-02-2018 08:45:00 -9.1 C 2.17 g/m*3 -9.1 C 1.6 km/h
2123 27-02-2018 08:50:00 -9.1 C 2.14 g/m*3 -9.1 C 0 km/h
2124 27-02-2018 08:55:00 -9.1 C 2.14 g/m*3 -9.1 C 1.6 km/h
2125 27-02-2018 09:00:00 -9.1 C 2.14 g/m*3 -9.1 C 3.2 km/h
Sensor: Nr:Datum:Temp:Abs-Feuchte:Windchill:Wind:
Aussen-T/F 2126 27-02-2018 09:05:00 -9 C 2.16 g/m*3 -9 C 4.8 km/h
2127 27-02-2018 09:10:00 -8.9 C 2.17 g/m*3 -8.9 C 3.2 km/h
2128 27-02-2018 09:15:00 -8.8 C 2.16 g/m*3 -8.8 C 3.2 km/h
2129 27-02-2018 09:20:00 -8.7 C 2.18 g/m*3 -8.7 C 4.8 km/h
2130 27-02-2018 09:25:00 -8.7 C 2.15 g/m*3 -12.23 C 6.4 km/h
2131 27-02-2018 09:30:00 -8.5 C 2.19 g/m*3 -8.5 C 4.8 km/h
2132 27-02-2018 09:35:00 -8.4 C 2.18 g/m*3 -8.4 C 3.2 km/h
2133 27-02-2018 09:40:00 -8.4 C 2.15 g/m*3 -12.64 C 8.1 km/h
2134 27-02-2018 09:45:00 -8.2 C 2.16 g/m*3 -13.99 C 12.9 km/h
2135 27-02-2018 09:50:00 -7.9 C 2.18 g/m*3 -12.06 C 8.1 km/h
2136 27-02-2018 09:55:00 -7.8 C 2.16 g/m*3 -11.94 C 8.1 km/h
2137 27-02-2018 10:00:00 -7.8 C 2.11 g/m*3 -13.05 C 11.3 km/h
2138 27-02-2018 10:05:00 -7.7 C 2.07 g/m*3 -11.08 C 6.4 km/h
2139 27-02-2018 10:10:00 -7.6 C 2.06 g/m*3 -12.8 C 11.3 km/h
2140 27-02-2018 10:15:00 -7.5 C 2.07 g/m*3 -7.5 C 4.8 km/h
2141 27-02-2018 10:20:00 -7.4 C 2.06 g/m*3 -11.47 C 8.1 km/h
2142 27-02-2018 10:25:00 -7.2 C 2.09 g/m*3 -13.18 C 14.5 km/h
2143 27-02-2018 10:30:00 -7.1 C 2.02 g/m*3 -13.05 C 14.5 km/h
2144 27-02-2018 10:35:00 -6.9 C 2.05 g/m*3 -12.41 C 12.9 km/h
2145 27-02-2018 10:40:00 -6.8 C 2.03 g/m*3 -11.84 C 11.3 km/h
2146 27-02-2018 10:45:00 -6.8 C 2.06 g/m*3 -10.04 C 6.4 km/h
2147 27-02-2018 10:50:00 -6.7 C 2.02 g/m*3 -12.16 C 12.9 km/h
2148 27-02-2018 10:55:00 -6.5 C 2.02 g/m*3 -11.92 C 12.9 km/h
2149 27-02-2018 11:00:00 -6.4 C 1.97 g/m*3 -12.19 C 14.5 km/h
2150 27-02-2018 11:05:00 -6.3 C 1.98 g/m*3 -11.24 C 11.3 km/h
Sensor: Nr:Datum:Temp:Abs-Feuchte:Windchill:Wind:
Aussen-T/F 2151 27-02-2018 11:10:00 -6.2 C 2.03 g/m*3 -11.12 C 11.3 km/h
2152 27-02-2018 11:15:00 -6.1 C 2.04 g/m*3 -11.43 C 12.9 km/h
2153 27-02-2018 11:20:00 -5.9 C 2.01 g/m*3 -5.9 C 4.8 km/h
2154 27-02-2018 11:25:00 -5.8 C 1.96 g/m*3 -11.81 C 16.1 km/h
2155 27-02-2018 11:30:00 -5.8 C 1.99 g/m*3 -13.23 C 24.1 km/h
2156 27-02-2018 11:35:00 -5.8 C 1.93 g/m*3 -12.44 C 19.3 km/h
2157 27-02-2018 11:40:00 -5.8 C 1.96 g/m*3 -11.81 C 16.1 km/h
2158 27-02-2018 11:45:00 -5.7 C 1.94 g/m*3 -12.01 C 17.7 km/h
2159 27-02-2018 11:50:00 -5.6 C 2.02 g/m*3 -10.39 C 11.3 km/h
2160 27-02-2018 11:55:00 -5.5 C 2.04 g/m*3 -5.5 C 3.2 km/h
2161 27-02-2018 12:00:00 -5.3 C 1.97 g/m*3 -10.03 C 11.3 km/h
2162 27-02-2018 12:05:00 -5.2 C 1.98 g/m*3 -11.06 C 16.1 km/h
2163 27-02-2018 12:10:00 -5.2 C 1.95 g/m*3 -10.33 C 12.9 km/h
2164 27-02-2018 12:15:00 -5.1 C 1.96 g/m*3 -11.26 C 17.7 km/h
2165 27-02-2018 12:20:00 -4.9 C 2.02 g/m*3 -9.55 C 11.3 km/h
2166 27-02-2018 12:25:00 -4.8 C 2 g/m*3 -9.43 C 11.3 km/h
2167 27-02-2018 12:30:00 -4.7 C 2.02 g/m*3 -9.72 C 12.9 km/h
2168 27-02-2018 12:35:00 -4.6 C 1.96 g/m*3 -10.63 C 17.7 km/h
2169 27-02-2018 12:40:00 -4.5 C 1.98 g/m*3 -7.38 C 6.4 km/h
2170 27-02-2018 12:45:00 -4.5 C 1.94 g/m*3 -9.07 C 11.3 km/h
2171 27-02-2018 12:50:00 -4.5 C 1.94 g/m*3 -8.6 C 9.7 km/h
2172 27-02-2018 12:55:00 -4.4 C 1.92 g/m*3 -7.94 C 8.1 km/h
2173 27-02-2018 13:00:00 -4.3 C 1.97 g/m*3 -9.61 C 14.5 km/h
2174 27-02-2018 13:05:00 -4.3 C 1.93 g/m*3 -9.95 C 16.1 km/h
2175 27-02-2018 13:10:00 -4.2 C 1.95 g/m*3 -9.12 C 12.9 km/h
Sensor: Nr:Datum:Temp:Abs-Feuchte:Windchill:Wind:
Aussen-T/F 2176 27-02-2018 13:15:00 -3.9 C 1.99 g/m*3 -7.35 C 8.1 km/h
2177 27-02-2018 13:20:00 -3.8 C 1.93 g/m*3 -8.63 C 12.9 km/h
2178 27-02-2018 13:25:00 -3.8 C 1.93 g/m*3 -8.99 C 14.5 km/h
2179 27-02-2018 13:30:00 -3.7 C 1.87 g/m*3 -8.87 C 14.5 km/h
2180 27-02-2018 13:35:00 -3.6 C 1.84 g/m*3 -9.38 C 17.7 km/h
2181 27-02-2018 13:40:00 -3.4 C 1.91 g/m*3 -7.29 C 9.7 km/h
2182 27-02-2018 13:45:00 -3.3 C 1.88 g/m*3 -8.71 C 16.1 km/h
2183 27-02-2018 13:50:00 -3.3 C 1.88 g/m*3 -7.62 C 11.3 km/h
2184 27-02-2018 13:55:00 -3.2 C 1.94 g/m*3 -6.53 C 8.1 km/h
2185 27-02-2018 14:00:00 -2.9 C 1.94 g/m*3 -5.53 C 6.4 km/h
2186 27-02-2018 14:05:00 -2.8 C 1.91 g/m*3 -7.02 C 11.3 km/h
2187 27-02-2018 14:10:00 -2.9 C 1.86 g/m*3 -8.21 C 16.1 km/h
2188 27-02-2018 14:15:00 -3.1 C 1.79 g/m*3 -7.38 C 11.3 km/h
2189 27-02-2018 14:20:00 -3.1 C 1.79 g/m*3 -6.93 C 9.7 km/h
2190 27-02-2018 14:25:00 -3.2 C 1.78 g/m*3 -8.58 C 16.1 km/h
2191 27-02-2018 14:30:00 -3.3 C 1.85 g/m*3 -7.17 C 9.7 km/h
2192 27-02-2018 14:35:00 -3.2 C 1.78 g/m*3 -8.26 C 14.5 km/h
2193 27-02-2018 14:40:00 -3.2 C 1.78 g/m*3 -7.9 C 12.9 km/h
2194 27-02-2018 14:45:00 -3.1 C 1.87 g/m*3 -6.41 C 8.1 km/h
2195 27-02-2018 14:50:00 -3.1 C 1.79 g/m*3 -9.3 C 20.9 km/h
2196 27-02-2018 14:55:00 -3.1 C 1.83 g/m*3 -8.46 C 16.1 km/h
2197 27-02-2018 15:00:00 -3.1 C 1.76 g/m*3 -9.04 C 19.3 km/h
2198 27-02-2018 15:05:00 -3 C 1.81 g/m*3 -8.34 C 16.1 km/h
2199 27-02-2018 15:10:00 -2.9 C 1.78 g/m*3 -9.29 C 22.5 km/h
2200 27-02-2018 15:15:00 -2.9 C 1.78 g/m*3 -9.04 C 20.9 km/h
Sensor: Nr:Datum:Temp:Abs-Feuchte:Windchill:Wind:
Aussen-T/F 2201 27-02-2018 15:20:00 -2.9 C 1.86 g/m*3 -7.89 C 14.5 km/h
2202 27-02-2018 15:25:00 -2.9 C 1.82 g/m*3 -8.51 C 17.7 km/h
2203 27-02-2018 15:30:00 -2.8 C 1.83 g/m*3 -10.01 C 29 km/h
2204 27-02-2018 15:35:00 -2.7 C 1.85 g/m*3 -7.64 C 14.5 km/h
2205 27-02-2018 15:40:00 -2.7 C 1.85 g/m*3 -8.53 C 19.3 km/h
2206 27-02-2018 15:45:00 -2.6 C 1.86 g/m*3 -6.77 C 11.3 km/h
2207 27-02-2018 15:50:00 -2.6 C 1.78 g/m*3 -7.84 C 16.1 km/h
2208 27-02-2018 15:55:00 -2.6 C 1.9 g/m*3 -7.84 C 16.1 km/h
2209 27-02-2018 16:00:00 -2.5 C 1.91 g/m*3 -6.65 C 11.3 km/h
2210 27-02-2018 16:05:00 -2.5 C 1.83 g/m*3 -6.65 C 11.3 km/h
2211 27-02-2018 16:10:00 -2.5 C 1.79 g/m*3 -7.4 C 14.5 km/h
2212 27-02-2018 16:15:00 -2.5 C 1.83 g/m*3 -8.01 C 17.7 km/h
2213 27-02-2018 16:20:00 -2.5 C 1.83 g/m*3 -7.72 C 16.1 km/h
2214 27-02-2018 16:25:00 -2.4 C 1.84 g/m*3 -8.65 C 22.5 km/h
2215 27-02-2018 16:30:00 -2.3 C 1.9 g/m*3 -7.76 C 17.7 km/h
2216 27-02-2018 16:35:00 -2.3 C 1.86 g/m*3 -6.8 C 12.9 km/h
2217 27-02-2018 16:40:00 -2.3 C 1.86 g/m*3 -6.41 C 11.3 km/h
2218 27-02-2018 16:45:00 -2.3 C 1.9 g/m*3 -7.15 C 14.5 km/h
2219 27-02-2018 16:50:00 -2.3 C 1.86 g/m*3 -7.15 C 14.5 km/h
2220 27-02-2018 16:55:00 -2.2 C 1.87 g/m*3 -7.34 C 16.1 km/h
2221 27-02-2018 17:00:00 -2.2 C 1.87 g/m*3 -7.34 C 16.1 km/h
2222 27-02-2018 17:05:00 -2.3 C 1.94 g/m*3 -6.41 C 11.3 km/h
2223 27-02-2018 17:10:00 -2.3 C 1.9 g/m*3 -8.28 C 20.9 km/h
2224 27-02-2018 17:15:00 -2.3 C 1.9 g/m*3 -6.41 C 11.3 km/h
2225 27-02-2018 17:20:00 -2.2 C 1.95 g/m*3 -6.29 C 11.3 km/h
Sensor: Nr:Datum:Temp:Abs-Feuchte:Windchill:Wind:
Aussen-T/F 2226 27-02-2018 17:25:00 -2.1 C 1.88 g/m*3 -2.1 C 4.8 km/h
2227 27-02-2018 17:30:00 -2 C 1.9 g/m*3 -7.1 C 16.1 km/h
2228 27-02-2018 17:35:00 -2.1 C 1.88 g/m*3 -6.9 C 14.5 km/h
2229 27-02-2018 17:40:00 -2.1 C 1.88 g/m*3 -5.74 C 9.7 km/h
2230 27-02-2018 17:45:00 -2.1 C 1.93 g/m*3 -2.1 C 4.8 km/h
2231 27-02-2018 17:50:00 -2.3 C 1.94 g/m*3 -5.98 C 9.7 km/h
2232 27-02-2018 17:55:00 -2.5 C 2.03 g/m*3 -5.71 C 8.1 km/h
2233 27-02-2018 18:00:00 -2.8 C 1.91 g/m*3 -6.06 C 8.1 km/h
2234 27-02-2018 18:05:00 -3.1 C 2.03 g/m*3 -3.1 C 4.8 km/h
2235 27-02-2018 18:10:00 -3.3 C 2.04 g/m*3 -3.3 C 4.8 km/h
2236 27-02-2018 18:15:00 -3.6 C 2.11 g/m*3 -3.6 C 1.6 km/h
2237 27-02-2018 18:20:00 -3.9 C 2.1 g/m*3 -3.9 C 3.2 km/h
2238 27-02-2018 18:25:00 -4.2 C 2.09 g/m*3 -4.2 C 1.6 km/h
2239 27-02-2018 18:30:00 -4.4 C 2.17 g/m*3 -4.4 C 4.8 km/h
2240 27-02-2018 18:35:00 -4.6 C 2.21 g/m*3 -4.6 C 3.2 km/h
2241 27-02-2018 18:40:00 -4.8 C 2.21 g/m*3 -4.8 C 1.6 km/h
2242 27-02-2018 18:45:00 -4.9 C 2.16 g/m*3 -4.9 C 3.2 km/h
2243 27-02-2018 18:50:00 -5.1 C 2.2 g/m*3 -5.1 C 1.6 km/h
2244 27-02-2018 18:55:00 -5.2 C 2.28 g/m*3 -5.2 C 0 km/h
2245 27-02-2018 19:00:00 -5.3 C 2.23 g/m*3 -5.3 C 0 km/h
2246 27-02-2018 19:05:00 -5.4 C 2.25 g/m*3 -5.4 C 3.2 km/h
2247 27-02-2018 19:10:00 -5.4 C 2.28 g/m*3 -5.4 C 1.6 km/h
2248 27-02-2018 19:15:00 -5.6 C 2.25 g/m*3 -5.6 C 3.2 km/h
2249 27-02-2018 19:20:00 -5.7 C 2.27 g/m*3 -5.7 C 3.2 km/h
2250 27-02-2018 19:25:00 -5.8 C 2.25 g/m*3 -5.8 C 1.6 km/h
Sensor: Nr:Datum:Temp:Abs-Feuchte:Windchill:Wind:
Aussen-T/F 2251 27-02-2018 19:30:00 -5.8 C 2.28 g/m*3 -5.8 C 3.2 km/h
2252 27-02-2018 19:35:00 -5.9 C 2.27 g/m*3 -5.9 C 0 km/h
2253 27-02-2018 19:40:00 -6 C 2.25 g/m*3 -6 C 0 km/h
2254 27-02-2018 19:45:00 -6.1 C 2.2 g/m*3 -6.1 C 0 km/h
2255 27-02-2018 19:50:00 -6.1 C 2.23 g/m*3 -6.1 C 0 km/h
2256 27-02-2018 19:55:00 -6.2 C 2.22 g/m*3 -6.2 C 0 km/h
2257 27-02-2018 20:00:00 -6.2 C 2.25 g/m*3 -6.2 C 0 km/h
2258 27-02-2018 20:05:00 -6.2 C 2.25 g/m*3 -6.2 C 3.2 km/h
2259 27-02-2018 20:10:00 -6.3 C 2.17 g/m*3 -6.3 C 3.2 km/h
2260 27-02-2018 20:15:00 -6.3 C 2.17 g/m*3 -6.3 C 3.2 km/h
2261 27-02-2018 20:20:00 -6.3 C 2.2 g/m*3 -6.3 C 3.2 km/h
2262 27-02-2018 20:25:00 -6.3 C 2.17 g/m*3 -6.3 C 4.8 km/h
2263 27-02-2018 20:30:00 -6.4 C 2.15 g/m*3 -6.4 C 4.8 km/h
2264 27-02-2018 20:35:00 -6.4 C 2.12 g/m*3 -6.4 C 4.8 km/h
2265 27-02-2018 20:40:00 -6.4 C 2.12 g/m*3 -6.4 C 4.8 km/h
2266 27-02-2018 20:45:00 -6.6 C 2.06 g/m*3 -6.6 C 4.8 km/h
2267 27-02-2018 20:50:00 -6.6 C 2 g/m*3 -6.6 C 4.8 km/h
2268 27-02-2018 20:55:00 -6.7 C 2.05 g/m*3 -6.7 C 4.8 km/h
2269 27-02-2018 21:00:00 -6.8 C 2 g/m*3 -6.8 C 4.8 km/h
2270 27-02-2018 21:05:00 -6.8 C 2.03 g/m*3 -6.8 C 4.8 km/h
2271 27-02-2018 21:10:00 -6.9 C 2.02 g/m*3 -6.9 C 4.8 km/h
2272 27-02-2018 21:15:00 -7.1 C 1.99 g/m*3 -7.1 C 4.8 km/h
2273 27-02-2018 21:20:00 -7.1 C 1.99 g/m*3 -7.1 C 4.8 km/h
2274 27-02-2018 21:25:00 -7.1 C 1.99 g/m*3 -7.1 C 4.8 km/h
2275 27-02-2018 21:30:00 -7.1 C 2.02 g/m*3 -10.38 C 6.4 km/h
Sensor: Nr:Datum:Temp:Abs-Feuchte:Windchill:Wind:
Aussen-T/F 2276 27-02-2018 21:35:00 -7.1 C 1.96 g/m*3 -10.38 C 6.4 km/h
2277 27-02-2018 21:40:00 -7.1 C 2.02 g/m*3 -7.1 C 1.6 km/h
2278 27-02-2018 21:45:00 -7.1 C 2.07 g/m*3 -7.1 C 4.8 km/h
2279 27-02-2018 21:50:00 -7.2 C 2.03 g/m*3 -10.5 C 6.4 km/h
2280 27-02-2018 21:55:00 -7.2 C 2.03 g/m*3 -7.2 C 4.8 km/h
2281 27-02-2018 22:00:00 -7.2 C 1.97 g/m*3 -7.2 C 4.8 km/h
2282 27-02-2018 22:05:00 -7.2 C 2 g/m*3 -7.2 C 4.8 km/h
2283 27-02-2018 22:10:00 -7.3 C 2.02 g/m*3 -7.3 C 4.8 km/h
2284 27-02-2018 22:15:00 -7.3 C 2.02 g/m*3 -7.3 C 3.2 km/h
2285 27-02-2018 22:20:00 -7.4 C 2.03 g/m*3 -7.4 C 3.2 km/h
2286 27-02-2018 22:25:00 -7.4 C 2.03 g/m*3 -7.4 C 4.8 km/h
2287 27-02-2018 22:30:00 -7.5 C 1.99 g/m*3 -7.5 C 3.2 km/h
2288 27-02-2018 22:35:00 -7.6 C 1.97 g/m*3 -7.6 C 1.6 km/h
2289 27-02-2018 22:40:00 -7.6 C 1.94 g/m*3 -7.6 C 0 km/h
2290 27-02-2018 22:45:00 -7.7 C 1.96 g/m*3 -7.7 C 0 km/h
2291 27-02-2018 22:50:00 -7.8 C 1.94 g/m*3 -7.8 C 0 km/h
2292 27-02-2018 22:55:00 -7.8 C 1.94 g/m*3 -7.8 C 0 km/h
2293 27-02-2018 23:00:00 -7.9 C 1.93 g/m*3 -7.9 C 0 km/h
2294 27-02-2018 23:05:00 -7.9 C 1.96 g/m*3 -7.9 C 0 km/h
2295 27-02-2018 23:10:00 -8 C 1.94 g/m*3 -8 C 0 km/h
2296 27-02-2018 23:15:00 -8.1 C 1.93 g/m*3 -8.1 C 1.6 km/h
2297 27-02-2018 23:20:00 -8.1 C 1.93 g/m*3 -8.1 C 1.6 km/h
2298 27-02-2018 23:25:00 -8.2 C 1.94 g/m*3 -8.2 C 1.6 km/h
2299 27-02-2018 23:30:00 -8.3 C 1.93 g/m*3 -8.3 C 3.2 km/h
2300 27-02-2018 23:35:00 -8.3 C 1.95 g/m*3 -8.3 C 1.6 km/h
Sensor: Nr:Datum:Temp:Abs-Feuchte:Windchill:Wind:
Aussen-T/F 2301 27-02-2018 23:40:00 -8.3 C 1.95 g/m*3 -8.3 C 3.2 km/h
2302 27-02-2018 23:45:00 -8.3 C 1.95 g/m*3 -8.3 C 4.8 km/h
2303 27-02-2018 23:50:00 -8.4 C 1.94 g/m*3 -8.4 C 3.2 km/h
2304 27-02-2018 23:55:00 -8.4 C 1.94 g/m*3 -8.4 C 3.2 km/h
2305 28-02-2018 00:00:00 -8.4 C 1.96 g/m*3 -8.4 C 3.2 km/h
2306 28-02-2018 00:05:00 -8.4 C 1.96 g/m*3 -8.4 C 3.2 km/h
2307 28-02-2018 00:10:00 -8.4 C 1.96 g/m*3 -8.4 C 1.6 km/h
2308 28-02-2018 00:15:00 -8.3 C 1.98 g/m*3 -8.3 C 3.2 km/h
2309 28-02-2018 00:20:00 -8.3 C 1.98 g/m*3 -8.3 C 0 km/h
2310 28-02-2018 00:25:00 -8.3 C 1.95 g/m*3 -8.3 C 0 km/h
2311 28-02-2018 00:30:00 -8.3 C 1.95 g/m*3 -8.3 C 4.8 km/h
2312 28-02-2018 00:35:00 -8.3 C 1.95 g/m*3 -8.3 C 3.2 km/h
2313 28-02-2018 00:40:00 -8.3 C 1.95 g/m*3 -8.3 C 4.8 km/h
2314 28-02-2018 00:45:00 -8.4 C 1.94 g/m*3 -8.4 C 1.6 km/h
2315 28-02-2018 00:50:00 -8.4 C 1.96 g/m*3 -8.4 C 3.2 km/h
2316 28-02-2018 00:55:00 -8.4 C 1.96 g/m*3 -8.4 C 1.6 km/h
2317 28-02-2018 01:00:00 -8.4 C 1.96 g/m*3 -8.4 C 3.2 km/h
2318 28-02-2018 01:05:00 -8.4 C 1.96 g/m*3 -8.4 C 3.2 km/h
2319 28-02-2018 01:10:00 -8.4 C 1.96 g/m*3 -8.4 C 3.2 km/h
2320 28-02-2018 01:15:00 -8.5 C 1.92 g/m*3 -8.5 C 3.2 km/h
2321 28-02-2018 01:20:00 -8.6 C 1.91 g/m*3 -8.6 C 3.2 km/h
2322 28-02-2018 01:25:00 -8.5 C 1.95 g/m*3 -8.5 C 1.6 km/h
2323 28-02-2018 01:30:00 -8.6 C 1.94 g/m*3 -8.6 C 3.2 km/h
2324 28-02-2018 01:35:00 -8.6 C 1.94 g/m*3 -8.6 C 3.2 km/h
2325 28-02-2018 01:40:00 -8.7 C 1.92 g/m*3 -8.7 C 1.6 km/h
Sensor: Nr:Datum:Temp:Abs-Feuchte:Windchill:Wind:
Aussen-T/F 2326 28-02-2018 01:45:00 -8.7 C 1.92 g/m*3 -8.7 C 4.8 km/h
2327 28-02-2018 01:50:00 -8.7 C 1.92 g/m*3 -8.7 C 3.2 km/h
2328 28-02-2018 01:55:00 -8.8 C 1.91 g/m*3 -8.8 C 3.2 km/h
2329 28-02-2018 02:00:00 -8.8 C 1.91 g/m*3 -8.8 C 3.2 km/h
2330 28-02-2018 02:05:00 -8.8 C 1.91 g/m*3 -8.8 C 3.2 km/h
2331 28-02-2018 02:10:00 -8.8 C 1.93 g/m*3 -8.8 C 3.2 km/h
2332 28-02-2018 02:15:00 -8.9 C 1.89 g/m*3 -8.9 C 4.8 km/h
2333 28-02-2018 02:20:00 -8.9 C 1.89 g/m*3 -8.9 C 3.2 km/h
2334 28-02-2018 02:25:00 -8.9 C 1.89 g/m*3 -8.9 C 4.8 km/h
2335 28-02-2018 02:30:00 -9 C 1.88 g/m*3 -9 C 4.8 km/h
2336 28-02-2018 02:35:00 -9.1 C 1.89 g/m*3 -9.1 C 4.8 km/h
2337 28-02-2018 02:40:00 -9.1 C 1.89 g/m*3 -9.1 C 4.8 km/h
2338 28-02-2018 02:45:00 -9.1 C 1.89 g/m*3 -9.1 C 4.8 km/h
2339 28-02-2018 02:50:00 -9.2 C 1.88 g/m*3 -9.2 C 4.8 km/h
2340 28-02-2018 02:55:00 -9.2 C 1.88 g/m*3 -9.2 C 4.8 km/h
2341 28-02-2018 03:00:00 -9.3 C 1.86 g/m*3 -9.3 C 4.8 km/h
2342 28-02-2018 03:05:00 -9.3 C 1.89 g/m*3 -9.3 C 4.8 km/h
2343 28-02-2018 03:10:00 -9.2 C 1.9 g/m*3 -9.2 C 4.8 km/h
2344 28-02-2018 03:15:00 -9.2 C 1.88 g/m*3 -9.2 C 3.2 km/h
2345 28-02-2018 03:20:00 -9.2 C 1.88 g/m*3 -9.2 C 3.2 km/h
2346 28-02-2018 03:25:00 -9.2 C 1.88 g/m*3 -9.2 C 4.8 km/h
2347 28-02-2018 03:30:00 -9.2 C 1.88 g/m*3 -9.2 C 4.8 km/h
2348 28-02-2018 03:35:00 -9.3 C 1.86 g/m*3 -9.3 C 4.8 km/h
2349 28-02-2018 03:40:00 -9.2 C 1.88 g/m*3 -9.2 C 4.8 km/h
2350 28-02-2018 03:45:00 -9.2 C 1.88 g/m*3 -9.2 C 4.8 km/h
Sensor: Nr:Datum:Temp:Abs-Feuchte:Windchill:Wind:
Aussen-T/F 2351 28-02-2018 03:50:00 -9.3 C 1.86 g/m*3 -9.3 C 3.2 km/h
2352 28-02-2018 03:55:00 -9.2 C 1.88 g/m*3 -9.2 C 3.2 km/h
2353 28-02-2018 04:00:00 -9.2 C 1.88 g/m*3 -12.81 C 6.4 km/h
2354 28-02-2018 04:05:00 -9.3 C 1.86 g/m*3 -9.3 C 4.8 km/h
2355 28-02-2018 04:10:00 -9.3 C 1.86 g/m*3 -9.3 C 3.2 km/h
2356 28-02-2018 04:15:00 -9.3 C 1.89 g/m*3 -9.3 C 3.2 km/h
2357 28-02-2018 04:20:00 -9.4 C 1.87 g/m*3 -9.4 C 4.8 km/h
2358 28-02-2018 04:25:00 -9.4 C 1.87 g/m*3 -9.4 C 4.8 km/h
2359 28-02-2018 04:30:00 -9.5 C 1.86 g/m*3 -9.5 C 4.8 km/h
2360 28-02-2018 04:35:00 -9.5 C 1.86 g/m*3 -9.5 C 3.2 km/h
2361 28-02-2018 04:40:00 -9.5 C 1.86 g/m*3 -9.5 C 4.8 km/h
2362 28-02-2018 04:45:00 -9.6 C 1.84 g/m*3 -9.6 C 0 km/h
2363 28-02-2018 04:50:00 -9.6 C 1.87 g/m*3 -9.6 C 3.2 km/h
2364 28-02-2018 04:55:00 -9.5 C 1.88 g/m*3 -9.5 C 3.2 km/h
2365 28-02-2018 05:00:00 -9.5 C 1.88 g/m*3 -9.5 C 3.2 km/h
2366 28-02-2018 05:05:00 -9.6 C 1.87 g/m*3 -9.6 C 4.8 km/h
2367 28-02-2018 05:10:00 -9.6 C 1.87 g/m*3 -9.6 C 3.2 km/h
2368 28-02-2018 05:15:00 -9.6 C 1.87 g/m*3 -9.6 C 0 km/h
2369 28-02-2018 05:20:00 -9.6 C 1.89 g/m*3 -9.6 C 0 km/h
2370 28-02-2018 05:25:00 -9.6 C 1.87 g/m*3 -9.6 C 3.2 km/h
2371 28-02-2018 05:30:00 -9.6 C 1.87 g/m*3 -9.6 C 1.6 km/h
2372 28-02-2018 05:35:00 -9.6 C 1.89 g/m*3 -9.6 C 0 km/h
2373 28-02-2018 05:40:00 -9.7 C 1.88 g/m*3 -9.7 C 1.6 km/h
2374 28-02-2018 05:45:00 -9.7 C 1.88 g/m*3 -9.7 C 3.2 km/h
2375 28-02-2018 05:50:00 -9.7 C 1.88 g/m*3 -9.7 C 0 km/h
Sensor: Nr:Datum:Temp:Abs-Feuchte:Windchill:Wind:
Aussen-T/F 2376 28-02-2018 05:55:00 -9.7 C 1.88 g/m*3 -9.7 C 0 km/h
2377 28-02-2018 06:00:00 -9.8 C 1.89 g/m*3 -9.8 C 0 km/h
2378 28-02-2018 06:05:00 -9.8 C 1.89 g/m*3 -9.8 C 3.2 km/h
2379 28-02-2018 06:10:00 -9.8 C 1.89 g/m*3 -9.8 C 1.6 km/h
2380 28-02-2018 06:15:00 -9.9 C 1.87 g/m*3 -9.9 C 3.2 km/h
2381 28-02-2018 06:20:00 -9.9 C 1.87 g/m*3 -9.9 C 1.6 km/h
2382 28-02-2018 06:25:00 -10 C 1.86 g/m*3 -10 C 0 km/h
2383 28-02-2018 06:30:00 -10 C 1.86 g/m*3 -10 C 1.6 km/h
2384 28-02-2018 06:35:00 -10.1 C 1.85 g/m*3 -10.1 C 1.6 km/h
2385 28-02-2018 06:40:00 -10.1 C 1.85 g/m*3 -10.1 C 0 km/h
2386 28-02-2018 06:45:00 -10.1 C 1.85 g/m*3 -10.1 C 1.6 km/h
2387 28-02-2018 06:50:00 -10.1 C 1.85 g/m*3 -10.1 C 0 km/h
2388 28-02-2018 06:55:00 -10.1 C 1.85 g/m*3 -10.1 C 0 km/h
2389 28-02-2018 07:00:00 -10.1 C 1.85 g/m*3 -10.1 C 0 km/h
2390 28-02-2018 07:05:00 -10.1 C 1.85 g/m*3 -10.1 C 0 km/h
2391 28-02-2018 07:10:00 -10.1 C 1.85 g/m*3 -10.1 C 0 km/h
2392 28-02-2018 07:15:00 -10.1 C 1.85 g/m*3 -10.1 C 0 km/h
2393 28-02-2018 07:20:00 -10.1 C 1.85 g/m*3 -10.1 C 1.6 km/h
2394 28-02-2018 07:25:00 -10.1 C 1.85 g/m*3 -10.1 C 3.2 km/h
2395 28-02-2018 07:30:00 -10.1 C 1.85 g/m*3 -10.1 C 1.6 km/h
2396 28-02-2018 07:35:00 -10.1 C 1.85 g/m*3 -10.1 C 0 km/h
2397 28-02-2018 07:40:00 -10.1 C 1.85 g/m*3 -10.1 C 0 km/h
2398 28-02-2018 07:45:00 -10.1 C 1.85 g/m*3 -10.1 C 0 km/h
2399 28-02-2018 07:50:00 -10.1 C 1.85 g/m*3 -10.1 C 0 km/h
2400 28-02-2018 07:55:00 -10 C 1.88 g/m*3 -10 C 3.2 km/h
Sensor: Nr:Datum:Temp:Abs-Feuchte:Windchill:Wind:
Aussen-T/F 2401 28-02-2018 08:00:00 -9.9 C 1.87 g/m*3 -9.9 C 1.6 km/h
2402 28-02-2018 08:05:00 -9.8 C 1.89 g/m*3 -9.8 C 1.6 km/h
2403 28-02-2018 08:10:00 -9.8 C 1.89 g/m*3 -9.8 C 0 km/h
2404 28-02-2018 08:15:00 -9.7 C 1.9 g/m*3 -9.7 C 1.6 km/h
2405 28-02-2018 08:20:00 -9.7 C 1.9 g/m*3 -9.7 C 1.6 km/h
2406 28-02-2018 08:25:00 -9.7 C 1.9 g/m*3 -9.7 C 0 km/h
2407 28-02-2018 08:30:00 -9.6 C 1.92 g/m*3 -9.6 C 0 km/h
2408 28-02-2018 08:35:00 -9.4 C 1.92 g/m*3 -14.97 C 11.3 km/h
2409 28-02-2018 08:40:00 -9.1 C 1.92 g/m*3 -12.69 C 6.4 km/h
2410 28-02-2018 08:45:00 -8.8 C 1.96 g/m*3 -8.8 C 3.2 km/h
2411 28-02-2018 08:50:00 -8.8 C 1.93 g/m*3 -13.12 C 8.1 km/h
2412 28-02-2018 08:55:00 -8.7 C 1.95 g/m*3 -8.7 C 3.2 km/h
2413 28-02-2018 09:00:00 -8.7 C 1.95 g/m*3 -8.7 C 3.2 km/h
2414 28-02-2018 09:05:00 -8.6 C 1.94 g/m*3 -12.88 C 8.1 km/h
2415 28-02-2018 09:10:00 -8.4 C 1.96 g/m*3 -8.4 C 4.8 km/h
2416 28-02-2018 09:15:00 -8.3 C 1.98 g/m*3 -8.3 C 3.2 km/h
2417 28-02-2018 09:20:00 -8.3 C 1.95 g/m*3 -11.77 C 6.4 km/h
2418 28-02-2018 09:25:00 -8.2 C 1.94 g/m*3 -8.2 C 3.2 km/h
2419 28-02-2018 09:30:00 -8.1 C 1.95 g/m*3 -12.29 C 8.1 km/h
2420 28-02-2018 09:35:00 -8.1 C 1.95 g/m*3 -11.54 C 6.4 km/h
2421 28-02-2018 09:40:00 -7.9 C 1.96 g/m*3 -12.06 C 8.1 km/h
2422 28-02-2018 09:45:00 -7.8 C 1.97 g/m*3 -7.8 C 3.2 km/h
2423 28-02-2018 09:50:00 -7.8 C 1.97 g/m*3 -7.8 C 4.8 km/h
2424 28-02-2018 09:55:00 -7.7 C 1.96 g/m*3 -12.41 C 9.7 km/h
2425 28-02-2018 10:00:00 -7.6 C 1.97 g/m*3 -12.29 C 9.7 km/h
Sensor: Nr:Datum:Temp:Abs-Feuchte:Windchill:Wind:
Aussen-T/F 2426 28-02-2018 10:05:00 -7.4 C 1.97 g/m*3 -13.42 C 14.5 km/h
2427 28-02-2018 10:10:00 -7.3 C 1.99 g/m*3 -10.61 C 6.4 km/h
2428 28-02-2018 10:15:00 -7.3 C 1.96 g/m*3 -10.61 C 6.4 km/h
2429 28-02-2018 10:20:00 -7.2 C 1.97 g/m*3 -7.2 C 3.2 km/h
2430 28-02-2018 10:25:00 -7.1 C 1.99 g/m*3 -11.7 C 9.7 km/h
2431 28-02-2018 10:30:00 -6.9 C 1.96 g/m*3 -12.81 C 14.5 km/h
2432 28-02-2018 10:35:00 -6.9 C 1.96 g/m*3 -11.46 C 9.7 km/h
2433 28-02-2018 10:40:00 -6.8 C 1.97 g/m*3 -13.38 C 17.7 km/h
2434 28-02-2018 10:45:00 -6.7 C 1.99 g/m*3 -6.7 C 4.8 km/h
2435 28-02-2018 10:50:00 -6.6 C 1.97 g/m*3 -11.1 C 9.7 km/h
2436 28-02-2018 10:55:00 -6.5 C 1.98 g/m*3 -10.98 C 9.7 km/h
2437 28-02-2018 11:00:00 -6.4 C 1.97 g/m*3 -12.88 C 17.7 km/h
2438 28-02-2018 11:05:00 -6.3 C 1.98 g/m*3 -12.07 C 14.5 km/h
2439 28-02-2018 11:10:00 -6.2 C 2 g/m*3 -10.06 C 8.1 km/h
2440 28-02-2018 11:15:00 -6 C 2 g/m*3 -9.82 C 8.1 km/h
2441 28-02-2018 11:20:00 -5.9 C 2.01 g/m*3 -10.27 C 9.7 km/h
2442 28-02-2018 11:25:00 -5.8 C 1.96 g/m*3 -10.63 C 11.3 km/h
2443 28-02-2018 11:30:00 -5.7 C 2.04 g/m*3 -11.33 C 14.5 km/h
2444 28-02-2018 11:35:00 -5.6 C 1.99 g/m*3 -9.91 C 9.7 km/h
2445 28-02-2018 11:40:00 -5.5 C 2 g/m*3 -9.24 C 8.1 km/h
2446 28-02-2018 11:45:00 -5.4 C 2.02 g/m*3 -10.15 C 11.3 km/h
2447 28-02-2018 11:50:00 -5.3 C 1.97 g/m*3 -9.55 C 9.7 km/h
2448 28-02-2018 11:55:00 -5.3 C 2 g/m*3 -10.03 C 11.3 km/h
2449 28-02-2018 12:00:00 -5.2 C 1.98 g/m*3 -11.06 C 16.1 km/h
2450 28-02-2018 12:05:00 -5.1 C 1.99 g/m*3 -9.79 C 11.3 km/h
Sensor: Nr:Datum:Temp:Abs-Feuchte:Windchill:Wind:
Aussen-T/F 2451 28-02-2018 12:10:00 -4.9 C 2.02 g/m*3 -9.07 C 9.7 km/h
2452 28-02-2018 12:15:00 -4.8 C 2 g/m*3 -9.43 C 11.3 km/h
2453 28-02-2018 12:20:00 -4.7 C 1.98 g/m*3 -10.44 C 16.1 km/h
2454 28-02-2018 12:25:00 -4.7 C 1.98 g/m*3 -8.84 C 9.7 km/h
2455 28-02-2018 12:30:00 -4.5 C 2.05 g/m*3 -9.86 C 14.5 km/h
2456 28-02-2018 12:35:00 -4.5 C 1.98 g/m*3 -10.8 C 19.3 km/h
2457 28-02-2018 12:40:00 -4.4 C 2.03 g/m*3 -7.94 C 8.1 km/h
2458 28-02-2018 12:45:00 -4.4 C 1.96 g/m*3 -10.07 C 16.1 km/h
2459 28-02-2018 12:50:00 -4.4 C 1.99 g/m*3 -8.95 C 11.3 km/h
2460 28-02-2018 12:55:00 -4.3 C 2.01 g/m*3 -9.61 C 14.5 km/h
2461 28-02-2018 13:00:00 -4.2 C 2.02 g/m*3 -9.12 C 12.9 km/h
2462 28-02-2018 13:05:00 -4 C 2.01 g/m*3 -9.24 C 14.5 km/h
2463 28-02-2018 13:10:00 -3.9 C 2.03 g/m*3 -10.31 C 20.9 km/h
2464 28-02-2018 13:15:00 -3.8 C 2.04 g/m*3 -9.63 C 17.7 km/h
2465 28-02-2018 13:20:00 -3.7 C 2.02 g/m*3 -7.64 C 9.7 km/h
2466 28-02-2018 13:25:00 -3.6 C 1.96 g/m*3 -9.08 C 16.1 km/h
2467 28-02-2018 13:30:00 -3.5 C 1.93 g/m*3 -7.41 C 9.7 km/h
2468 28-02-2018 13:35:00 -3.3 C 1.92 g/m*3 -8.02 C 12.9 km/h
2469 28-02-2018 13:40:00 -3.3 C 1.92 g/m*3 -8.02 C 12.9 km/h
2470 28-02-2018 13:45:00 -3.3 C 1.92 g/m*3 -8.02 C 12.9 km/h
2471 28-02-2018 13:50:00 -3.2 C 1.9 g/m*3 -7.9 C 12.9 km/h
2472 28-02-2018 13:55:00 -3.3 C 1.81 g/m*3 -9.01 C 17.7 km/h
2473 28-02-2018 14:00:00 -3.3 C 1.88 g/m*3 -9.8 C 22.5 km/h
2474 28-02-2018 14:05:00 -3.2 C 1.9 g/m*3 -7.5 C 11.3 km/h
2475 28-02-2018 14:10:00 -3.2 C 1.86 g/m*3 -8.58 C 16.1 km/h
Sensor: Nr:Datum:Temp:Abs-Feuchte:Windchill:Wind:
Aussen-T/F 2476 28-02-2018 14:15:00 -3.3 C 1.85 g/m*3 -9.01 C 17.7 km/h
2477 28-02-2018 14:20:00 -3.3 C 1.88 g/m*3 -7.62 C 11.3 km/h
2478 28-02-2018 14:25:00 -3.3 C 1.92 g/m*3 -7.62 C 11.3 km/h
2479 28-02-2018 14:30:00 -3.3 C 1.85 g/m*3 -8.38 C 14.5 km/h
2480 28-02-2018 14:35:00 -3.3 C 1.88 g/m*3 -7.17 C 9.7 km/h
2481 28-02-2018 14:40:00 -3.2 C 1.9 g/m*3 -8.26 C 14.5 km/h
2482 28-02-2018 14:45:00 -3.1 C 1.91 g/m*3 -8.76 C 17.7 km/h
2483 28-02-2018 14:50:00 -3.1 C 1.91 g/m*3 -8.46 C 16.1 km/h
2484 28-02-2018 14:55:00 -3 C 1.92 g/m*3 -7.26 C 11.3 km/h
2485 28-02-2018 15:00:00 -3 C 1.92 g/m*3 -8.34 C 16.1 km/h
2486 28-02-2018 15:05:00 -3 C 1.89 g/m*3 -7.26 C 11.3 km/h
2487 28-02-2018 15:10:00 -3 C 1.96 g/m*3 -8.34 C 16.1 km/h
2488 28-02-2018 15:15:00 -3 C 1.92 g/m*3 -8.34 C 16.1 km/h
2489 28-02-2018 15:20:00 -2.9 C 1.94 g/m*3 -7.14 C 11.3 km/h
2490 28-02-2018 15:25:00 -2.8 C 1.99 g/m*3 -6.57 C 9.7 km/h
2491 28-02-2018 15:30:00 -2.7 C 2.01 g/m*3 -7.64 C 14.5 km/h
2492 28-02-2018 15:35:00 -2.7 C 2.05 g/m*3 -7.64 C 14.5 km/h
2493 28-02-2018 15:40:00 -2.6 C 2.06 g/m*3 -7.17 C 12.9 km/h
2494 28-02-2018 15:45:00 -2.6 C 2.02 g/m*3 -7.52 C 14.5 km/h
2495 28-02-2018 15:50:00 -2.6 C 2.06 g/m*3 -7.52 C 14.5 km/h
2496 28-02-2018 15:55:00 -2.5 C 2.08 g/m*3 -6.65 C 11.3 km/h
2497 28-02-2018 16:00:00 -2.4 C 2.05 g/m*3 -5.59 C 8.1 km/h
2498 28-02-2018 16:05:00 -2.4 C 2.05 g/m*3 -6.1 C 9.7 km/h
2499 28-02-2018 16:10:00 -2.4 C 2.01 g/m*3 -4.95 C 6.4 km/h
2500 28-02-2018 16:15:00 -2.4 C 2.05 g/m*3 -6.53 C 11.3 km/h
Sensor: Nr:Datum:Temp:Abs-Feuchte:Windchill:Wind:
Aussen-T/F 2501 28-02-2018 16:20:00 -2.4 C 2.01 g/m*3 -6.53 C 11.3 km/h
2502 28-02-2018 16:25:00 -2.6 C 1.98 g/m*3 -8.9 C 22.5 km/h
2503 28-02-2018 16:30:00 -2.7 C 2.05 g/m*3 -7.64 C 14.5 km/h
2504 28-02-2018 16:35:00 -2.6 C 2.06 g/m*3 -7.17 C 12.9 km/h
2505 28-02-2018 16:40:00 -2.7 C 2.01 g/m*3 -8.79 C 20.9 km/h
2506 28-02-2018 16:45:00 -2.9 C 2.06 g/m*3 -7.53 C 12.9 km/h
2507 28-02-2018 16:50:00 -3 C 2 g/m*3 -7.26 C 11.3 km/h
2508 28-02-2018 16:55:00 -3.1 C 2.03 g/m*3 -8.13 C 14.5 km/h
2509 28-02-2018 17:00:00 -3.2 C 2.01 g/m*3 -5.88 C 6.4 km/h
2510 28-02-2018 17:05:00 -3.3 C 2 g/m*3 -6.65 C 8.1 km/h
2511 28-02-2018 17:10:00 -3.4 C 2.06 g/m*3 -6.11 C 6.4 km/h
2512 28-02-2018 17:15:00 -3.4 C 1.99 g/m*3 -7.74 C 11.3 km/h
2513 28-02-2018 17:20:00 -3.4 C 2.02 g/m*3 -3.4 C 4.8 km/h
2514 28-02-2018 17:25:00 -3.4 C 2.02 g/m*3 -7.29 C 9.7 km/h
2515 28-02-2018 17:30:00 -3.4 C 1.99 g/m*3 -7.74 C 11.3 km/h
2516 28-02-2018 17:35:00 -3.4 C 2.02 g/m*3 -3.4 C 4.8 km/h
2517 28-02-2018 17:40:00 -3.4 C 1.99 g/m*3 -7.74 C 11.3 km/h
2518 28-02-2018 17:45:00 -3.6 C 2.03 g/m*3 -3.6 C 4.8 km/h
2519 28-02-2018 17:50:00 -3.6 C 2 g/m*3 -7 C 8.1 km/h
2520 28-02-2018 17:55:00 -3.8 C 2 g/m*3 -6.57 C 6.4 km/h
2521 28-02-2018 18:00:00 -4 C 1.98 g/m*3 -6.8 C 6.4 km/h
2522 28-02-2018 18:05:00 -4.2 C 1.98 g/m*3 -7.03 C 6.4 km/h
2523 28-02-2018 18:10:00 -4.3 C 2.01 g/m*3 -7.82 C 8.1 km/h
2524 28-02-2018 18:15:00 -4.4 C 1.99 g/m*3 -8.48 C 9.7 km/h
2525 28-02-2018 18:20:00 -4.6 C 1.96 g/m*3 -9.6 C 12.9 km/h
Sensor: Nr:Datum:Temp:Abs-Feuchte:Windchill:Wind:
Aussen-T/F 2526 28-02-2018 18:25:00 -4.7 C 1.98 g/m*3 -11.32 C 20.9 km/h
2527 28-02-2018 18:30:00 -4.8 C 2.04 g/m*3 -4.8 C 3.2 km/h
2528 28-02-2018 18:35:00 -4.9 C 1.99 g/m*3 -4.9 C 4.8 km/h
2529 28-02-2018 18:40:00 -5 C 2.01 g/m*3 -5 C 4.8 km/h
2530 28-02-2018 18:45:00 -5.2 C 1.98 g/m*3 -9.43 C 9.7 km/h
2531 28-02-2018 18:50:00 -5.3 C 2.03 g/m*3 -5.3 C 4.8 km/h
2532 28-02-2018 18:55:00 -5.4 C 2.02 g/m*3 -5.4 C 3.2 km/h
2533 28-02-2018 19:00:00 -5.5 C 2 g/m*3 -9.24 C 8.1 km/h
2534 28-02-2018 19:05:00 -5.6 C 2.02 g/m*3 -5.6 C 4.8 km/h
2535 28-02-2018 19:10:00 -5.6 C 2.02 g/m*3 -10.82 C 12.9 km/h
2536 28-02-2018 19:15:00 -5.6 C 2.02 g/m*3 -9.91 C 9.7 km/h
2537 28-02-2018 19:20:00 -5.6 C 2.02 g/m*3 -9.91 C 9.7 km/h
2538 28-02-2018 19:25:00 -5.7 C 2.01 g/m*3 -5.7 C 4.8 km/h
2539 28-02-2018 19:30:00 -5.7 C 2.04 g/m*3 -12.01 C 17.7 km/h
2540 28-02-2018 19:35:00 -5.8 C 2.02 g/m*3 -8.88 C 6.4 km/h
2541 28-02-2018 19:40:00 -5.8 C 2.02 g/m*3 -5.8 C 4.8 km/h
2542 28-02-2018 19:45:00 -5.9 C 2.01 g/m*3 -10.75 C 11.3 km/h
2543 28-02-2018 19:50:00 -5.9 C 2.01 g/m*3 -12.26 C 17.7 km/h
2544 28-02-2018 19:55:00 -5.9 C 2.04 g/m*3 -10.75 C 11.3 km/h
2545 28-02-2018 20:00:00 -5.9 C 2.04 g/m*3 -9 C 6.4 km/h
2546 28-02-2018 20:05:00 -6 C 2 g/m*3 -11.31 C 12.9 km/h
2547 28-02-2018 20:10:00 -6 C 2.03 g/m*3 -10.39 C 9.7 km/h
2548 28-02-2018 20:15:00 -6.1 C 2.04 g/m*3 -9.94 C 8.1 km/h
2549 28-02-2018 20:20:00 -6.2 C 2.03 g/m*3 -11.12 C 11.3 km/h
2550 28-02-2018 20:25:00 -6.2 C 2.03 g/m*3 -6.2 C 4.8 km/h
Sensor: Nr:Datum:Temp:Abs-Feuchte:Windchill:Wind:
Aussen-T/F 2551 28-02-2018 20:30:00 -6.2 C 2.03 g/m*3 -10.06 C 8.1 km/h
2552 28-02-2018 20:35:00 -6.3 C 2.01 g/m*3 -9.46 C 6.4 km/h
2553 28-02-2018 20:40:00 -6.3 C 2.05 g/m*3 -10.74 C 9.7 km/h
2554 28-02-2018 20:45:00 -6.3 C 2.05 g/m*3 -10.74 C 9.7 km/h
2555 28-02-2018 20:50:00 -6.4 C 2.03 g/m*3 -6.4 C 4.8 km/h
2556 28-02-2018 20:55:00 -6.4 C 2.03 g/m*3 -6.4 C 3.2 km/h
2557 28-02-2018 21:00:00 -6.4 C 2.03 g/m*3 -10.29 C 8.1 km/h
2558 28-02-2018 21:05:00 -6.3 C 2.05 g/m*3 -10.74 C 9.7 km/h
2559 28-02-2018 21:10:00 -6.3 C 2.05 g/m*3 -10.18 C 8.1 km/h
2560 28-02-2018 21:15:00 -6.4 C 2.06 g/m*3 -6.4 C 4.8 km/h
2561 28-02-2018 21:20:00 -6.4 C 2.06 g/m*3 -9.57 C 6.4 km/h
2562 28-02-2018 21:25:00 -6.3 C 2.05 g/m*3 -11.24 C 11.3 km/h
2563 28-02-2018 21:30:00 -6.3 C 2.01 g/m*3 -10.74 C 9.7 km/h
2564 28-02-2018 21:35:00 -6.3 C 2.01 g/m*3 -10.74 C 9.7 km/h
2565 28-02-2018 21:40:00 -6.2 C 2.03 g/m*3 -10.06 C 8.1 km/h
2566 28-02-2018 21:45:00 -6.3 C 2.05 g/m*3 -6.3 C 4.8 km/h
2567 28-02-2018 21:50:00 -6.4 C 2.03 g/m*3 -6.4 C 4.8 km/h
2568 28-02-2018 21:55:00 -6.4 C 2.03 g/m*3 -10.29 C 8.1 km/h
2569 28-02-2018 22:00:00 -6.5 C 2.05 g/m*3 -6.5 C 1.6 km/h
2570 28-02-2018 22:05:00 -6.6 C 2.03 g/m*3 -11.1 C 9.7 km/h
2571 28-02-2018 22:10:00 -6.5 C 2.02 g/m*3 -10.41 C 8.1 km/h
2572 28-02-2018 22:15:00 -6.5 C 2.05 g/m*3 -6.5 C 3.2 km/h
2573 28-02-2018 22:20:00 -6.6 C 2.03 g/m*3 -11.1 C 9.7 km/h
2574 28-02-2018 22:25:00 -6.6 C 2.03 g/m*3 -9.81 C 6.4 km/h
2575 28-02-2018 22:30:00 -6.6 C 2 g/m*3 -6.6 C 4.8 km/h
Sensor: Nr:Datum:Temp:Abs-Feuchte:Windchill:Wind:
Aussen-T/F 2576 28-02-2018 22:35:00 -6.6 C 2.03 g/m*3 -9.81 C 6.4 km/h
2577 28-02-2018 22:40:00 -6.5 C 2.02 g/m*3 -11.48 C 11.3 km/h
2578 28-02-2018 22:45:00 -6.4 C 2.03 g/m*3 -10.29 C 8.1 km/h
2579 28-02-2018 22:50:00 -6.4 C 2.03 g/m*3 -10.29 C 8.1 km/h
2580 28-02-2018 22:55:00 -6.4 C 2.03 g/m*3 -6.4 C 3.2 km/h
2581 28-02-2018 23:00:00 -6.4 C 2.03 g/m*3 -6.4 C 3.2 km/h
2582 28-02-2018 23:05:00 -6.5 C 2.02 g/m*3 -9.69 C 6.4 km/h
2583 28-02-2018 23:10:00 -6.5 C 2.02 g/m*3 -6.5 C 4.8 km/h
2584 28-02-2018 23:15:00 -6.4 C 2.03 g/m*3 -6.4 C 3.2 km/h
2585 28-02-2018 23:20:00 -6.4 C 2.06 g/m*3 -11.8 C 12.9 km/h
2586 28-02-2018 23:25:00 -6.4 C 2.06 g/m*3 -6.4 C 4.8 km/h
2587 28-02-2018 23:30:00 -6.5 C 2.05 g/m*3 -6.5 C 3.2 km/h
2588 28-02-2018 23:35:00 -6.6 C 2.06 g/m*3 -6.6 C 3.2 km/h
2589 28-02-2018 23:40:00 -6.6 C 2.03 g/m*3 -6.6 C 1.6 km/h
2590 28-02-2018 23:45:00 -6.6 C 2.06 g/m*3 -12.04 C 12.9 km/h
2591 28-02-2018 23:50:00 -6.6 C 2.03 g/m*3 -6.6 C 1.6 km/h
2592 28-02-2018 23:55:00 -6.5 C 2.05 g/m*3 -9.69 C 6.4 km/h
2593 01-03-2018 00:00:00 -6.4 C 2.03 g/m*3 -6.4 C 3.2 km/h
2594 01-03-2018 00:05:00 -6.5 C 2.05 g/m*3 -10.98 C 9.7 km/h
2595 01-03-2018 00:10:00 -6.5 C 1.98 g/m*3 -10.41 C 8.1 km/h
2596 01-03-2018 00:15:00 -6.5 C 2.02 g/m*3 -6.5 C 3.2 km/h
2597 01-03-2018 00:20:00 -6.6 C 2.06 g/m*3 -6.6 C 3.2 km/h
2598 01-03-2018 00:25:00 -6.7 C 2.02 g/m*3 -6.7 C 1.6 km/h
2599 01-03-2018 00:30:00 -6.8 C 2 g/m*3 -6.8 C 1.6 km/h
2600 01-03-2018 00:35:00 -6.8 C 1.97 g/m*3 -10.04 C 6.4 km/h
Sensor: Nr:Datum:Temp:Abs-Feuchte:Windchill:Wind:
Aussen-T/F 2601 01-03-2018 00:40:00 -6.7 C 1.99 g/m*3 -10.65 C 8.1 km/h
2602 01-03-2018 00:45:00 -6.6 C 2 g/m*3 -6.6 C 4.8 km/h
2603 01-03-2018 00:50:00 -6.6 C 2 g/m*3 -10.53 C 8.1 km/h
2604 01-03-2018 00:55:00 -6.6 C 2 g/m*3 -6.6 C 3.2 km/h
2605 01-03-2018 01:00:00 -6.6 C 1.97 g/m*3 -12.04 C 12.9 km/h
2606 01-03-2018 01:05:00 -6.4 C 2 g/m*3 -13.19 C 19.3 km/h
2607 01-03-2018 01:10:00 -6.3 C 1.98 g/m*3 -11.67 C 12.9 km/h
2608 01-03-2018 01:15:00 -6.3 C 1.98 g/m*3 -6.3 C 4.8 km/h
2609 01-03-2018 01:20:00 -6.2 C 2 g/m*3 -12.3 C 16.1 km/h
2610 01-03-2018 01:25:00 -6.1 C 1.98 g/m*3 -11.43 C 12.9 km/h
2611 01-03-2018 01:30:00 -6 C 2 g/m*3 -12.06 C 16.1 km/h
2612 01-03-2018 01:35:00 -5.9 C 2.01 g/m*3 -5.9 C 4.8 km/h
2613 01-03-2018 01:40:00 -5.9 C 2.01 g/m*3 -5.9 C 3.2 km/h
2614 01-03-2018 01:45:00 -5.9 C 2.01 g/m*3 -10.75 C 11.3 km/h
2615 01-03-2018 01:50:00 -5.9 C 2.01 g/m*3 -5.9 C 4.8 km/h
2616 01-03-2018 01:55:00 -5.8 C 1.99 g/m*3 -11.07 C 12.9 km/h
2617 01-03-2018 02:00:00 -5.8 C 2.02 g/m*3 -5.8 C 4.8 km/h
2618 01-03-2018 02:05:00 -5.8 C 2.02 g/m*3 -9.59 C 8.1 km/h
2619 01-03-2018 02:10:00 -5.8 C 1.99 g/m*3 -9.59 C 8.1 km/h
2620 01-03-2018 02:15:00 -5.8 C 2.02 g/m*3 -9.59 C 8.1 km/h
2621 01-03-2018 02:20:00 -5.8 C 1.99 g/m*3 -10.63 C 11.3 km/h
2622 01-03-2018 02:25:00 -5.8 C 1.99 g/m*3 -11.45 C 14.5 km/h
2623 01-03-2018 02:30:00 -5.8 C 2.02 g/m*3 -8.88 C 6.4 km/h
2624 01-03-2018 02:35:00 -5.8 C 1.99 g/m*3 -8.88 C 6.4 km/h
2625 01-03-2018 02:40:00 -5.8 C 2.02 g/m*3 -5.8 C 4.8 km/h
Sensor: Nr:Datum:Temp:Abs-Feuchte:Windchill:Wind:
Aussen-T/F 2626 01-03-2018 02:45:00 -5.8 C 1.99 g/m*3 -5.8 C 4.8 km/h
2627 01-03-2018 02:50:00 -5.9 C 1.98 g/m*3 -10.75 C 11.3 km/h
2628 01-03-2018 02:55:00 -5.8 C 1.99 g/m*3 -10.63 C 11.3 km/h
2629 01-03-2018 03:00:00 -5.8 C 1.99 g/m*3 -11.45 C 14.5 km/h
2630 01-03-2018 03:05:00 -5.8 C 1.99 g/m*3 -8.88 C 6.4 km/h
2631 01-03-2018 03:10:00 -5.8 C 2.02 g/m*3 -5.8 C 4.8 km/h
2632 01-03-2018 03:15:00 -5.8 C 1.99 g/m*3 -8.88 C 6.4 km/h
2633 01-03-2018 03:20:00 -5.8 C 2.02 g/m*3 -5.8 C 3.2 km/h
2634 01-03-2018 03:25:00 -5.8 C 2.02 g/m*3 -9.59 C 8.1 km/h
2635 01-03-2018 03:30:00 -5.8 C 1.99 g/m*3 -11.45 C 14.5 km/h
2636 01-03-2018 03:35:00 -5.8 C 1.99 g/m*3 -10.15 C 9.7 km/h
2637 01-03-2018 03:40:00 -5.8 C 1.99 g/m*3 -10.63 C 11.3 km/h
2638 01-03-2018 03:45:00 -5.8 C 1.99 g/m*3 -10.63 C 11.3 km/h
2639 01-03-2018 03:50:00 -5.7 C 2.04 g/m*3 -8.77 C 6.4 km/h
2640 01-03-2018 03:55:00 -5.7 C 2.01 g/m*3 -9.47 C 8.1 km/h
2641 01-03-2018 04:00:00 -5.7 C 2.01 g/m*3 -5.7 C 3.2 km/h
2642 01-03-2018 04:05:00 -5.8 C 1.99 g/m*3 -5.8 C 3.2 km/h
2643 01-03-2018 04:10:00 -5.8 C 1.99 g/m*3 -8.88 C 6.4 km/h
2644 01-03-2018 04:15:00 -5.8 C 1.99 g/m*3 -9.59 C 8.1 km/h
2645 01-03-2018 04:20:00 -5.8 C 1.99 g/m*3 -11.45 C 14.5 km/h
2646 01-03-2018 04:25:00 -5.8 C 1.99 g/m*3 -10.63 C 11.3 km/h
2647 01-03-2018 04:30:00 -5.8 C 1.99 g/m*3 -11.07 C 12.9 km/h
2648 01-03-2018 04:35:00 -5.8 C 1.99 g/m*3 -5.8 C 4.8 km/h
2649 01-03-2018 04:40:00 -5.8 C 1.99 g/m*3 -10.63 C 11.3 km/h
2650 01-03-2018 04:45:00 -5.8 C 1.99 g/m*3 -11.81 C 16.1 km/h
Sensor: Nr:Datum:Temp:Abs-Feuchte:Windchill:Wind:
Aussen-T/F 2651 01-03-2018 04:50:00 -5.8 C 1.99 g/m*3 -8.88 C 6.4 km/h
2652 01-03-2018 04:55:00 -5.8 C 2.02 g/m*3 -10.63 C 11.3 km/h
2653 01-03-2018 05:00:00 -5.8 C 2.02 g/m*3 -10.63 C 11.3 km/h
2654 01-03-2018 05:05:00 -5.8 C 2.02 g/m*3 -12.13 C 17.7 km/h
2655 01-03-2018 05:10:00 -5.8 C 1.99 g/m*3 -10.63 C 11.3 km/h
2656 01-03-2018 05:15:00 -5.8 C 2.02 g/m*3 -8.88 C 6.4 km/h
2657 01-03-2018 05:20:00 -5.9 C 2.01 g/m*3 -9 C 6.4 km/h
2658 01-03-2018 05:25:00 -5.9 C 2.01 g/m*3 -10.75 C 11.3 km/h
2659 01-03-2018 05:30:00 -5.9 C 1.98 g/m*3 -9 C 6.4 km/h
2660 01-03-2018 05:35:00 -5.9 C 2.01 g/m*3 -9.71 C 8.1 km/h
2661 01-03-2018 05:40:00 -5.9 C 2.04 g/m*3 -5.9 C 3.2 km/h
2662 01-03-2018 05:45:00 -5.9 C 2.01 g/m*3 -9 C 6.4 km/h
2663 01-03-2018 05:50:00 -5.9 C 2.01 g/m*3 -5.9 C 3.2 km/h
2664 01-03-2018 05:55:00 -5.9 C 2.01 g/m*3 -10.75 C 11.3 km/h
2665 01-03-2018 06:00:00 -5.9 C 2.04 g/m*3 -10.27 C 9.7 km/h
2666 01-03-2018 06:05:00 -5.9 C 2.01 g/m*3 -5.9 C 4.8 km/h
2667 01-03-2018 06:10:00 -5.9 C 2.01 g/m*3 -9 C 6.4 km/h
2668 01-03-2018 06:15:00 -5.8 C 2.02 g/m*3 -5.8 C 3.2 km/h
2669 01-03-2018 06:20:00 -5.8 C 2.02 g/m*3 -8.88 C 6.4 km/h
2670 01-03-2018 06:25:00 -5.8 C 2.06 g/m*3 -11.81 C 16.1 km/h
2671 01-03-2018 06:30:00 -5.7 C 2.04 g/m*3 -8.77 C 6.4 km/h
2672 01-03-2018 06:35:00 -5.7 C 2.07 g/m*3 -8.77 C 6.4 km/h
2673 01-03-2018 06:40:00 -5.7 C 2.01 g/m*3 -10.94 C 12.9 km/h
2674 01-03-2018 06:45:00 -5.7 C 2.04 g/m*3 -10.51 C 11.3 km/h
2675 01-03-2018 06:50:00 -5.7 C 2.04 g/m*3 -10.94 C 12.9 km/h
Sensor: Nr:Datum:Temp:Abs-Feuchte:Windchill:Wind:
Aussen-T/F 2676 01-03-2018 06:55:00 -5.7 C 2.04 g/m*3 -10.03 C 9.7 km/h
2677 01-03-2018 07:00:00 -5.7 C 2.04 g/m*3 -12.59 C 20.9 km/h
2678 01-03-2018 07:05:00 -5.7 C 2.04 g/m*3 -10.94 C 12.9 km/h
2679 01-03-2018 07:10:00 -5.7 C 2.04 g/m*3 -10.51 C 11.3 km/h
2680 01-03-2018 07:15:00 -5.7 C 2.07 g/m*3 -9.47 C 8.1 km/h
2681 01-03-2018 07:20:00 -5.7 C 2.04 g/m*3 -11.68 C 16.1 km/h
2682 01-03-2018 07:25:00 -5.7 C 2.04 g/m*3 -10.51 C 11.3 km/h
2683 01-03-2018 07:30:00 -5.7 C 2.07 g/m*3 -8.77 C 6.4 km/h
2684 01-03-2018 07:35:00 -5.7 C 2.07 g/m*3 -8.77 C 6.4 km/h
2685 01-03-2018 07:40:00 -5.8 C 2.06 g/m*3 -5.8 C 4.8 km/h
2686 01-03-2018 07:45:00 -5.8 C 2.06 g/m*3 -8.88 C 6.4 km/h
2687 01-03-2018 07:50:00 -5.8 C 2.06 g/m*3 -9.59 C 8.1 km/h
2688 01-03-2018 07:55:00 -5.8 C 2.06 g/m*3 -8.88 C 6.4 km/h
2689 01-03-2018 08:00:00 -5.8 C 2.06 g/m*3 -10.15 C 9.7 km/h
2690 01-03-2018 08:05:00 -5.8 C 2.09 g/m*3 -9.59 C 8.1 km/h
2691 01-03-2018 08:10:00 -5.9 C 2.04 g/m*3 -10.27 C 9.7 km/h
2692 01-03-2018 08:15:00 -5.9 C 2.04 g/m*3 -10.27 C 9.7 km/h
2693 01-03-2018 08:20:00 -5.8 C 2.06 g/m*3 -10.63 C 11.3 km/h
2694 01-03-2018 08:25:00 -5.9 C 2.04 g/m*3 -11.58 C 14.5 km/h
2695 01-03-2018 08:30:00 -5.9 C 2.04 g/m*3 -11.93 C 16.1 km/h
2696 01-03-2018 08:35:00 -5.9 C 2.04 g/m*3 -11.19 C 12.9 km/h
2697 01-03-2018 08:40:00 -5.8 C 2.06 g/m*3 -11.07 C 12.9 km/h
2698 01-03-2018 08:45:00 -5.8 C 2.06 g/m*3 -11.07 C 12.9 km/h
2699 01-03-2018 08:50:00 -5.8 C 2.06 g/m*3 -11.07 C 12.9 km/h
2700 01-03-2018 08:55:00 -5.8 C 2.06 g/m*3 -11.07 C 12.9 km/h
Sensor: Nr:Datum:Temp:Abs-Feuchte:Windchill:Wind:
Aussen-T/F 2701 01-03-2018 09:00:00 -5.8 C 2.02 g/m*3 -11.45 C 14.5 km/h
2702 01-03-2018 09:05:00 -5.8 C 2.06 g/m*3 -11.81 C 16.1 km/h
2703 01-03-2018 09:10:00 -5.8 C 2.06 g/m*3 -10.63 C 11.3 km/h
2704 01-03-2018 09:15:00 -5.8 C 2.02 g/m*3 -10.15 C 9.7 km/h
2705 01-03-2018 09:20:00 -5.8 C 2.02 g/m*3 -12.13 C 17.7 km/h
2706 01-03-2018 09:25:00 -5.7 C 2.07 g/m*3 -8.77 C 6.4 km/h
2707 01-03-2018 09:30:00 -5.7 C 2.04 g/m*3 -11.33 C 14.5 km/h
2708 01-03-2018 09:35:00 -5.7 C 2.04 g/m*3 -5.7 C 4.8 km/h
2709 01-03-2018 09:40:00 -5.7 C 2.04 g/m*3 -12.01 C 17.7 km/h
2710 01-03-2018 09:45:00 -5.6 C 2.05 g/m*3 -9.35 C 8.1 km/h
2711 01-03-2018 09:50:00 -5.6 C 2.02 g/m*3 -10.82 C 12.9 km/h
2712 01-03-2018 09:55:00 -5.6 C 2.05 g/m*3 -10.82 C 12.9 km/h
2713 01-03-2018 10:00:00 -5.5 C 2.07 g/m*3 -11.08 C 14.5 km/h
2714 01-03-2018 10:05:00 -5.4 C 2.08 g/m*3 -8.42 C 6.4 km/h
2715 01-03-2018 10:10:00 -5.3 C 2.1 g/m*3 -10.03 C 11.3 km/h
2716 01-03-2018 10:15:00 -5.2 C 2.08 g/m*3 -12.46 C 24.1 km/h
2717 01-03-2018 10:20:00 -5.2 C 2.08 g/m*3 -10.33 C 12.9 km/h
2718 01-03-2018 10:25:00 -5 C 2.08 g/m*3 -11.43 C 19.3 km/h
2719 01-03-2018 10:30:00 -5 C 2.04 g/m*3 -10.82 C 16.1 km/h
2720 01-03-2018 10:35:00 -4.9 C 2.06 g/m*3 -11.01 C 17.7 km/h
2721 01-03-2018 10:40:00 -4.8 C 2.07 g/m*3 -8.41 C 8.1 km/h
2722 01-03-2018 10:45:00 -4.7 C 2.05 g/m*3 -8.3 C 8.1 km/h
2723 01-03-2018 10:50:00 -4.6 C 2.07 g/m*3 -9.6 C 12.9 km/h
2724 01-03-2018 10:55:00 -4.4 C 2.1 g/m*3 -8.95 C 11.3 km/h
2725 01-03-2018 11:00:00 -4.3 C 2.11 g/m*3 -9.61 C 14.5 km/h
Sensor: Nr:Datum:Temp:Abs-Feuchte:Windchill:Wind:
Aussen-T/F 2726 01-03-2018 11:05:00 -4.1 C 2.14 g/m*3 -6.92 C 6.4 km/h
2727 01-03-2018 11:10:00 -3.8 C 2.12 g/m*3 -7.24 C 8.1 km/h
2728 01-03-2018 11:15:00 -3.6 C 2.15 g/m*3 -7 C 8.1 km/h
2729 01-03-2018 11:20:00 -3.4 C 2.14 g/m*3 -7.74 C 11.3 km/h
2730 01-03-2018 11:25:00 -3.3 C 2.11 g/m*3 -9.01 C 17.7 km/h
2731 01-03-2018 11:30:00 -3.3 C 2.11 g/m*3 -9.01 C 17.7 km/h
2732 01-03-2018 11:35:00 -3.3 C 2.11 g/m*3 -8.02 C 12.9 km/h
2733 01-03-2018 11:40:00 -3.1 C 2.15 g/m*3 -7.78 C 12.9 km/h
2734 01-03-2018 11:45:00 -2.9 C 2.14 g/m*3 -7.53 C 12.9 km/h
2735 01-03-2018 11:50:00 -2.8 C 2.11 g/m*3 -8.39 C 17.7 km/h
2736 01-03-2018 11:55:00 -2.7 C 2.09 g/m*3 -6.9 C 11.3 km/h
2737 01-03-2018 12:00:00 -2.6 C 2.1 g/m*3 -7.17 C 12.9 km/h
2738 01-03-2018 12:05:00 -2.4 C 2.09 g/m*3 -8.65 C 22.5 km/h
2739 01-03-2018 12:10:00 -2.2 C 2.12 g/m*3 -5.36 C 8.1 km/h
2740 01-03-2018 12:15:00 -2.1 C 2.18 g/m*3 -5.74 C 9.7 km/h
2741 01-03-2018 12:20:00 -1.9 C 2.08 g/m*3 -7.26 C 17.7 km/h
2742 01-03-2018 12:25:00 -1.8 C 2.14 g/m*3 -6.53 C 14.5 km/h
2743 01-03-2018 12:30:00 -1.7 C 2.11 g/m*3 -7.52 C 20.9 km/h
2744 01-03-2018 12:35:00 -1.6 C 2.08 g/m*3 -6.6 C 16.1 km/h
2745 01-03-2018 12:40:00 -1.4 C 2.15 g/m*3 -6.04 C 14.5 km/h
2746 01-03-2018 12:45:00 -1.2 C 2.18 g/m*3 -4.18 C 8.1 km/h
2747 01-03-2018 12:50:00 -1.1 C 2.11 g/m*3 -4.97 C 11.3 km/h
2748 01-03-2018 12:55:00 -1 C 2.12 g/m*3 -4.85 C 11.3 km/h
2749 01-03-2018 13:00:00 -0.9 C 2.09 g/m*3 -5.73 C 16.1 km/h
2750 01-03-2018 13:05:00 -0.9 C 2.09 g/m*3 -5.43 C 14.5 km/h
Sensor: Nr:Datum:Temp:Abs-Feuchte:Windchill:Wind:
Aussen-T/F 2751 01-03-2018 13:10:00 -0.8 C 2.06 g/m*3 -4.97 C 12.9 km/h
2752 01-03-2018 13:15:00 -0.6 C 2.14 g/m*3 -6.13 C 20.9 km/h
2753 01-03-2018 13:20:00 -0.4 C 2.12 g/m*3 -4.81 C 14.5 km/h
2754 01-03-2018 13:25:00 -0.3 C 2.09 g/m*3 -4.69 C 14.5 km/h
2755 01-03-2018 13:30:00 -0.1 C 2.12 g/m*3 -2.89 C 8.1 km/h
2756 01-03-2018 13:35:00 0.2 C 2.16 g/m*3 -3 C 9.7 km/h
2757 01-03-2018 13:40:00 0.4 C 2.14 g/m*3 -3.83 C 14.5 km/h
2758 01-03-2018 13:45:00 0.6 C 2.12 g/m*3 -4.38 C 19.3 km/h
2759 01-03-2018 13:50:00 0.7 C 2.14 g/m*3 -2.8 C 11.3 km/h
2760 01-03-2018 13:55:00 0.8 C 2.1 g/m*3 -2.67 C 11.3 km/h
2761 01-03-2018 14:00:00 0.9 C 2.06 g/m*3 -3.76 C 17.7 km/h
2762 01-03-2018 14:05:00 1.1 C 2.14 g/m*3 -1.92 C 9.7 km/h
2763 01-03-2018 14:10:00 1.2 C 2.05 g/m*3 -3.63 C 19.3 km/h
2764 01-03-2018 14:15:00 1.2 C 2.05 g/m*3 -3.13 C 16.1 km/h
2765 01-03-2018 14:20:00 1.2 C 2.1 g/m*3 -1.36 C 8.1 km/h
2766 01-03-2018 14:25:00 1.2 C 2 g/m*3 -3.39 C 17.7 km/h
2767 01-03-2018 14:30:00 1.1 C 2.04 g/m*3 -3.75 C 19.3 km/h
2768 01-03-2018 14:35:00 1.1 C 2.04 g/m*3 -2.66 C 12.9 km/h
2769 01-03-2018 14:40:00 1.3 C 2.07 g/m*3 -2.41 C 12.9 km/h
2770 01-03-2018 14:45:00 1.4 C 2.03 g/m*3 -2.29 C 12.9 km/h
2771 01-03-2018 14:50:00 1.4 C 2.03 g/m*3 -3.14 C 17.7 km/h
2772 01-03-2018 14:55:00 1.4 C 2.03 g/m*3 -2.6 C 14.5 km/h
2773 01-03-2018 15:00:00 1.6 C 2.05 g/m*3 -1.33 C 9.7 km/h
2774 01-03-2018 15:05:00 1.6 C 2 g/m*3 -1.33 C 9.7 km/h
2775 01-03-2018 15:10:00 1.6 C 2 g/m*3 -2.05 C 12.9 km/h
Sensor: Nr:Datum:Temp:Abs-Feuchte:Windchill:Wind:
Aussen-T/F 2776 01-03-2018 15:15:00 1.7 C 2.07 g/m*3 -1.21 C 9.7 km/h
2777 01-03-2018 15:20:00 1.7 C 2.01 g/m*3 -1.93 C 12.9 km/h
2778 01-03-2018 15:25:00 1.7 C 2.07 g/m*3 -3.22 C 20.9 km/h
2779 01-03-2018 15:30:00 1.7 C 2.01 g/m*3 -1.93 C 12.9 km/h
2780 01-03-2018 15:35:00 1.8 C 2.03 g/m*3 -2.11 C 14.5 km/h
2781 01-03-2018 15:40:00 1.8 C 1.97 g/m*3 -2.87 C 19.3 km/h
2782 01-03-2018 15:45:00 1.8 C 1.97 g/m*3 -2.38 C 16.1 km/h
2783 01-03-2018 15:50:00 1.8 C 2.03 g/m*3 -1.09 C 9.7 km/h
2784 01-03-2018 15:55:00 1.8 C 2.03 g/m*3 -1.47 C 11.3 km/h
2785 01-03-2018 16:00:00 1.7 C 2.01 g/m*3 -2.23 C 14.5 km/h
2786 01-03-2018 16:05:00 1.7 C 2.01 g/m*3 -1.93 C 12.9 km/h
2787 01-03-2018 16:10:00 1.7 C 2.12 g/m*3 -1.59 C 11.3 km/h
2788 01-03-2018 16:15:00 1.7 C 2.07 g/m*3 -0.77 C 8.1 km/h
2789 01-03-2018 16:20:00 1.7 C 2.07 g/m*3 -1.21 C 9.7 km/h
2790 01-03-2018 16:25:00 1.7 C 2.07 g/m*3 -2.51 C 16.1 km/h
2791 01-03-2018 16:30:00 1.6 C 2.11 g/m*3 -0.33 C 6.4 km/h
2792 01-03-2018 16:35:00 1.6 C 2.05 g/m*3 -2.05 C 12.9 km/h
2793 01-03-2018 16:40:00 1.6 C 2.05 g/m*3 -1.33 C 9.7 km/h
2794 01-03-2018 16:45:00 1.6 C 2.05 g/m*3 -1.71 C 11.3 km/h
2795 01-03-2018 16:50:00 1.6 C 2.05 g/m*3 -1.71 C 11.3 km/h
2796 01-03-2018 16:55:00 1.6 C 2.16 g/m*3 -1.71 C 11.3 km/h
2797 01-03-2018 17:00:00 1.5 C 2.2 g/m*3 -1.01 C 8.1 km/h
2798 01-03-2018 17:05:00 1.4 C 2.19 g/m*3 -2.29 C 12.9 km/h
2799 01-03-2018 17:10:00 1.3 C 2.28 g/m*3 -1.24 C 8.1 km/h
2800 01-03-2018 17:15:00 1.3 C 2.17 g/m*3 -0.68 C 6.4 km/h
Sensor: Nr:Datum:Temp:Abs-Feuchte:Windchill:Wind:
Aussen-T/F 2801 01-03-2018 17:20:00 1.2 C 2.26 g/m*3 -1.36 C 8.1 km/h
2802 01-03-2018 17:25:00 1.2 C 2.26 g/m*3 -0.8 C 6.4 km/h
2803 01-03-2018 17:30:00 1.1 C 2.25 g/m*3 -1.92 C 9.7 km/h
2804 01-03-2018 17:35:00 0.9 C 2.27 g/m*3 -1.71 C 8.1 km/h
2805 01-03-2018 17:40:00 0.9 C 2.27 g/m*3 0.9 C 3.2 km/h
2806 01-03-2018 17:45:00 0.8 C 2.3 g/m*3 -1.26 C 6.4 km/h
2807 01-03-2018 17:50:00 0.7 C 2.29 g/m*3 -1.95 C 8.1 km/h
2808 01-03-2018 17:55:00 0.6 C 2.32 g/m*3 -2.52 C 9.7 km/h
2809 01-03-2018 18:00:00 0.5 C 2.31 g/m*3 -3.39 C 12.9 km/h
2810 01-03-2018 18:05:00 0.4 C 2.34 g/m*3 -1.72 C 6.4 km/h
2811 01-03-2018 18:10:00 0.3 C 2.28 g/m*3 0.3 C 4.8 km/h
2812 01-03-2018 18:15:00 0.3 C 2.32 g/m*3 -2.88 C 9.7 km/h
2813 01-03-2018 18:20:00 0.2 C 2.31 g/m*3 -3.4 C 11.3 km/h
2814 01-03-2018 18:25:00 0.2 C 2.31 g/m*3 -3 C 9.7 km/h
2815 01-03-2018 18:30:00 0.1 C 2.34 g/m*3 -2.65 C 8.1 km/h
2816 01-03-2018 18:35:00 0.1 C 2.34 g/m*3 -3.52 C 11.3 km/h
2817 01-03-2018 18:40:00 0 C 2.37 g/m*3 0 C 4.8 km/h
2818 01-03-2018 18:45:00 0 C 2.42 g/m*3 -2.77 C 8.1 km/h
2819 01-03-2018 18:50:00 -0.1 C 2.36 g/m*3 -2.89 C 8.1 km/h
2820 01-03-2018 18:55:00 -0.1 C 2.36 g/m*3 -2.3 C 6.4 km/h
2821 01-03-2018 19:00:00 -0.2 C 2.34 g/m*3 -2.41 C 6.4 km/h
2822 01-03-2018 19:05:00 -0.2 C 2.34 g/m*3 -3 C 8.1 km/h
2823 01-03-2018 19:10:00 -0.2 C 2.34 g/m*3 -4.24 C 12.9 km/h
2824 01-03-2018 19:15:00 -0.3 C 2.33 g/m*3 -3.59 C 9.7 km/h
2825 01-03-2018 19:20:00 -0.3 C 2.37 g/m*3 -3.12 C 8.1 km/h
Sensor: Nr:Datum:Temp:Abs-Feuchte:Windchill:Wind:
Aussen-T/F 2826 01-03-2018 19:25:00 -0.3 C 2.33 g/m*3 -4.36 C 12.9 km/h
2827 01-03-2018 19:30:00 -0.3 C 2.33 g/m*3 -3.59 C 9.7 km/h
2828 01-03-2018 19:35:00 -0.4 C 2.36 g/m*3 -3.24 C 8.1 km/h
2829 01-03-2018 19:40:00 -0.4 C 2.36 g/m*3 -0.4 C 4.8 km/h
2830 01-03-2018 19:45:00 -0.4 C 2.36 g/m*3 -4.12 C 11.3 km/h
2831 01-03-2018 19:50:00 -0.5 C 2.34 g/m*3 -3.36 C 8.1 km/h
2832 01-03-2018 19:55:00 -0.6 C 2.32 g/m*3 -3.48 C 8.1 km/h
2833 01-03-2018 20:00:00 -0.6 C 2.32 g/m*3 -2.88 C 6.4 km/h
2834 01-03-2018 20:05:00 -0.6 C 2.32 g/m*3 -2.88 C 6.4 km/h
2835 01-03-2018 20:10:00 -0.6 C 2.32 g/m*3 -4.36 C 11.3 km/h
2836 01-03-2018 20:15:00 -0.7 C 2.31 g/m*3 -4.07 C 9.7 km/h
2837 01-03-2018 20:20:00 -0.7 C 2.35 g/m*3 -3.59 C 8.1 km/h
2838 01-03-2018 20:25:00 -0.7 C 2.31 g/m*3 -4.07 C 9.7 km/h
2839 01-03-2018 20:30:00 -0.7 C 2.31 g/m*3 -2.99 C 6.4 km/h
2840 01-03-2018 20:35:00 -0.8 C 2.29 g/m*3 -4.97 C 12.9 km/h
2841 01-03-2018 20:40:00 -0.8 C 2.29 g/m*3 -3.11 C 6.4 km/h
2842 01-03-2018 20:45:00 -0.8 C 2.34 g/m*3 -4.19 C 9.7 km/h
2843 01-03-2018 20:50:00 -0.9 C 2.32 g/m*3 -4.72 C 11.3 km/h
2844 01-03-2018 20:55:00 -0.9 C 2.32 g/m*3 -4.31 C 9.7 km/h
2845 01-03-2018 21:00:00 -1 C 2.31 g/m*3 -4.85 C 11.3 km/h
2846 01-03-2018 21:05:00 -1.1 C 2.29 g/m*3 -6.26 C 17.7 km/h
2847 01-03-2018 21:10:00 -1.1 C 2.29 g/m*3 -5.98 C 16.1 km/h
2848 01-03-2018 21:15:00 -1.1 C 2.24 g/m*3 -5.67 C 14.5 km/h
2849 01-03-2018 21:20:00 -1.1 C 2.29 g/m*3 -3.45 C 6.4 km/h
2850 01-03-2018 21:25:00 -1.2 C 2.32 g/m*3 -6.65 C 19.3 km/h
Sensor: Nr:Datum:Temp:Abs-Feuchte:Windchill:Wind:
Aussen-T/F 2851 01-03-2018 21:30:00 -1.2 C 2.27 g/m*3 -5.8 C 14.5 km/h
2852 01-03-2018 21:35:00 -1.3 C 2.3 g/m*3 -5.92 C 14.5 km/h
2853 01-03-2018 21:40:00 -1.3 C 2.3 g/m*3 -5.58 C 12.9 km/h
2854 01-03-2018 21:45:00 -1.4 C 2.33 g/m*3 -1.4 C 4.8 km/h
2855 01-03-2018 21:50:00 -1.5 C 2.27 g/m*3 -5.83 C 12.9 km/h
2856 01-03-2018 21:55:00 -1.6 C 2.3 g/m*3 -5.57 C 11.3 km/h
2857 01-03-2018 22:00:00 -1.7 C 2.28 g/m*3 -5.26 C 9.7 km/h
2858 01-03-2018 22:05:00 -1.7 C 2.28 g/m*3 -7.01 C 17.7 km/h
2859 01-03-2018 22:10:00 -1.7 C 2.28 g/m*3 -7.28 C 19.3 km/h
2860 01-03-2018 22:15:00 -1.7 C 2.28 g/m*3 -1.7 C 3.2 km/h
2861 01-03-2018 22:20:00 -1.7 C 2.32 g/m*3 -4.77 C 8.1 km/h
2862 01-03-2018 22:25:00 -1.8 C 2.27 g/m*3 -5.81 C 11.3 km/h
2863 01-03-2018 22:30:00 -1.8 C 2.27 g/m*3 -6.19 C 12.9 km/h
2864 01-03-2018 22:35:00 -1.8 C 2.27 g/m*3 -4.89 C 8.1 km/h
2865 01-03-2018 22:40:00 -1.9 C 2.25 g/m*3 -5.93 C 11.3 km/h
2866 01-03-2018 22:45:00 -1.9 C 2.29 g/m*3 -5 C 8.1 km/h
2867 01-03-2018 22:50:00 -1.9 C 2.25 g/m*3 -5.5 C 9.7 km/h
2868 01-03-2018 22:55:00 -2.1 C 2.26 g/m*3 -2.1 C 3.2 km/h
2869 01-03-2018 23:00:00 -2.1 C 2.26 g/m*3 -5.24 C 8.1 km/h
2870 01-03-2018 23:05:00 -2.2 C 2.24 g/m*3 -5.86 C 9.7 km/h
2871 01-03-2018 23:10:00 -2.2 C 2.24 g/m*3 -5.36 C 8.1 km/h
2872 01-03-2018 23:15:00 -2.3 C 2.23 g/m*3 -7.15 C 14.5 km/h
2873 01-03-2018 23:20:00 -2.3 C 2.23 g/m*3 -5.98 C 9.7 km/h
2874 01-03-2018 23:25:00 -2.3 C 2.27 g/m*3 -2.3 C 3.2 km/h
2875 01-03-2018 23:30:00 -2.3 C 2.27 g/m*3 -2.3 C 4.8 km/h
Sensor: Nr:Datum:Temp:Abs-Feuchte:Windchill:Wind:
Aussen-T/F 2876 01-03-2018 23:35:00 -2.4 C 2.25 g/m*3 -6.1 C 9.7 km/h
2877 01-03-2018 23:40:00 -2.4 C 2.25 g/m*3 -4.95 C 6.4 km/h
2878 01-03-2018 23:45:00 -2.5 C 2.24 g/m*3 -5.71 C 8.1 km/h
2879 01-03-2018 23:50:00 -2.6 C 2.22 g/m*3 -6.33 C 9.7 km/h
2880 01-03-2018 23:55:00 -2.6 C 2.22 g/m*3 -5.19 C 6.4 km/h
2881 02-03-2018 00:00:00 -2.6 C 2.22 g/m*3 -2.6 C 3.2 km/h
2882 02-03-2018 00:05:00 -2.6 C 2.22 g/m*3 -5.19 C 6.4 km/h
2883 02-03-2018 00:10:00 -2.6 C 2.26 g/m*3 -2.6 C 3.2 km/h
2884 02-03-2018 00:15:00 -2.7 C 2.25 g/m*3 -2.7 C 3.2 km/h
2885 02-03-2018 00:20:00 -2.7 C 2.25 g/m*3 -7.29 C 12.9 km/h
2886 02-03-2018 00:25:00 -2.7 C 2.25 g/m*3 -6.9 C 11.3 km/h
2887 02-03-2018 00:30:00 -2.7 C 2.25 g/m*3 -2.7 C 3.2 km/h
2888 02-03-2018 00:35:00 -2.7 C 2.29 g/m*3 -2.7 C 4.8 km/h
2889 02-03-2018 00:40:00 -2.7 C 2.25 g/m*3 -2.7 C 4.8 km/h
2890 02-03-2018 00:45:00 -2.7 C 2.25 g/m*3 -5.3 C 6.4 km/h
2891 02-03-2018 00:50:00 -2.7 C 2.29 g/m*3 -5.3 C 6.4 km/h
2892 02-03-2018 00:55:00 -2.7 C 2.25 g/m*3 -2.7 C 3.2 km/h
2893 02-03-2018 01:00:00 -2.8 C 2.23 g/m*3 -2.8 C 4.8 km/h
2894 02-03-2018 01:05:00 -2.8 C 2.23 g/m*3 -6.06 C 8.1 km/h
2895 02-03-2018 01:10:00 -2.8 C 2.23 g/m*3 -2.8 C 1.6 km/h
2896 02-03-2018 01:15:00 -2.8 C 2.23 g/m*3 -5.42 C 6.4 km/h
2897 02-03-2018 01:20:00 -2.8 C 2.23 g/m*3 -6.06 C 8.1 km/h
2898 02-03-2018 01:25:00 -2.8 C 2.27 g/m*3 -6.06 C 8.1 km/h
2899 02-03-2018 01:30:00 -2.8 C 2.23 g/m*3 -6.06 C 8.1 km/h
2900 02-03-2018 01:35:00 -2.9 C 2.25 g/m*3 -5.53 C 6.4 km/h
Sensor: Nr:Datum:Temp:Abs-Feuchte:Windchill:Wind:
Aussen-T/F 2901 02-03-2018 01:40:00 -2.9 C 2.25 g/m*3 -7.53 C 12.9 km/h
2902 02-03-2018 01:45:00 -2.9 C 2.29 g/m*3 -2.9 C 4.8 km/h
2903 02-03-2018 01:50:00 -2.9 C 2.25 g/m*3 -7.14 C 11.3 km/h
2904 02-03-2018 01:55:00 -2.9 C 2.25 g/m*3 -6.69 C 9.7 km/h
2905 02-03-2018 02:00:00 -2.9 C 2.25 g/m*3 -6.18 C 8.1 km/h
2906 02-03-2018 02:05:00 -2.9 C 2.25 g/m*3 -6.18 C 8.1 km/h
2907 02-03-2018 02:10:00 -2.9 C 2.25 g/m*3 -6.18 C 8.1 km/h
2908 02-03-2018 02:15:00 -2.9 C 2.25 g/m*3 -7.53 C 12.9 km/h
2909 02-03-2018 02:20:00 -3 C 2.28 g/m*3 -3 C 4.8 km/h
2910 02-03-2018 02:25:00 -3 C 2.24 g/m*3 -3 C 4.8 km/h
2911 02-03-2018 02:30:00 -3 C 2.28 g/m*3 -3 C 4.8 km/h
2912 02-03-2018 02:35:00 -3 C 2.28 g/m*3 -5.65 C 6.4 km/h
2913 02-03-2018 02:40:00 -3.1 C 2.26 g/m*3 -6.93 C 9.7 km/h
2914 02-03-2018 02:45:00 -3.1 C 2.22 g/m*3 -7.78 C 12.9 km/h
2915 02-03-2018 02:50:00 -3.1 C 2.22 g/m*3 -8.76 C 17.7 km/h
2916 02-03-2018 02:55:00 -3.2 C 2.25 g/m*3 -8.26 C 14.5 km/h
2917 02-03-2018 03:00:00 -3.2 C 2.25 g/m*3 -7.9 C 12.9 km/h
2918 02-03-2018 03:05:00 -3.2 C 2.25 g/m*3 -6.53 C 8.1 km/h
2919 02-03-2018 03:10:00 -3.3 C 2.23 g/m*3 -7.62 C 11.3 km/h
2920 02-03-2018 03:15:00 -3.3 C 2.23 g/m*3 -8.38 C 14.5 km/h
2921 02-03-2018 03:20:00 -3.3 C 2.27 g/m*3 -6.65 C 8.1 km/h
2922 02-03-2018 03:25:00 -3.3 C 2.27 g/m*3 -6.65 C 8.1 km/h
2923 02-03-2018 03:30:00 -3.3 C 2.23 g/m*3 -6.65 C 8.1 km/h
2924 02-03-2018 03:35:00 -3.4 C 2.21 g/m*3 -8.5 C 14.5 km/h
2925 02-03-2018 03:40:00 -3.5 C 2.24 g/m*3 -6.22 C 6.4 km/h
Sensor: Nr:Datum:Temp:Abs-Feuchte:Windchill:Wind:
Aussen-T/F 2926 02-03-2018 03:45:00 -3.6 C 2.22 g/m*3 -7.53 C 9.7 km/h
2927 02-03-2018 03:50:00 -3.6 C 2.22 g/m*3 -6.34 C 6.4 km/h
2928 02-03-2018 03:55:00 -3.6 C 2.22 g/m*3 -6.34 C 6.4 km/h
2929 02-03-2018 04:00:00 -3.6 C 2.22 g/m*3 -8.38 C 12.9 km/h
2930 02-03-2018 04:05:00 -3.7 C 2.24 g/m*3 -3.7 C 4.8 km/h
2931 02-03-2018 04:10:00 -3.7 C 2.24 g/m*3 -7.64 C 9.7 km/h
2932 02-03-2018 04:15:00 -3.7 C 2.24 g/m*3 -7.12 C 8.1 km/h
2933 02-03-2018 04:20:00 -3.7 C 2.24 g/m*3 -3.7 C 3.2 km/h
2934 02-03-2018 04:25:00 -3.7 C 2.24 g/m*3 -3.7 C 3.2 km/h
2935 02-03-2018 04:30:00 -3.8 C 2.23 g/m*3 -8.22 C 11.3 km/h
2936 02-03-2018 04:35:00 -3.8 C 2.26 g/m*3 -6.57 C 6.4 km/h
2937 02-03-2018 04:40:00 -3.8 C 2.23 g/m*3 -8.63 C 12.9 km/h
2938 02-03-2018 04:45:00 -3.9 C 2.25 g/m*3 -9.45 C 16.1 km/h
2939 02-03-2018 04:50:00 -3.9 C 2.25 g/m*3 -6.69 C 6.4 km/h
2940 02-03-2018 04:55:00 -3.9 C 2.25 g/m*3 -6.69 C 6.4 km/h
2941 02-03-2018 05:00:00 -4 C 2.23 g/m*3 -8.46 C 11.3 km/h
2942 02-03-2018 05:05:00 -4 C 2.23 g/m*3 -6.8 C 6.4 km/h
2943 02-03-2018 05:10:00 -4.1 C 2.25 g/m*3 -7.59 C 8.1 km/h
2944 02-03-2018 05:15:00 -4.1 C 2.22 g/m*3 -8.12 C 9.7 km/h
2945 02-03-2018 05:20:00 -4.1 C 2.25 g/m*3 -8.12 C 9.7 km/h
2946 02-03-2018 05:25:00 -4.1 C 2.25 g/m*3 -4.1 C 4.8 km/h
2947 02-03-2018 05:30:00 -4.1 C 2.25 g/m*3 -8.12 C 9.7 km/h
2948 02-03-2018 05:35:00 -4.2 C 2.24 g/m*3 -7.71 C 8.1 km/h
2949 02-03-2018 05:40:00 -4.2 C 2.24 g/m*3 -8.7 C 11.3 km/h
2950 02-03-2018 05:45:00 -4.2 C 2.24 g/m*3 -8.24 C 9.7 km/h
Sensor: Nr:Datum:Temp:Abs-Feuchte:Windchill:Wind:
Aussen-T/F 2951 02-03-2018 05:50:00 -4.2 C 2.27 g/m*3 -7.71 C 8.1 km/h
2952 02-03-2018 05:55:00 -4.2 C 2.24 g/m*3 -7.03 C 6.4 km/h
2953 02-03-2018 06:00:00 -4.2 C 2.27 g/m*3 -7.03 C 6.4 km/h
2954 02-03-2018 06:05:00 -4.2 C 2.27 g/m*3 -7.71 C 8.1 km/h
2955 02-03-2018 06:10:00 -4.2 C 2.24 g/m*3 -4.2 C 3.2 km/h
2956 02-03-2018 06:15:00 -4.3 C 2.22 g/m*3 -8.82 C 11.3 km/h
2957 02-03-2018 06:20:00 -4.3 C 2.22 g/m*3 -7.82 C 8.1 km/h
2958 02-03-2018 06:25:00 -4.3 C 2.26 g/m*3 -7.82 C 8.1 km/h
2959 02-03-2018 06:30:00 -4.3 C 2.26 g/m*3 -7.82 C 8.1 km/h
2960 02-03-2018 06:35:00 -4.3 C 2.26 g/m*3 -8.36 C 9.7 km/h
2961 02-03-2018 06:40:00 -4.4 C 2.24 g/m*3 -7.26 C 6.4 km/h
2962 02-03-2018 06:45:00 -4.4 C 2.24 g/m*3 -8.95 C 11.3 km/h
2963 02-03-2018 06:50:00 -4.4 C 2.24 g/m*3 -9.36 C 12.9 km/h
2964 02-03-2018 06:55:00 -4.4 C 2.24 g/m*3 -7.94 C 8.1 km/h
2965 02-03-2018 07:00:00 -4.4 C 2.24 g/m*3 -7.94 C 8.1 km/h
2966 02-03-2018 07:05:00 -4.4 C 2.24 g/m*3 -8.95 C 11.3 km/h
2967 02-03-2018 07:10:00 -4.4 C 2.24 g/m*3 -7.94 C 8.1 km/h
2968 02-03-2018 07:15:00 -4.4 C 2.28 g/m*3 -4.4 C 3.2 km/h
2969 02-03-2018 07:20:00 -4.4 C 2.28 g/m*3 -8.48 C 9.7 km/h
2970 02-03-2018 07:25:00 -4.4 C 2.24 g/m*3 -8.95 C 11.3 km/h
2971 02-03-2018 07:30:00 -4.4 C 2.28 g/m*3 -9.36 C 12.9 km/h
2972 02-03-2018 07:35:00 -4.4 C 2.24 g/m*3 -9.36 C 12.9 km/h
2973 02-03-2018 07:40:00 -4.5 C 2.22 g/m*3 -8.6 C 9.7 km/h
2974 02-03-2018 07:45:00 -4.6 C 2.24 g/m*3 -9.98 C 14.5 km/h
2975 02-03-2018 07:50:00 -4.6 C 2.24 g/m*3 -9.19 C 11.3 km/h
Sensor: Nr:Datum:Temp:Abs-Feuchte:Windchill:Wind:
Aussen-T/F 2976 02-03-2018 07:55:00 -4.6 C 2.24 g/m*3 -9.19 C 11.3 km/h
2977 02-03-2018 08:00:00 -4.6 C 2.24 g/m*3 -9.98 C 14.5 km/h
2978 02-03-2018 08:05:00 -4.6 C 2.24 g/m*3 -9.6 C 12.9 km/h
2979 02-03-2018 08:10:00 -4.6 C 2.24 g/m*3 -9.19 C 11.3 km/h
2980 02-03-2018 08:15:00 -4.6 C 2.24 g/m*3 -9.19 C 11.3 km/h
2981 02-03-2018 08:20:00 -4.6 C 2.24 g/m*3 -9.6 C 12.9 km/h
2982 02-03-2018 08:25:00 -4.6 C 2.24 g/m*3 -10.63 C 17.7 km/h
2983 02-03-2018 08:30:00 -4.6 C 2.24 g/m*3 -9.19 C 11.3 km/h
2984 02-03-2018 08:35:00 -4.6 C 2.24 g/m*3 -9.19 C 11.3 km/h
2985 02-03-2018 08:40:00 -4.5 C 2.26 g/m*3 -9.48 C 12.9 km/h
2986 02-03-2018 08:45:00 -4.5 C 2.26 g/m*3 -9.07 C 11.3 km/h
2987 02-03-2018 08:50:00 -4.4 C 2.28 g/m*3 -8.95 C 11.3 km/h
2988 02-03-2018 08:55:00 -4.4 C 2.28 g/m*3 -8.48 C 9.7 km/h
2989 02-03-2018 09:00:00 -4.4 C 2.28 g/m*3 -10.07 C 16.1 km/h
2990 02-03-2018 09:05:00 -4.3 C 2.29 g/m*3 -8.82 C 11.3 km/h
2991 02-03-2018 09:10:00 -4.3 C 2.26 g/m*3 -8.36 C 9.7 km/h
2992 02-03-2018 09:15:00 -4.2 C 2.27 g/m*3 -9.82 C 16.1 km/h
2993 02-03-2018 09:20:00 -4.2 C 2.31 g/m*3 -8.24 C 9.7 km/h
2994 02-03-2018 09:25:00 -4.1 C 2.29 g/m*3 -8.58 C 11.3 km/h
2995 02-03-2018 09:30:00 -4.1 C 2.29 g/m*3 -9.36 C 14.5 km/h
2996 02-03-2018 09:35:00 -4 C 2.3 g/m*3 -9.24 C 14.5 km/h
2997 02-03-2018 09:40:00 -3.9 C 2.32 g/m*3 -8.75 C 12.9 km/h
2998 02-03-2018 09:45:00 -3.9 C 2.28 g/m*3 -9.12 C 14.5 km/h
2999 02-03-2018 09:50:00 -3.9 C 2.32 g/m*3 -8.34 C 11.3 km/h
3000 02-03-2018 09:55:00 -3.8 C 2.3 g/m*3 -8.99 C 14.5 km/h
Sensor: Nr:Datum:Temp:Abs-Feuchte:Windchill:Wind:
Aussen-T/F 3001 02-03-2018 10:00:00 -3.8 C 2.3 g/m*3 -8.63 C 12.9 km/h
3002 02-03-2018 10:05:00 -3.7 C 2.32 g/m*3 -8.51 C 12.9 km/h
3003 02-03-2018 10:10:00 -3.7 C 2.32 g/m*3 -7.12 C 8.1 km/h
3004 02-03-2018 10:15:00 -3.7 C 2.32 g/m*3 -8.1 C 11.3 km/h
3005 02-03-2018 10:20:00 -3.6 C 2.33 g/m*3 -7 C 8.1 km/h
3006 02-03-2018 10:25:00 -3.5 C 2.31 g/m*3 -6.88 C 8.1 km/h
3007 02-03-2018 10:30:00 -3.5 C 2.31 g/m*3 -8.26 C 12.9 km/h
3008 02-03-2018 10:35:00 -3.5 C 2.31 g/m*3 -7.41 C 9.7 km/h
3009 02-03-2018 10:40:00 -3.4 C 2.37 g/m*3 -7.29 C 9.7 km/h
3010 02-03-2018 10:45:00 -3.3 C 2.35 g/m*3 -7.17 C 9.7 km/h
3011 02-03-2018 10:50:00 -3.3 C 2.35 g/m*3 -7.17 C 9.7 km/h
3012 02-03-2018 10:55:00 -3.3 C 2.35 g/m*3 -7.62 C 11.3 km/h
3013 02-03-2018 11:00:00 -3.3 C 2.31 g/m*3 -7.62 C 11.3 km/h
3014 02-03-2018 11:05:00 -3.3 C 2.35 g/m*3 -7.17 C 9.7 km/h
3015 02-03-2018 11:10:00 -3.2 C 2.36 g/m*3 -6.53 C 8.1 km/h
3016 02-03-2018 11:15:00 -3.1 C 2.38 g/m*3 -6.93 C 9.7 km/h
3017 02-03-2018 11:20:00 -3 C 2.36 g/m*3 -6.3 C 8.1 km/h
3018 02-03-2018 11:25:00 -2.9 C 2.37 g/m*3 -7.89 C 14.5 km/h
3019 02-03-2018 11:30:00 -2.9 C 2.37 g/m*3 -7.53 C 12.9 km/h
3020 02-03-2018 11:35:00 -2.9 C 2.37 g/m*3 -7.89 C 14.5 km/h
3021 02-03-2018 11:40:00 -2.8 C 2.39 g/m*3 -7.41 C 12.9 km/h
3022 02-03-2018 11:45:00 -2.7 C 2.41 g/m*3 -7.64 C 14.5 km/h
3023 02-03-2018 11:50:00 -2.6 C 2.38 g/m*3 -7.84 C 16.1 km/h
3024 02-03-2018 11:55:00 -2.6 C 2.38 g/m*3 -7.84 C 16.1 km/h
3025 02-03-2018 12:00:00 -2.4 C 2.42 g/m*3 -6.53 C 11.3 km/h
Sensor: Nr:Datum:Temp:Abs-Feuchte:Windchill:Wind:
Aussen-T/F 3026 02-03-2018 12:05:00 -2.3 C 2.39 g/m*3 -7.76 C 17.7 km/h
3027 02-03-2018 12:10:00 -2.3 C 2.39 g/m*3 -8.03 C 19.3 km/h
3028 02-03-2018 12:15:00 -2.2 C 2.41 g/m*3 -7.64 C 17.7 km/h
3029 02-03-2018 12:20:00 -2.1 C 2.43 g/m*3 -6.17 C 11.3 km/h
3030 02-03-2018 12:25:00 -1.9 C 2.46 g/m*3 -5.93 C 11.3 km/h
3031 02-03-2018 12:30:00 -1.9 C 2.42 g/m*3 -5.93 C 11.3 km/h
3032 02-03-2018 12:35:00 -1.8 C 2.48 g/m*3 -6.19 C 12.9 km/h
3033 02-03-2018 12:40:00 -1.8 C 2.44 g/m*3 -6.53 C 14.5 km/h
3034 02-03-2018 12:45:00 -1.8 C 2.44 g/m*3 -6.53 C 14.5 km/h
3035 02-03-2018 12:50:00 -1.7 C 2.45 g/m*3 -5.69 C 11.3 km/h
3036 02-03-2018 12:55:00 -1.7 C 2.45 g/m*3 -6.41 C 14.5 km/h
3037 02-03-2018 13:00:00 -1.7 C 2.41 g/m*3 -5.69 C 11.3 km/h
3038 02-03-2018 13:05:00 -1.7 C 2.41 g/m*3 -5.26 C 9.7 km/h
3039 02-03-2018 13:10:00 -1.7 C 2.41 g/m*3 -6.07 C 12.9 km/h
3040 02-03-2018 13:15:00 -1.7 C 2.41 g/m*3 -6.07 C 12.9 km/h
3041 02-03-2018 13:20:00 -1.7 C 2.41 g/m*3 -4.77 C 8.1 km/h
3042 02-03-2018 13:25:00 -1.6 C 2.43 g/m*3 -5.95 C 12.9 km/h
3043 02-03-2018 13:30:00 -1.5 C 2.4 g/m*3 -5.45 C 11.3 km/h
3044 02-03-2018 13:35:00 -1.5 C 2.4 g/m*3 -5.83 C 12.9 km/h
3045 02-03-2018 13:40:00 -1.5 C 2.4 g/m*3 -4.53 C 8.1 km/h
3046 02-03-2018 13:45:00 -1.4 C 2.46 g/m*3 -3.8 C 6.4 km/h
3047 02-03-2018 13:50:00 -1.3 C 2.43 g/m*3 -5.21 C 11.3 km/h
3048 02-03-2018 13:55:00 -1.4 C 2.42 g/m*3 -5.33 C 11.3 km/h
3049 02-03-2018 14:00:00 -1.4 C 2.42 g/m*3 -5.7 C 12.9 km/h
3050 02-03-2018 14:05:00 -1.3 C 2.43 g/m*3 -5.58 C 12.9 km/h
Sensor: Nr:Datum:Temp:Abs-Feuchte:Windchill:Wind:
Aussen-T/F 3051 02-03-2018 14:10:00 -1.3 C 2.43 g/m*3 -4.78 C 9.7 km/h
3052 02-03-2018 14:15:00 -1.2 C 2.45 g/m*3 -5.09 C 11.3 km/h
3053 02-03-2018 14:20:00 -1.1 C 2.42 g/m*3 -4.97 C 11.3 km/h
3054 02-03-2018 14:25:00 -1.1 C 2.42 g/m*3 -5.34 C 12.9 km/h
3055 02-03-2018 14:30:00 -1.1 C 2.42 g/m*3 -5.98 C 16.1 km/h
3056 02-03-2018 14:35:00 -1.1 C 2.42 g/m*3 -5.67 C 14.5 km/h
3057 02-03-2018 14:40:00 -1.1 C 2.42 g/m*3 -4.97 C 11.3 km/h
3058 02-03-2018 14:45:00 -1 C 2.44 g/m*3 -5.22 C 12.9 km/h
3059 02-03-2018 14:50:00 -1.1 C 2.42 g/m*3 -5.67 C 14.5 km/h
3060 02-03-2018 14:55:00 -1 C 2.44 g/m*3 -5.55 C 14.5 km/h
3061 02-03-2018 15:00:00 -0.9 C 2.46 g/m*3 -5.09 C 12.9 km/h
3062 02-03-2018 15:05:00 -1 C 2.44 g/m*3 -5.86 C 16.1 km/h
3063 02-03-2018 15:10:00 -0.9 C 2.5 g/m*3 -4.72 C 11.3 km/h
3064 02-03-2018 15:15:00 -0.9 C 2.46 g/m*3 -5.73 C 16.1 km/h
3065 02-03-2018 15:20:00 -0.9 C 2.46 g/m*3 -5.09 C 12.9 km/h
3066 02-03-2018 15:25:00 -0.8 C 2.48 g/m*3 -4.19 C 9.7 km/h
3067 02-03-2018 15:30:00 -0.7 C 2.49 g/m*3 -4.85 C 12.9 km/h
3068 02-03-2018 15:35:00 -0.7 C 2.49 g/m*3 -6.02 C 19.3 km/h
3069 02-03-2018 15:40:00 -0.7 C 2.49 g/m*3 -4.48 C 11.3 km/h
3070 02-03-2018 15:45:00 -0.6 C 2.51 g/m*3 -0.6 C 4.8 km/h
3071 02-03-2018 15:50:00 -0.6 C 2.46 g/m*3 -4.36 C 11.3 km/h
3072 02-03-2018 15:55:00 -0.6 C 2.46 g/m*3 -0.6 C 4.8 km/h
3073 02-03-2018 16:00:00 -0.4 C 2.54 g/m*3 -5.11 C 16.1 km/h
3074 02-03-2018 16:05:00 -0.4 C 2.5 g/m*3 -4.12 C 11.3 km/h
3075 02-03-2018 16:10:00 -0.4 C 2.5 g/m*3 -4.12 C 11.3 km/h
Sensor: Nr:Datum:Temp:Abs-Feuchte:Windchill:Wind:
Aussen-T/F 3076 02-03-2018 16:15:00 -0.3 C 2.52 g/m*3 -3.59 C 9.7 km/h
3077 02-03-2018 16:20:00 -0.2 C 2.53 g/m*3 -0.2 C 1.6 km/h
3078 02-03-2018 16:25:00 -0.2 C 2.48 g/m*3 -4.24 C 12.9 km/h
3079 02-03-2018 16:30:00 -0.2 C 2.53 g/m*3 -3.47 C 9.7 km/h
3080 02-03-2018 16:35:00 -0.2 C 2.53 g/m*3 -3.88 C 11.3 km/h
3081 02-03-2018 16:40:00 -0.2 C 2.53 g/m*3 -3.47 C 9.7 km/h
3082 02-03-2018 16:45:00 -0.2 C 2.53 g/m*3 -3.47 C 9.7 km/h
3083 02-03-2018 16:50:00 -0.2 C 2.53 g/m*3 -2.41 C 6.4 km/h
3084 02-03-2018 16:55:00 -0.2 C 2.53 g/m*3 -3.47 C 9.7 km/h
3085 02-03-2018 17:00:00 -0.1 C 2.55 g/m*3 -0.1 C 3.2 km/h
3086 02-03-2018 17:05:00 -0.1 C 2.5 g/m*3 -2.89 C 8.1 km/h
3087 02-03-2018 17:10:00 -0.1 C 2.55 g/m*3 -0.1 C 3.2 km/h
3088 02-03-2018 17:15:00 0 C 2.57 g/m*3 0 C 3.2 km/h
3089 02-03-2018 17:20:00 0 C 2.57 g/m*3 -2.18 C 6.4 km/h
3090 02-03-2018 17:25:00 0 C 2.57 g/m*3 0 C 4.8 km/h
3091 02-03-2018 17:30:00 -0.1 C 2.55 g/m*3 -0.1 C 3.2 km/h
3092 02-03-2018 17:35:00 -0.1 C 2.55 g/m*3 -0.1 C 4.8 km/h
3093 02-03-2018 17:40:00 -0.1 C 2.6 g/m*3 -0.1 C 3.2 km/h
3094 02-03-2018 17:45:00 0 C 2.62 g/m*3 0 C 1.6 km/h
3095 02-03-2018 17:50:00 0 C 2.57 g/m*3 0 C 3.2 km/h
3096 02-03-2018 17:55:00 0 C 2.62 g/m*3 0 C 3.2 km/h
3097 02-03-2018 18:00:00 0 C 2.62 g/m*3 0 C 3.2 km/h
3098 02-03-2018 18:05:00 0 C 2.62 g/m*3 0 C 4.8 km/h
3099 02-03-2018 18:10:00 0 C 2.62 g/m*3 0 C 0 km/h
3100 02-03-2018 18:15:00 0 C 2.66 g/m*3 0 C 0 km/h
Sensor: Nr:Datum:Temp:Abs-Feuchte:Windchill:Wind:
Aussen-T/F 3101 02-03-2018 18:20:00 0 C 2.66 g/m*3 0 C 1.6 km/h
3102 02-03-2018 18:25:00 0 C 2.66 g/m*3 0 C 3.2 km/h
3103 02-03-2018 18:30:00 -0.1 C 2.74 g/m*3 -0.1 C 0 km/h
3104 02-03-2018 18:35:00 -0.1 C 2.74 g/m*3 -0.1 C 0 km/h
3105 02-03-2018 18:40:00 -0.1 C 2.74 g/m*3 -0.1 C 0 km/h
3106 02-03-2018 18:45:00 -0.2 C 2.68 g/m*3 -0.2 C 4.8 km/h
3107 02-03-2018 18:50:00 -0.2 C 2.63 g/m*3 -0.2 C 1.6 km/h
3108 02-03-2018 18:55:00 -0.2 C 2.68 g/m*3 -0.2 C 4.8 km/h
3109 02-03-2018 19:00:00 -0.2 C 2.72 g/m*3 -3.88 C 11.3 km/h
3110 02-03-2018 19:05:00 -0.2 C 2.68 g/m*3 -0.2 C 3.2 km/h
3111 02-03-2018 19:10:00 -0.2 C 2.72 g/m*3 -0.2 C 4.8 km/h
3112 02-03-2018 19:15:00 -0.2 C 2.72 g/m*3 -0.2 C 4.8 km/h
3113 02-03-2018 19:20:00 -0.2 C 2.77 g/m*3 -0.2 C 4.8 km/h
3114 02-03-2018 19:25:00 -0.3 C 2.75 g/m*3 -0.3 C 4.8 km/h
3115 02-03-2018 19:30:00 -0.3 C 2.8 g/m*3 -0.3 C 3.2 km/h
3116 02-03-2018 19:35:00 -0.3 C 2.85 g/m*3 -2.53 C 6.4 km/h
3117 02-03-2018 19:40:00 -0.4 C 2.87 g/m*3 -2.64 C 6.4 km/h
3118 02-03-2018 19:45:00 -0.4 C 2.97 g/m*3 -2.64 C 6.4 km/h
3119 02-03-2018 19:50:00 -0.5 C 3 g/m*3 -0.5 C 4.8 km/h
3120 02-03-2018 19:55:00 -0.6 C 3.07 g/m*3 -3.95 C 9.7 km/h
3121 02-03-2018 20:00:00 -0.8 C 3.12 g/m*3 -0.8 C 4.8 km/h
3122 02-03-2018 20:05:00 -0.8 C 3.21 g/m*3 -0.8 C 3.2 km/h
3123 02-03-2018 20:10:00 -0.9 C 3.23 g/m*3 -3.22 C 6.4 km/h
3124 02-03-2018 20:15:00 -1.1 C 3.28 g/m*3 -1.1 C 4.8 km/h
3125 02-03-2018 20:20:00 -1.1 C 3.32 g/m*3 -1.1 C 3.2 km/h
Sensor: Nr:Datum:Temp:Abs-Feuchte:Windchill:Wind:
Aussen-T/F 3126 02-03-2018 20:25:00 -1.2 C 3.43 g/m*3 -1.2 C 4.8 km/h
3127 02-03-2018 20:30:00 -1.3 C 3.5 g/m*3 -4.3 C 8.1 km/h
3128 02-03-2018 20:35:00 -1.4 C 3.52 g/m*3 -1.4 C 4.8 km/h
3129 02-03-2018 20:40:00 -1.6 C 3.55 g/m*3 -1.6 C 3.2 km/h
3130 02-03-2018 20:45:00 -1.7 C 3.57 g/m*3 -1.7 C 1.6 km/h
3131 02-03-2018 20:50:00 -1.8 C 3.59 g/m*3 -1.8 C 1.6 km/h
3132 02-03-2018 20:55:00 -1.8 C 3.59 g/m*3 -1.8 C 0 km/h
3133 02-03-2018 21:00:00 -1.8 C 3.63 g/m*3 -1.8 C 0 km/h
3134 02-03-2018 21:05:00 -1.9 C 3.61 g/m*3 -1.9 C 1.6 km/h
3135 02-03-2018 21:10:00 -1.9 C 3.61 g/m*3 -1.9 C 1.6 km/h
3136 02-03-2018 21:15:00 -2 C 3.63 g/m*3 -2 C 0 km/h
3137 02-03-2018 21:20:00 -2 C 3.63 g/m*3 -2 C 0 km/h
3138 02-03-2018 21:25:00 -2.1 C 3.6 g/m*3 -2.1 C 0 km/h
3139 02-03-2018 21:30:00 -2.1 C 3.64 g/m*3 -2.1 C 0 km/h
3140 02-03-2018 21:35:00 -2.1 C 3.64 g/m*3 -2.1 C 0 km/h
3141 02-03-2018 21:40:00 -2.1 C 3.64 g/m*3 -2.1 C 0 km/h
3142 02-03-2018 21:45:00 -2.1 C 3.64 g/m*3 -2.1 C 0 km/h
3143 02-03-2018 21:50:00 -2.1 C 3.68 g/m*3 -2.1 C 0 km/h
3144 02-03-2018 21:55:00 -2.1 C 3.68 g/m*3 -2.1 C 0 km/h
3145 02-03-2018 22:00:00 -2.1 C 3.68 g/m*3 -2.1 C 0 km/h
3146 02-03-2018 22:05:00 -2.1 C 3.68 g/m*3 -2.1 C 0 km/h
3147 02-03-2018 22:10:00 -2.2 C 3.7 g/m*3 -2.2 C 0 km/h
3148 02-03-2018 22:15:00 -2.2 C 3.7 g/m*3 -2.2 C 0 km/h
3149 02-03-2018 22:20:00 -2.2 C 3.7 g/m*3 -2.2 C 0 km/h
3150 02-03-2018 22:25:00 -2.2 C 3.7 g/m*3 -2.2 C 0 km/h
Sensor: Nr:Datum:Temp:Abs-Feuchte:Windchill:Wind:
Aussen-T/F 3151 02-03-2018 22:30:00 -2.2 C 3.7 g/m*3 -2.2 C 0 km/h
3152 02-03-2018 22:35:00 -2.2 C 3.7 g/m*3 -2.2 C 0 km/h
3153 02-03-2018 22:40:00 -2.2 C 3.7 g/m*3 -2.2 C 0 km/h
3154 02-03-2018 22:45:00 -2.2 C 3.74 g/m*3 -2.2 C 0 km/h
3155 02-03-2018 22:50:00 -2.2 C 3.74 g/m*3 -2.2 C 0 km/h
3156 02-03-2018 22:55:00 -2.3 C 3.71 g/m*3 -2.3 C 0 km/h
3157 02-03-2018 23:00:00 -2.3 C 3.71 g/m*3 -2.3 C 0 km/h
3158 02-03-2018 23:05:00 -2.3 C 3.71 g/m*3 -2.3 C 0 km/h
3159 02-03-2018 23:10:00 -2.3 C 3.71 g/m*3 -2.3 C 0 km/h
3160 02-03-2018 23:15:00 -2.3 C 3.76 g/m*3 -2.3 C 0 km/h
3161 02-03-2018 23:20:00 -2.3 C 3.76 g/m*3 -2.3 C 0 km/h
3162 02-03-2018 23:25:00 -2.3 C 3.76 g/m*3 -2.3 C 0 km/h
3163 02-03-2018 23:30:00 -2.3 C 3.76 g/m*3 -2.3 C 0 km/h
3164 02-03-2018 23:35:00 -2.3 C 3.76 g/m*3 -2.3 C 0 km/h
3165 02-03-2018 23:40:00 -2.2 C 3.78 g/m*3 -2.2 C 0 km/h
3166 02-03-2018 23:45:00 -2.3 C 3.76 g/m*3 -2.3 C 0 km/h
3167 02-03-2018 23:50:00 -2.3 C 3.76 g/m*3 -2.3 C 0 km/h
3168 02-03-2018 23:55:00 -2.3 C 3.76 g/m*3 -2.3 C 0 km/h
3169 03-03-2018 00:00:00 -2.3 C 3.76 g/m*3 -2.3 C 0 km/h
3170 03-03-2018 00:05:00 -2.3 C 3.76 g/m*3 -2.3 C 0 km/h
3171 03-03-2018 00:10:00 -2.3 C 3.76 g/m*3 -2.3 C 0 km/h
3172 03-03-2018 00:15:00 -2.3 C 3.76 g/m*3 -2.3 C 0 km/h
3173 03-03-2018 00:20:00 -2.3 C 3.8 g/m*3 -2.3 C 0 km/h
3174 03-03-2018 00:25:00 -2.3 C 3.8 g/m*3 -2.3 C 0 km/h
3175 03-03-2018 00:30:00 -2.3 C 3.8 g/m*3 -2.3 C 0 km/h
Sensor: Nr:Datum:Temp:Abs-Feuchte:Windchill:Wind:
Aussen-T/F 3176 03-03-2018 00:35:00 -2.3 C 3.8 g/m*3 -2.3 C 0 km/h
3177 03-03-2018 00:40:00 -2.3 C 3.8 g/m*3 -2.3 C 0 km/h
3178 03-03-2018 00:45:00 -2.3 C 3.8 g/m*3 -2.3 C 0 km/h
3179 03-03-2018 00:50:00 -2.3 C 3.8 g/m*3 -2.3 C 0 km/h
3180 03-03-2018 00:55:00 -2.3 C 3.8 g/m*3 -2.3 C 0 km/h
3181 03-03-2018 01:00:00 -2.3 C 3.8 g/m*3 -2.3 C 0 km/h
3182 03-03-2018 01:05:00 -2.3 C 3.8 g/m*3 -2.3 C 0 km/h
3183 03-03-2018 01:10:00 -2.2 C 3.82 g/m*3 -2.2 C 0 km/h
3184 03-03-2018 01:15:00 -2.2 C 3.82 g/m*3 -2.2 C 0 km/h
3185 03-03-2018 01:20:00 -2.2 C 3.82 g/m*3 -2.2 C 0 km/h
3186 03-03-2018 01:25:00 -2.2 C 3.82 g/m*3 -2.2 C 0 km/h
3187 03-03-2018 01:30:00 -2.2 C 3.82 g/m*3 -2.2 C 0 km/h
3188 03-03-2018 01:35:00 -2.2 C 3.82 g/m*3 -2.2 C 0 km/h
3189 03-03-2018 01:40:00 -2.2 C 3.82 g/m*3 -2.2 C 0 km/h
3190 03-03-2018 01:45:00 -2.2 C 3.82 g/m*3 -2.2 C 0 km/h
3191 03-03-2018 01:50:00 -2.2 C 3.82 g/m*3 -2.2 C 0 km/h
3192 03-03-2018 01:55:00 -2.2 C 3.82 g/m*3 -2.2 C 0 km/h
3193 03-03-2018 02:00:00 -2.2 C 3.82 g/m*3 -2.2 C 0 km/h
3194 03-03-2018 02:05:00 -2.2 C 3.82 g/m*3 -2.2 C 0 km/h
3195 03-03-2018 02:10:00 -2.2 C 3.82 g/m*3 -2.2 C 0 km/h
3196 03-03-2018 02:15:00 -2.2 C 3.82 g/m*3 -2.2 C 0 km/h
3197 03-03-2018 02:20:00 -2.2 C 3.82 g/m*3 -2.2 C 0 km/h
3198 03-03-2018 02:25:00 -2.2 C 3.87 g/m*3 -2.2 C 0 km/h
3199 03-03-2018 02:30:00 -2.2 C 3.87 g/m*3 -2.2 C 0 km/h
3200 03-03-2018 02:35:00 -2.2 C 3.87 g/m*3 -2.2 C 0 km/h
Sensor: Nr:Datum:Temp:Abs-Feuchte:Windchill:Wind:
Aussen-T/F 3201 03-03-2018 02:40:00 -2.1 C 3.85 g/m*3 -2.1 C 0 km/h
3202 03-03-2018 02:45:00 -2.1 C 3.89 g/m*3 -2.1 C 0 km/h